<?xml version="1.0" encoding="UTF-8" standalone="no" ?>
<gpx xmlns="http://www.topografix.com/GPX/1/1" xmlns:xsi="http://www.w3.org/2001/XMLSchema-instance" xsi:schemaLocation="http://www.topografix.com/GPX/1/1 http://www.topografix.com/GPX/1/1/gpx.xsd" version="1.1" creator="VisuGPX - https://www.visugpx.com">
  <metadata>
    <name>Pilon du Roi et (presque) l'étoile</name>
    <desc><![CDATA[Très belles vues, mais passages difficiles, en montée comme en descente. Du coup, l'étoile était un peu trop loin : on a préféré raccourcir le circuit...]]></desc>
  </metadata>
  <trk>
    <name><![CDATA[2019-03-17 17:18:34]]></name>
    <trkseg>
      <trkpt lat="43.41447" lon="5.4298">
        <ele>309.68</ele>
        <time>2019-03-17T10:10:36Z</time>
      </trkpt>
      <trkpt lat="43.41451" lon="5.42978">
        <ele>311.6</ele>
        <time>2019-03-17T10:11:07Z</time>
      </trkpt>
      <trkpt lat="43.41452" lon="5.42975">
        <ele>310.64</ele>
        <time>2019-03-17T10:11:19Z</time>
      </trkpt>
      <trkpt lat="43.41455" lon="5.4297">
        <ele>312.09</ele>
        <time>2019-03-17T10:11:33Z</time>
      </trkpt>
      <trkpt lat="43.41454" lon="5.42969">
        <ele>313.05</ele>
        <time>2019-03-17T10:11:53Z</time>
      </trkpt>
      <trkpt lat="43.41454" lon="5.4297">
        <ele>312.09</ele>
        <time>2019-03-17T10:12:06Z</time>
      </trkpt>
      <trkpt lat="43.41455" lon="5.42972">
        <ele>313.53</ele>
        <time>2019-03-17T10:12:32Z</time>
      </trkpt>
      <trkpt lat="43.41455" lon="5.42971">
        <ele>313.05</ele>
        <time>2019-03-17T10:12:45Z</time>
      </trkpt>
      <trkpt lat="43.41455" lon="5.42973">
        <ele>311.6</ele>
        <time>2019-03-17T10:13:06Z</time>
      </trkpt>
      <trkpt lat="43.41456" lon="5.42974">
        <ele>310.16</ele>
        <time>2019-03-17T10:13:21Z</time>
      </trkpt>
      <trkpt lat="43.41456" lon="5.42972">
        <ele>310.16</ele>
        <time>2019-03-17T10:13:23Z</time>
      </trkpt>
      <trkpt lat="43.41458" lon="5.42965">
        <ele>310.16</ele>
        <time>2019-03-17T10:13:28Z</time>
      </trkpt>
      <trkpt lat="43.41462" lon="5.42947">
        <ele>310.16</ele>
        <time>2019-03-17T10:13:42Z</time>
      </trkpt>
      <trkpt lat="43.41457" lon="5.42948">
        <ele>310.64</ele>
        <time>2019-03-17T10:13:53Z</time>
      </trkpt>
      <trkpt lat="43.4146" lon="5.42946">
        <ele>310.16</ele>
        <time>2019-03-17T10:14:09Z</time>
      </trkpt>
      <trkpt lat="43.41461" lon="5.42942">
        <ele>310.16</ele>
        <time>2019-03-17T10:14:15Z</time>
      </trkpt>
      <trkpt lat="43.41463" lon="5.4293">
        <ele>308.24</ele>
        <time>2019-03-17T10:14:27Z</time>
      </trkpt>
      <trkpt lat="43.41465" lon="5.42931">
        <ele>306.8</ele>
        <time>2019-03-17T10:14:38Z</time>
      </trkpt>
      <trkpt lat="43.41464" lon="5.42934">
        <ele>306.32</ele>
        <time>2019-03-17T10:14:40Z</time>
      </trkpt>
      <trkpt lat="43.41458" lon="5.4296">
        <ele>304.39</ele>
        <time>2019-03-17T10:14:53Z</time>
      </trkpt>
      <trkpt lat="43.41452" lon="5.42973">
        <ele>305.36</ele>
        <time>2019-03-17T10:15:04Z</time>
      </trkpt>
      <trkpt lat="43.41452" lon="5.42973">
        <ele>305.84</ele>
        <time>2019-03-17T10:15:09Z</time>
      </trkpt>
      <trkpt lat="43.41459" lon="5.42957">
        <ele>305.36</ele>
        <time>2019-03-17T10:15:21Z</time>
      </trkpt>
      <trkpt lat="43.41461" lon="5.4295">
        <ele>305.36</ele>
        <time>2019-03-17T10:15:26Z</time>
      </trkpt>
      <trkpt lat="43.41462" lon="5.42929">
        <ele>307.76</ele>
        <time>2019-03-17T10:15:40Z</time>
      </trkpt>
      <trkpt lat="43.41466" lon="5.42928">
        <ele>310.64</ele>
        <time>2019-03-17T10:15:56Z</time>
      </trkpt>
      <trkpt lat="43.41466" lon="5.42925">
        <ele>310.64</ele>
        <time>2019-03-17T10:16:03Z</time>
      </trkpt>
      <trkpt lat="43.4147" lon="5.42915">
        <ele>310.16</ele>
        <time>2019-03-17T10:16:11Z</time>
      </trkpt>
      <trkpt lat="43.41473" lon="5.42895">
        <ele>311.12</ele>
        <time>2019-03-17T10:16:23Z</time>
      </trkpt>
      <trkpt lat="43.41474" lon="5.42876">
        <ele>312.57</ele>
        <time>2019-03-17T10:16:34Z</time>
      </trkpt>
      <trkpt lat="43.41471" lon="5.42869">
        <ele>312.09</ele>
        <time>2019-03-17T10:16:40Z</time>
      </trkpt>
      <trkpt lat="43.41466" lon="5.42852">
        <ele>311.12</ele>
        <time>2019-03-17T10:16:54Z</time>
      </trkpt>
      <trkpt lat="43.41466" lon="5.42846">
        <ele>310.64</ele>
        <time>2019-03-17T10:16:58Z</time>
      </trkpt>
      <trkpt lat="43.4146" lon="5.4283">
        <ele>305.36</ele>
        <time>2019-03-17T10:17:12Z</time>
      </trkpt>
      <trkpt lat="43.41457" lon="5.42811">
        <ele>300.07</ele>
        <time>2019-03-17T10:17:28Z</time>
      </trkpt>
      <trkpt lat="43.4146" lon="5.42795">
        <ele>301.51</ele>
        <time>2019-03-17T10:17:45Z</time>
      </trkpt>
      <trkpt lat="43.41456" lon="5.4277">
        <ele>299.59</ele>
        <time>2019-03-17T10:18:02Z</time>
      </trkpt>
      <trkpt lat="43.41454" lon="5.4275">
        <ele>299.11</ele>
        <time>2019-03-17T10:18:17Z</time>
      </trkpt>
      <trkpt lat="43.41453" lon="5.42746">
        <ele>299.59</ele>
        <time>2019-03-17T10:18:21Z</time>
      </trkpt>
      <trkpt lat="43.41455" lon="5.4273">
        <ele>298.63</ele>
        <time>2019-03-17T10:18:33Z</time>
      </trkpt>
      <trkpt lat="43.41452" lon="5.42714">
        <ele>294.3</ele>
        <time>2019-03-17T10:18:46Z</time>
      </trkpt>
      <trkpt lat="43.4145" lon="5.4269">
        <ele>293.34</ele>
        <time>2019-03-17T10:19:03Z</time>
      </trkpt>
      <trkpt lat="43.41455" lon="5.4267">
        <ele>295.74</ele>
        <time>2019-03-17T10:19:17Z</time>
      </trkpt>
      <trkpt lat="43.41457" lon="5.42647">
        <ele>296.22</ele>
        <time>2019-03-17T10:19:31Z</time>
      </trkpt>
      <trkpt lat="43.41456" lon="5.42646">
        <ele>296.22</ele>
        <time>2019-03-17T10:19:32Z</time>
      </trkpt>
      <trkpt lat="43.41463" lon="5.42626">
        <ele>298.15</ele>
        <time>2019-03-17T10:19:46Z</time>
      </trkpt>
      <trkpt lat="43.41464" lon="5.42612">
        <ele>295.74</ele>
        <time>2019-03-17T10:19:57Z</time>
      </trkpt>
      <trkpt lat="43.41466" lon="5.42594">
        <ele>293.34</ele>
        <time>2019-03-17T10:20:11Z</time>
      </trkpt>
      <trkpt lat="43.41463" lon="5.4259">
        <ele>292.38</ele>
        <time>2019-03-17T10:20:14Z</time>
      </trkpt>
      <trkpt lat="43.41446" lon="5.42581">
        <ele>289.97</ele>
        <time>2019-03-17T10:20:27Z</time>
      </trkpt>
      <trkpt lat="43.41431" lon="5.42584">
        <ele>289.49</ele>
        <time>2019-03-17T10:20:40Z</time>
      </trkpt>
      <trkpt lat="43.4143" lon="5.42584">
        <ele>289.49</ele>
        <time>2019-03-17T10:20:41Z</time>
      </trkpt>
      <trkpt lat="43.41427" lon="5.42585">
        <ele>289.49</ele>
        <time>2019-03-17T10:20:44Z</time>
      </trkpt>
      <trkpt lat="43.41423" lon="5.42585">
        <ele>289.97</ele>
        <time>2019-03-17T10:20:48Z</time>
      </trkpt>
      <trkpt lat="43.41409" lon="5.4259">
        <ele>289.97</ele>
        <time>2019-03-17T10:21:05Z</time>
      </trkpt>
      <trkpt lat="43.41395" lon="5.42583">
        <ele>290.46</ele>
        <time>2019-03-17T10:21:19Z</time>
      </trkpt>
      <trkpt lat="43.41388" lon="5.42581">
        <ele>290.94</ele>
        <time>2019-03-17T10:21:24Z</time>
      </trkpt>
      <trkpt lat="43.41385" lon="5.42579">
        <ele>290.94</ele>
        <time>2019-03-17T10:21:27Z</time>
      </trkpt>
      <trkpt lat="43.4137" lon="5.42572">
        <ele>290.94</ele>
        <time>2019-03-17T10:21:42Z</time>
      </trkpt>
      <trkpt lat="43.41368" lon="5.4257">
        <ele>290.94</ele>
        <time>2019-03-17T10:21:44Z</time>
      </trkpt>
      <trkpt lat="43.41366" lon="5.42566">
        <ele>291.42</ele>
        <time>2019-03-17T10:21:47Z</time>
      </trkpt>
      <trkpt lat="43.41358" lon="5.42552">
        <ele>290.46</ele>
        <time>2019-03-17T10:21:59Z</time>
      </trkpt>
      <trkpt lat="43.41355" lon="5.42544">
        <ele>289.01</ele>
        <time>2019-03-17T10:22:07Z</time>
      </trkpt>
      <trkpt lat="43.41347" lon="5.42532">
        <ele>285.65</ele>
        <time>2019-03-17T10:22:20Z</time>
      </trkpt>
      <trkpt lat="43.41337" lon="5.42522">
        <ele>283.73</ele>
        <time>2019-03-17T10:22:32Z</time>
      </trkpt>
      <trkpt lat="43.41325" lon="5.42511">
        <ele>285.17</ele>
        <time>2019-03-17T10:22:47Z</time>
      </trkpt>
      <trkpt lat="43.41315" lon="5.42501">
        <ele>285.17</ele>
        <time>2019-03-17T10:23:00Z</time>
      </trkpt>
      <trkpt lat="43.41313" lon="5.42491">
        <ele>286.13</ele>
        <time>2019-03-17T10:23:14Z</time>
      </trkpt>
      <trkpt lat="43.41304" lon="5.42489">
        <ele>288.05</ele>
        <time>2019-03-17T10:23:25Z</time>
      </trkpt>
      <trkpt lat="43.41295" lon="5.42492">
        <ele>289.49</ele>
        <time>2019-03-17T10:23:37Z</time>
      </trkpt>
      <trkpt lat="43.41285" lon="5.42492">
        <ele>289.97</ele>
        <time>2019-03-17T10:23:40Z</time>
      </trkpt>
      <trkpt lat="43.4128" lon="5.42492">
        <ele>289.97</ele>
        <time>2019-03-17T10:23:42Z</time>
      </trkpt>
      <trkpt lat="43.41265" lon="5.42493">
        <ele>291.42</ele>
        <time>2019-03-17T10:23:48Z</time>
      </trkpt>
      <trkpt lat="43.4125" lon="5.42502">
        <ele>289.01</ele>
        <time>2019-03-17T10:24:01Z</time>
      </trkpt>
      <trkpt lat="43.41244" lon="5.42516">
        <ele>289.49</ele>
        <time>2019-03-17T10:24:09Z</time>
      </trkpt>
      <trkpt lat="43.41236" lon="5.42527">
        <ele>288.05</ele>
        <time>2019-03-17T10:24:19Z</time>
      </trkpt>
      <trkpt lat="43.41225" lon="5.42536">
        <ele>284.69</ele>
        <time>2019-03-17T10:24:33Z</time>
      </trkpt>
      <trkpt lat="43.41213" lon="5.42554">
        <ele>285.65</ele>
        <time>2019-03-17T10:24:50Z</time>
      </trkpt>
      <trkpt lat="43.41201" lon="5.42569">
        <ele>286.13</ele>
        <time>2019-03-17T10:25:08Z</time>
      </trkpt>
      <trkpt lat="43.4119" lon="5.42586">
        <ele>289.01</ele>
        <time>2019-03-17T10:25:22Z</time>
      </trkpt>
      <trkpt lat="43.41175" lon="5.42596">
        <ele>295.26</ele>
        <time>2019-03-17T10:25:37Z</time>
      </trkpt>
      <trkpt lat="43.41163" lon="5.42601">
        <ele>300.07</ele>
        <time>2019-03-17T10:25:51Z</time>
      </trkpt>
      <trkpt lat="43.41143" lon="5.42603">
        <ele>301.51</ele>
        <time>2019-03-17T10:26:03Z</time>
      </trkpt>
      <trkpt lat="43.41138" lon="5.42607">
        <ele>301.99</ele>
        <time>2019-03-17T10:26:08Z</time>
      </trkpt>
      <trkpt lat="43.41127" lon="5.42613">
        <ele>301.03</ele>
        <time>2019-03-17T10:26:20Z</time>
      </trkpt>
      <trkpt lat="43.41116" lon="5.4263">
        <ele>301.03</ele>
        <time>2019-03-17T10:26:33Z</time>
      </trkpt>
      <trkpt lat="43.41114" lon="5.42635">
        <ele>301.03</ele>
        <time>2019-03-17T10:26:37Z</time>
      </trkpt>
      <trkpt lat="43.41112" lon="5.42646">
        <ele>300.55</ele>
        <time>2019-03-17T10:26:44Z</time>
      </trkpt>
      <trkpt lat="43.41111" lon="5.42652">
        <ele>300.07</ele>
        <time>2019-03-17T10:26:48Z</time>
      </trkpt>
      <trkpt lat="43.41111" lon="5.42664">
        <ele>296.7</ele>
        <time>2019-03-17T10:26:58Z</time>
      </trkpt>
      <trkpt lat="43.41111" lon="5.42671">
        <ele>296.22</ele>
        <time>2019-03-17T10:27:11Z</time>
      </trkpt>
      <trkpt lat="43.41109" lon="5.42681">
        <ele>296.7</ele>
        <time>2019-03-17T10:27:36Z</time>
      </trkpt>
      <trkpt lat="43.41108" lon="5.42702">
        <ele>296.7</ele>
        <time>2019-03-17T10:27:53Z</time>
      </trkpt>
      <trkpt lat="43.41109" lon="5.42714">
        <ele>300.55</ele>
        <time>2019-03-17T10:28:05Z</time>
      </trkpt>
      <trkpt lat="43.41109" lon="5.42727">
        <ele>301.99</ele>
        <time>2019-03-17T10:28:17Z</time>
      </trkpt>
      <trkpt lat="43.41109" lon="5.42745">
        <ele>303.91</ele>
        <time>2019-03-17T10:28:30Z</time>
      </trkpt>
      <trkpt lat="43.41107" lon="5.42762">
        <ele>307.76</ele>
        <time>2019-03-17T10:28:41Z</time>
      </trkpt>
      <trkpt lat="43.41106" lon="5.42764">
        <ele>308.24</ele>
        <time>2019-03-17T10:28:43Z</time>
      </trkpt>
      <trkpt lat="43.41104" lon="5.42782">
        <ele>310.16</ele>
        <time>2019-03-17T10:28:57Z</time>
      </trkpt>
      <trkpt lat="43.41104" lon="5.428">
        <ele>311.6</ele>
        <time>2019-03-17T10:29:09Z</time>
      </trkpt>
      <trkpt lat="43.41104" lon="5.42803">
        <ele>311.6</ele>
        <time>2019-03-17T10:29:12Z</time>
      </trkpt>
      <trkpt lat="43.41103" lon="5.42818">
        <ele>314.01</ele>
        <time>2019-03-17T10:29:24Z</time>
      </trkpt>
      <trkpt lat="43.41101" lon="5.42834">
        <ele>314.49</ele>
        <time>2019-03-17T10:29:39Z</time>
      </trkpt>
      <trkpt lat="43.41094" lon="5.42851">
        <ele>315.93</ele>
        <time>2019-03-17T10:29:53Z</time>
      </trkpt>
      <trkpt lat="43.41088" lon="5.42868">
        <ele>318.33</ele>
        <time>2019-03-17T10:30:07Z</time>
      </trkpt>
      <trkpt lat="43.41083" lon="5.42878">
        <ele>317.85</ele>
        <time>2019-03-17T10:30:19Z</time>
      </trkpt>
      <trkpt lat="43.41075" lon="5.42896">
        <ele>318.81</ele>
        <time>2019-03-17T10:30:34Z</time>
      </trkpt>
      <trkpt lat="43.41066" lon="5.4291">
        <ele>321.22</ele>
        <time>2019-03-17T10:30:50Z</time>
      </trkpt>
      <trkpt lat="43.41059" lon="5.42923">
        <ele>321.7</ele>
        <time>2019-03-17T10:31:04Z</time>
      </trkpt>
      <trkpt lat="43.4105" lon="5.42935">
        <ele>323.62</ele>
        <time>2019-03-17T10:31:19Z</time>
      </trkpt>
      <trkpt lat="43.41044" lon="5.42951">
        <ele>325.54</ele>
        <time>2019-03-17T10:31:33Z</time>
      </trkpt>
      <trkpt lat="43.41034" lon="5.42962">
        <ele>326.5</ele>
        <time>2019-03-17T10:31:49Z</time>
      </trkpt>
      <trkpt lat="43.41027" lon="5.42968">
        <ele>326.5</ele>
        <time>2019-03-17T10:31:59Z</time>
      </trkpt>
      <trkpt lat="43.41013" lon="5.42981">
        <ele>328.91</ele>
        <time>2019-03-17T10:32:16Z</time>
      </trkpt>
      <trkpt lat="43.41011" lon="5.42983">
        <ele>328.91</ele>
        <time>2019-03-17T10:32:18Z</time>
      </trkpt>
      <trkpt lat="43.40998" lon="5.42989">
        <ele>331.79</ele>
        <time>2019-03-17T10:32:33Z</time>
      </trkpt>
      <trkpt lat="43.40989" lon="5.43001">
        <ele>331.79</ele>
        <time>2019-03-17T10:32:46Z</time>
      </trkpt>
      <trkpt lat="43.40988" lon="5.43003">
        <ele>332.27</ele>
        <time>2019-03-17T10:32:58Z</time>
      </trkpt>
      <trkpt lat="43.40985" lon="5.43013">
        <ele>331.79</ele>
        <time>2019-03-17T10:33:10Z</time>
      </trkpt>
      <trkpt lat="43.40977" lon="5.43034">
        <ele>333.71</ele>
        <time>2019-03-17T10:33:26Z</time>
      </trkpt>
      <trkpt lat="43.40973" lon="5.43049">
        <ele>336.6</ele>
        <time>2019-03-17T10:33:40Z</time>
      </trkpt>
      <trkpt lat="43.40971" lon="5.43063">
        <ele>338.04</ele>
        <time>2019-03-17T10:33:54Z</time>
      </trkpt>
      <trkpt lat="43.40972" lon="5.43072">
        <ele>336.12</ele>
        <time>2019-03-17T10:34:08Z</time>
      </trkpt>
      <trkpt lat="43.40974" lon="5.43101">
        <ele>331.79</ele>
        <time>2019-03-17T10:34:32Z</time>
      </trkpt>
      <trkpt lat="43.40964" lon="5.43116">
        <ele>333.23</ele>
        <time>2019-03-17T10:34:47Z</time>
      </trkpt>
      <trkpt lat="43.4095" lon="5.43117">
        <ele>335.64</ele>
        <time>2019-03-17T10:35:03Z</time>
      </trkpt>
      <trkpt lat="43.40939" lon="5.43113">
        <ele>335.16</ele>
        <time>2019-03-17T10:35:16Z</time>
      </trkpt>
      <trkpt lat="43.40928" lon="5.43109">
        <ele>333.23</ele>
        <time>2019-03-17T10:35:30Z</time>
      </trkpt>
      <trkpt lat="43.40904" lon="5.43101">
        <ele>343.33</ele>
        <time>2019-03-17T10:35:47Z</time>
      </trkpt>
      <trkpt lat="43.40887" lon="5.43104">
        <ele>344.29</ele>
        <time>2019-03-17T10:36:03Z</time>
      </trkpt>
      <trkpt lat="43.40879" lon="5.43104">
        <ele>344.77</ele>
        <time>2019-03-17T10:36:10Z</time>
      </trkpt>
      <trkpt lat="43.40865" lon="5.43108">
        <ele>344.77</ele>
        <time>2019-03-17T10:36:24Z</time>
      </trkpt>
      <trkpt lat="43.40863" lon="5.4311">
        <ele>344.77</ele>
        <time>2019-03-17T10:36:26Z</time>
      </trkpt>
      <trkpt lat="43.40857" lon="5.4312">
        <ele>346.21</ele>
        <time>2019-03-17T10:36:37Z</time>
      </trkpt>
      <trkpt lat="43.40858" lon="5.4314">
        <ele>347.17</ele>
        <time>2019-03-17T10:36:52Z</time>
      </trkpt>
      <trkpt lat="43.40859" lon="5.4315">
        <ele>349.1</ele>
        <time>2019-03-17T10:36:59Z</time>
      </trkpt>
      <trkpt lat="43.40861" lon="5.43159">
        <ele>351.98</ele>
        <time>2019-03-17T10:37:10Z</time>
      </trkpt>
      <trkpt lat="43.40861" lon="5.43164">
        <ele>352.46</ele>
        <time>2019-03-17T10:37:15Z</time>
      </trkpt>
      <trkpt lat="43.40863" lon="5.43174">
        <ele>352.94</ele>
        <time>2019-03-17T10:37:24Z</time>
      </trkpt>
      <trkpt lat="43.40864" lon="5.43187">
        <ele>354.38</ele>
        <time>2019-03-17T10:37:36Z</time>
      </trkpt>
      <trkpt lat="43.40866" lon="5.43205">
        <ele>355.83</ele>
        <time>2019-03-17T10:37:48Z</time>
      </trkpt>
      <trkpt lat="43.40868" lon="5.43224">
        <ele>355.34</ele>
        <time>2019-03-17T10:38:04Z</time>
      </trkpt>
      <trkpt lat="43.40865" lon="5.43242">
        <ele>355.83</ele>
        <time>2019-03-17T10:38:19Z</time>
      </trkpt>
      <trkpt lat="43.40856" lon="5.43252">
        <ele>357.27</ele>
        <time>2019-03-17T10:38:33Z</time>
      </trkpt>
      <trkpt lat="43.40846" lon="5.4326">
        <ele>358.71</ele>
        <time>2019-03-17T10:38:45Z</time>
      </trkpt>
      <trkpt lat="43.40829" lon="5.43265">
        <ele>360.15</ele>
        <time>2019-03-17T10:38:58Z</time>
      </trkpt>
      <trkpt lat="43.40822" lon="5.43273">
        <ele>361.11</ele>
        <time>2019-03-17T10:39:06Z</time>
      </trkpt>
      <trkpt lat="43.40812" lon="5.43286">
        <ele>361.59</ele>
        <time>2019-03-17T10:39:21Z</time>
      </trkpt>
      <trkpt lat="43.40803" lon="5.4329">
        <ele>362.55</ele>
        <time>2019-03-17T10:39:31Z</time>
      </trkpt>
      <trkpt lat="43.40788" lon="5.43287">
        <ele>365.92</ele>
        <time>2019-03-17T10:39:45Z</time>
      </trkpt>
      <trkpt lat="43.40782" lon="5.43287">
        <ele>365.44</ele>
        <time>2019-03-17T10:39:53Z</time>
      </trkpt>
      <trkpt lat="43.40768" lon="5.43291">
        <ele>366.4</ele>
        <time>2019-03-17T10:40:09Z</time>
      </trkpt>
      <trkpt lat="43.40758" lon="5.43298">
        <ele>364.96</ele>
        <time>2019-03-17T10:40:21Z</time>
      </trkpt>
      <trkpt lat="43.40752" lon="5.43316">
        <ele>365.92</ele>
        <time>2019-03-17T10:40:36Z</time>
      </trkpt>
      <trkpt lat="43.40749" lon="5.43327">
        <ele>367.36</ele>
        <time>2019-03-17T10:40:47Z</time>
      </trkpt>
      <trkpt lat="43.40749" lon="5.43326">
        <ele>367.36</ele>
        <time>2019-03-17T10:41:03Z</time>
      </trkpt>
      <trkpt lat="43.40749" lon="5.43323">
        <ele>367.84</ele>
        <time>2019-03-17T10:41:20Z</time>
      </trkpt>
      <trkpt lat="43.40748" lon="5.4332">
        <ele>368.32</ele>
        <time>2019-03-17T10:41:51Z</time>
      </trkpt>
      <trkpt lat="43.40747" lon="5.43338">
        <ele>367.36</ele>
        <time>2019-03-17T10:42:09Z</time>
      </trkpt>
      <trkpt lat="43.40749" lon="5.43359">
        <ele>364.48</ele>
        <time>2019-03-17T10:42:26Z</time>
      </trkpt>
      <trkpt lat="43.4075" lon="5.4336">
        <ele>364.48</ele>
        <time>2019-03-17T10:42:27Z</time>
      </trkpt>
      <trkpt lat="43.40755" lon="5.43383">
        <ele>366.4</ele>
        <time>2019-03-17T10:42:42Z</time>
      </trkpt>
      <trkpt lat="43.4076" lon="5.43399">
        <ele>366.88</ele>
        <time>2019-03-17T10:42:56Z</time>
      </trkpt>
      <trkpt lat="43.40761" lon="5.43421">
        <ele>371.69</ele>
        <time>2019-03-17T10:43:10Z</time>
      </trkpt>
      <trkpt lat="43.40764" lon="5.43434">
        <ele>372.17</ele>
        <time>2019-03-17T10:43:22Z</time>
      </trkpt>
      <trkpt lat="43.40769" lon="5.43446">
        <ele>370.73</ele>
        <time>2019-03-17T10:43:34Z</time>
      </trkpt>
      <trkpt lat="43.40776" lon="5.43459">
        <ele>370.73</ele>
        <time>2019-03-17T10:43:46Z</time>
      </trkpt>
      <trkpt lat="43.40784" lon="5.43469">
        <ele>372.17</ele>
        <time>2019-03-17T10:43:57Z</time>
      </trkpt>
      <trkpt lat="43.40786" lon="5.4347">
        <ele>372.17</ele>
        <time>2019-03-17T10:43:59Z</time>
      </trkpt>
      <trkpt lat="43.40794" lon="5.43474">
        <ele>372.65</ele>
        <time>2019-03-17T10:44:08Z</time>
      </trkpt>
      <trkpt lat="43.408" lon="5.43474">
        <ele>373.61</ele>
        <time>2019-03-17T10:44:14Z</time>
      </trkpt>
      <trkpt lat="43.40814" lon="5.43477">
        <ele>374.09</ele>
        <time>2019-03-17T10:44:28Z</time>
      </trkpt>
      <trkpt lat="43.40822" lon="5.43479">
        <ele>376.97</ele>
        <time>2019-03-17T10:44:40Z</time>
      </trkpt>
      <trkpt lat="43.40834" lon="5.4348">
        <ele>379.38</ele>
        <time>2019-03-17T10:44:53Z</time>
      </trkpt>
      <trkpt lat="43.40843" lon="5.43483">
        <ele>380.82</ele>
        <time>2019-03-17T10:45:02Z</time>
      </trkpt>
      <trkpt lat="43.40854" lon="5.43484">
        <ele>380.82</ele>
        <time>2019-03-17T10:45:13Z</time>
      </trkpt>
      <trkpt lat="43.40857" lon="5.43486">
        <ele>381.3</ele>
        <time>2019-03-17T10:45:17Z</time>
      </trkpt>
      <trkpt lat="43.40863" lon="5.43492">
        <ele>381.78</ele>
        <time>2019-03-17T10:45:25Z</time>
      </trkpt>
      <trkpt lat="43.40866" lon="5.43502">
        <ele>383.22</ele>
        <time>2019-03-17T10:45:33Z</time>
      </trkpt>
      <trkpt lat="43.40866" lon="5.4352">
        <ele>381.3</ele>
        <time>2019-03-17T10:45:47Z</time>
      </trkpt>
      <trkpt lat="43.40872" lon="5.43535">
        <ele>378.9</ele>
        <time>2019-03-17T10:46:02Z</time>
      </trkpt>
      <trkpt lat="43.40878" lon="5.43549">
        <ele>379.86</ele>
        <time>2019-03-17T10:46:13Z</time>
      </trkpt>
      <trkpt lat="43.40874" lon="5.43565">
        <ele>382.26</ele>
        <time>2019-03-17T10:46:26Z</time>
      </trkpt>
      <trkpt lat="43.40863" lon="5.43574">
        <ele>384.18</ele>
        <time>2019-03-17T10:46:40Z</time>
      </trkpt>
      <trkpt lat="43.40852" lon="5.43582">
        <ele>386.59</ele>
        <time>2019-03-17T10:46:53Z</time>
      </trkpt>
      <trkpt lat="43.40852" lon="5.43583">
        <ele>386.59</ele>
        <time>2019-03-17T10:46:54Z</time>
      </trkpt>
      <trkpt lat="43.40842" lon="5.43596">
        <ele>387.07</ele>
        <time>2019-03-17T10:47:06Z</time>
      </trkpt>
      <trkpt lat="43.40834" lon="5.43613">
        <ele>389.47</ele>
        <time>2019-03-17T10:47:20Z</time>
      </trkpt>
      <trkpt lat="43.40833" lon="5.43626">
        <ele>389.47</ele>
        <time>2019-03-17T10:47:33Z</time>
      </trkpt>
      <trkpt lat="43.40836" lon="5.43643">
        <ele>391.87</ele>
        <time>2019-03-17T10:47:46Z</time>
      </trkpt>
      <trkpt lat="43.40844" lon="5.43661">
        <ele>391.87</ele>
        <time>2019-03-17T10:48:02Z</time>
      </trkpt>
      <trkpt lat="43.40849" lon="5.43681">
        <ele>392.84</ele>
        <time>2019-03-17T10:48:16Z</time>
      </trkpt>
      <trkpt lat="43.4085" lon="5.4369">
        <ele>394.76</ele>
        <time>2019-03-17T10:48:23Z</time>
      </trkpt>
      <trkpt lat="43.4085" lon="5.43707">
        <ele>395.24</ele>
        <time>2019-03-17T10:48:38Z</time>
      </trkpt>
      <trkpt lat="43.4085" lon="5.43722">
        <ele>398.12</ele>
        <time>2019-03-17T10:48:49Z</time>
      </trkpt>
      <trkpt lat="43.40859" lon="5.43734">
        <ele>398.12</ele>
        <time>2019-03-17T10:49:03Z</time>
      </trkpt>
      <trkpt lat="43.40868" lon="5.43747">
        <ele>401.49</ele>
        <time>2019-03-17T10:49:17Z</time>
      </trkpt>
      <trkpt lat="43.40871" lon="5.43755">
        <ele>402.45</ele>
        <time>2019-03-17T10:49:23Z</time>
      </trkpt>
      <trkpt lat="43.40874" lon="5.43763">
        <ele>405.33</ele>
        <time>2019-03-17T10:49:36Z</time>
      </trkpt>
      <trkpt lat="43.40877" lon="5.43765">
        <ele>404.37</ele>
        <time>2019-03-17T10:49:58Z</time>
      </trkpt>
      <trkpt lat="43.40875" lon="5.43762">
        <ele>403.41</ele>
        <time>2019-03-17T10:50:10Z</time>
      </trkpt>
      <trkpt lat="43.40875" lon="5.43761">
        <ele>402.93</ele>
        <time>2019-03-17T10:50:26Z</time>
      </trkpt>
      <trkpt lat="43.40875" lon="5.43762">
        <ele>401.97</ele>
        <time>2019-03-17T10:50:46Z</time>
      </trkpt>
      <trkpt lat="43.40876" lon="5.43764">
        <ele>403.41</ele>
        <time>2019-03-17T10:50:56Z</time>
      </trkpt>
      <trkpt lat="43.40875" lon="5.43763">
        <ele>404.85</ele>
        <time>2019-03-17T10:51:13Z</time>
      </trkpt>
      <trkpt lat="43.40874" lon="5.43764">
        <ele>404.85</ele>
        <time>2019-03-17T10:51:31Z</time>
      </trkpt>
      <trkpt lat="43.40873" lon="5.43762">
        <ele>408.22</ele>
        <time>2019-03-17T10:51:46Z</time>
      </trkpt>
      <trkpt lat="43.40876" lon="5.43763">
        <ele>403.41</ele>
        <time>2019-03-17T10:51:58Z</time>
      </trkpt>
      <trkpt lat="43.40875" lon="5.43763">
        <ele>404.37</ele>
        <time>2019-03-17T10:52:04Z</time>
      </trkpt>
      <trkpt lat="43.40874" lon="5.43767">
        <ele>405.33</ele>
        <time>2019-03-17T10:52:11Z</time>
      </trkpt>
      <trkpt lat="43.40877" lon="5.4378">
        <ele>409.66</ele>
        <time>2019-03-17T10:52:21Z</time>
      </trkpt>
      <trkpt lat="43.4088" lon="5.43797">
        <ele>413.98</ele>
        <time>2019-03-17T10:52:35Z</time>
      </trkpt>
      <trkpt lat="43.40883" lon="5.4381">
        <ele>413.98</ele>
        <time>2019-03-17T10:52:47Z</time>
      </trkpt>
      <trkpt lat="43.40884" lon="5.43814">
        <ele>413.98</ele>
        <time>2019-03-17T10:52:51Z</time>
      </trkpt>
      <trkpt lat="43.40884" lon="5.43825">
        <ele>417.35</ele>
        <time>2019-03-17T10:53:05Z</time>
      </trkpt>
      <trkpt lat="43.40885" lon="5.4383">
        <ele>417.83</ele>
        <time>2019-03-17T10:53:15Z</time>
      </trkpt>
      <trkpt lat="43.40883" lon="5.43839">
        <ele>417.35</ele>
        <time>2019-03-17T10:53:24Z</time>
      </trkpt>
      <trkpt lat="43.4088" lon="5.43843">
        <ele>416.87</ele>
        <time>2019-03-17T10:53:28Z</time>
      </trkpt>
      <trkpt lat="43.40878" lon="5.43844">
        <ele>416.39</ele>
        <time>2019-03-17T10:53:30Z</time>
      </trkpt>
      <trkpt lat="43.40865" lon="5.43854">
        <ele>413.98</ele>
        <time>2019-03-17T10:53:43Z</time>
      </trkpt>
      <trkpt lat="43.40854" lon="5.43858">
        <ele>412.54</ele>
        <time>2019-03-17T10:53:54Z</time>
      </trkpt>
      <trkpt lat="43.40853" lon="5.43858">
        <ele>413.02</ele>
        <time>2019-03-17T10:53:55Z</time>
      </trkpt>
      <trkpt lat="43.40837" lon="5.43863">
        <ele>415.91</ele>
        <time>2019-03-17T10:54:12Z</time>
      </trkpt>
      <trkpt lat="43.40834" lon="5.43869">
        <ele>415.91</ele>
        <time>2019-03-17T10:54:16Z</time>
      </trkpt>
      <trkpt lat="43.40833" lon="5.43878">
        <ele>415.43</ele>
        <time>2019-03-17T10:54:23Z</time>
      </trkpt>
      <trkpt lat="43.40841" lon="5.43894">
        <ele>413.02</ele>
        <time>2019-03-17T10:54:36Z</time>
      </trkpt>
      <trkpt lat="43.40849" lon="5.43909">
        <ele>414.95</ele>
        <time>2019-03-17T10:54:50Z</time>
      </trkpt>
      <trkpt lat="43.40858" lon="5.4392">
        <ele>417.35</ele>
        <time>2019-03-17T10:55:04Z</time>
      </trkpt>
      <trkpt lat="43.40869" lon="5.4393">
        <ele>417.83</ele>
        <time>2019-03-17T10:55:17Z</time>
      </trkpt>
      <trkpt lat="43.40874" lon="5.43948">
        <ele>418.31</ele>
        <time>2019-03-17T10:55:30Z</time>
      </trkpt>
      <trkpt lat="43.40879" lon="5.43968">
        <ele>420.71</ele>
        <time>2019-03-17T10:55:43Z</time>
      </trkpt>
      <trkpt lat="43.40876" lon="5.43989">
        <ele>422.64</ele>
        <time>2019-03-17T10:55:59Z</time>
      </trkpt>
      <trkpt lat="43.40873" lon="5.43992">
        <ele>422.64</ele>
        <time>2019-03-17T10:56:02Z</time>
      </trkpt>
      <trkpt lat="43.40867" lon="5.44005">
        <ele>426</ele>
        <time>2019-03-17T10:56:14Z</time>
      </trkpt>
      <trkpt lat="43.40863" lon="5.4401">
        <ele>426</ele>
        <time>2019-03-17T10:56:19Z</time>
      </trkpt>
      <trkpt lat="43.40856" lon="5.44029">
        <ele>425.04</ele>
        <time>2019-03-17T10:56:35Z</time>
      </trkpt>
      <trkpt lat="43.40857" lon="5.44045">
        <ele>424.08</ele>
        <time>2019-03-17T10:56:47Z</time>
      </trkpt>
      <trkpt lat="43.40858" lon="5.44053">
        <ele>423.12</ele>
        <time>2019-03-17T10:56:53Z</time>
      </trkpt>
      <trkpt lat="43.40864" lon="5.44072">
        <ele>422.64</ele>
        <time>2019-03-17T10:57:08Z</time>
      </trkpt>
      <trkpt lat="43.40867" lon="5.44088">
        <ele>422.16</ele>
        <time>2019-03-17T10:57:23Z</time>
      </trkpt>
      <trkpt lat="43.40869" lon="5.44108">
        <ele>426.48</ele>
        <time>2019-03-17T10:57:36Z</time>
      </trkpt>
      <trkpt lat="43.40869" lon="5.44121">
        <ele>428.4</ele>
        <time>2019-03-17T10:57:46Z</time>
      </trkpt>
      <trkpt lat="43.40867" lon="5.44142">
        <ele>430.81</ele>
        <time>2019-03-17T10:58:00Z</time>
      </trkpt>
      <trkpt lat="43.4086" lon="5.44159">
        <ele>434.65</ele>
        <time>2019-03-17T10:58:14Z</time>
      </trkpt>
      <trkpt lat="43.4086" lon="5.44174">
        <ele>432.73</ele>
        <time>2019-03-17T10:58:25Z</time>
      </trkpt>
      <trkpt lat="43.40858" lon="5.44185">
        <ele>430.81</ele>
        <time>2019-03-17T10:58:36Z</time>
      </trkpt>
      <trkpt lat="43.40865" lon="5.44202">
        <ele>429.85</ele>
        <time>2019-03-17T10:58:53Z</time>
      </trkpt>
      <trkpt lat="43.4087" lon="5.44218">
        <ele>431.77</ele>
        <time>2019-03-17T10:59:05Z</time>
      </trkpt>
      <trkpt lat="43.40873" lon="5.44235">
        <ele>436.1</ele>
        <time>2019-03-17T10:59:19Z</time>
      </trkpt>
      <trkpt lat="43.40877" lon="5.44252">
        <ele>440.42</ele>
        <time>2019-03-17T10:59:33Z</time>
      </trkpt>
      <trkpt lat="43.4088" lon="5.44267">
        <ele>438.98</ele>
        <time>2019-03-17T10:59:47Z</time>
      </trkpt>
      <trkpt lat="43.40881" lon="5.4428">
        <ele>438.98</ele>
        <time>2019-03-17T10:59:59Z</time>
      </trkpt>
      <trkpt lat="43.40882" lon="5.44296">
        <ele>438.02</ele>
        <time>2019-03-17T11:00:11Z</time>
      </trkpt>
      <trkpt lat="43.40883" lon="5.44309">
        <ele>438.02</ele>
        <time>2019-03-17T11:00:21Z</time>
      </trkpt>
      <trkpt lat="43.40883" lon="5.44319">
        <ele>438.5</ele>
        <time>2019-03-17T11:00:28Z</time>
      </trkpt>
      <trkpt lat="43.4089" lon="5.4434">
        <ele>439.94</ele>
        <time>2019-03-17T11:00:43Z</time>
      </trkpt>
      <trkpt lat="43.40898" lon="5.44354">
        <ele>439.94</ele>
        <time>2019-03-17T11:00:57Z</time>
      </trkpt>
      <trkpt lat="43.40904" lon="5.44369">
        <ele>440.42</ele>
        <time>2019-03-17T11:01:10Z</time>
      </trkpt>
      <trkpt lat="43.40912" lon="5.44383">
        <ele>441.86</ele>
        <time>2019-03-17T11:01:25Z</time>
      </trkpt>
      <trkpt lat="43.4092" lon="5.44383">
        <ele>444.75</ele>
        <time>2019-03-17T11:01:38Z</time>
      </trkpt>
      <trkpt lat="43.40921" lon="5.44384">
        <ele>446.67</ele>
        <time>2019-03-17T11:01:52Z</time>
      </trkpt>
      <trkpt lat="43.40925" lon="5.44379">
        <ele>447.63</ele>
        <time>2019-03-17T11:02:09Z</time>
      </trkpt>
      <trkpt lat="43.40923" lon="5.44381">
        <ele>449.07</ele>
        <time>2019-03-17T11:02:37Z</time>
      </trkpt>
      <trkpt lat="43.40923" lon="5.44384">
        <ele>451.48</ele>
        <time>2019-03-17T11:02:58Z</time>
      </trkpt>
      <trkpt lat="43.40919" lon="5.44383">
        <ele>451</ele>
        <time>2019-03-17T11:03:23Z</time>
      </trkpt>
      <trkpt lat="43.40907" lon="5.44389">
        <ele>446.67</ele>
        <time>2019-03-17T11:03:37Z</time>
      </trkpt>
      <trkpt lat="43.40906" lon="5.44404">
        <ele>445.71</ele>
        <time>2019-03-17T11:03:48Z</time>
      </trkpt>
      <trkpt lat="43.40904" lon="5.44423">
        <ele>446.67</ele>
        <time>2019-03-17T11:04:01Z</time>
      </trkpt>
      <trkpt lat="43.40903" lon="5.44436">
        <ele>448.11</ele>
        <time>2019-03-17T11:04:12Z</time>
      </trkpt>
      <trkpt lat="43.40899" lon="5.4445">
        <ele>446.19</ele>
        <time>2019-03-17T11:04:25Z</time>
      </trkpt>
      <trkpt lat="43.40898" lon="5.44466">
        <ele>447.15</ele>
        <time>2019-03-17T11:04:39Z</time>
      </trkpt>
      <trkpt lat="43.40894" lon="5.44483">
        <ele>450.03</ele>
        <time>2019-03-17T11:04:53Z</time>
      </trkpt>
      <trkpt lat="43.40889" lon="5.44499">
        <ele>451.48</ele>
        <time>2019-03-17T11:05:08Z</time>
      </trkpt>
      <trkpt lat="43.40883" lon="5.44518">
        <ele>453.4</ele>
        <time>2019-03-17T11:05:25Z</time>
      </trkpt>
      <trkpt lat="43.40878" lon="5.44533">
        <ele>454.36</ele>
        <time>2019-03-17T11:05:38Z</time>
      </trkpt>
      <trkpt lat="43.40874" lon="5.4455">
        <ele>457.72</ele>
        <time>2019-03-17T11:05:53Z</time>
      </trkpt>
      <trkpt lat="43.40874" lon="5.44559">
        <ele>458.69</ele>
        <time>2019-03-17T11:06:00Z</time>
      </trkpt>
      <trkpt lat="43.40874" lon="5.44576">
        <ele>460.61</ele>
        <time>2019-03-17T11:06:14Z</time>
      </trkpt>
      <trkpt lat="43.40872" lon="5.44592">
        <ele>462.05</ele>
        <time>2019-03-17T11:06:27Z</time>
      </trkpt>
      <trkpt lat="43.40868" lon="5.44609">
        <ele>463.01</ele>
        <time>2019-03-17T11:06:42Z</time>
      </trkpt>
      <trkpt lat="43.40862" lon="5.44625">
        <ele>463.97</ele>
        <time>2019-03-17T11:06:56Z</time>
      </trkpt>
      <trkpt lat="43.40853" lon="5.44638">
        <ele>464.45</ele>
        <time>2019-03-17T11:07:11Z</time>
      </trkpt>
      <trkpt lat="43.40843" lon="5.44653">
        <ele>466.38</ele>
        <time>2019-03-17T11:07:26Z</time>
      </trkpt>
      <trkpt lat="43.40837" lon="5.4466">
        <ele>468.3</ele>
        <time>2019-03-17T11:07:34Z</time>
      </trkpt>
      <trkpt lat="43.40836" lon="5.44662">
        <ele>468.3</ele>
        <time>2019-03-17T11:07:36Z</time>
      </trkpt>
      <trkpt lat="43.40825" lon="5.44674">
        <ele>470.22</ele>
        <time>2019-03-17T11:07:51Z</time>
      </trkpt>
      <trkpt lat="43.40819" lon="5.44681">
        <ele>471.18</ele>
        <time>2019-03-17T11:08:00Z</time>
      </trkpt>
      <trkpt lat="43.40815" lon="5.44689">
        <ele>473.11</ele>
        <time>2019-03-17T11:08:08Z</time>
      </trkpt>
      <trkpt lat="43.40814" lon="5.44708">
        <ele>472.14</ele>
        <time>2019-03-17T11:08:23Z</time>
      </trkpt>
      <trkpt lat="43.40816" lon="5.44723">
        <ele>472.14</ele>
        <time>2019-03-17T11:08:35Z</time>
      </trkpt>
      <trkpt lat="43.40819" lon="5.4474">
        <ele>473.59</ele>
        <time>2019-03-17T11:08:48Z</time>
      </trkpt>
      <trkpt lat="43.40822" lon="5.44757">
        <ele>474.07</ele>
        <time>2019-03-17T11:09:02Z</time>
      </trkpt>
      <trkpt lat="43.40823" lon="5.44776">
        <ele>474.55</ele>
        <time>2019-03-17T11:09:16Z</time>
      </trkpt>
      <trkpt lat="43.40822" lon="5.44794">
        <ele>474.07</ele>
        <time>2019-03-17T11:09:30Z</time>
      </trkpt>
      <trkpt lat="43.4082" lon="5.44811">
        <ele>474.55</ele>
        <time>2019-03-17T11:09:44Z</time>
      </trkpt>
      <trkpt lat="43.40817" lon="5.44825">
        <ele>475.99</ele>
        <time>2019-03-17T11:09:56Z</time>
      </trkpt>
      <trkpt lat="43.40814" lon="5.44841">
        <ele>476.47</ele>
        <time>2019-03-17T11:10:10Z</time>
      </trkpt>
      <trkpt lat="43.40813" lon="5.44855">
        <ele>477.91</ele>
        <time>2019-03-17T11:10:23Z</time>
      </trkpt>
      <trkpt lat="43.40811" lon="5.44862">
        <ele>478.39</ele>
        <time>2019-03-17T11:10:29Z</time>
      </trkpt>
      <trkpt lat="43.40811" lon="5.44865">
        <ele>478.87</ele>
        <time>2019-03-17T11:10:32Z</time>
      </trkpt>
      <trkpt lat="43.40809" lon="5.44874">
        <ele>480.32</ele>
        <time>2019-03-17T11:10:47Z</time>
      </trkpt>
      <trkpt lat="43.40806" lon="5.44876">
        <ele>483.2</ele>
        <time>2019-03-17T11:11:20Z</time>
      </trkpt>
      <trkpt lat="43.40805" lon="5.44883">
        <ele>483.2</ele>
        <time>2019-03-17T11:11:49Z</time>
      </trkpt>
      <trkpt lat="43.40802" lon="5.44898">
        <ele>484.16</ele>
        <time>2019-03-17T11:12:03Z</time>
      </trkpt>
      <trkpt lat="43.40799" lon="5.44915">
        <ele>482.72</ele>
        <time>2019-03-17T11:12:17Z</time>
      </trkpt>
      <trkpt lat="43.40796" lon="5.44934">
        <ele>484.16</ele>
        <time>2019-03-17T11:12:32Z</time>
      </trkpt>
      <trkpt lat="43.40795" lon="5.44952">
        <ele>486.08</ele>
        <time>2019-03-17T11:12:47Z</time>
      </trkpt>
      <trkpt lat="43.40792" lon="5.4497">
        <ele>487.53</ele>
        <time>2019-03-17T11:13:02Z</time>
      </trkpt>
      <trkpt lat="43.40787" lon="5.44987">
        <ele>489.93</ele>
        <time>2019-03-17T11:13:18Z</time>
      </trkpt>
      <trkpt lat="43.40781" lon="5.44999">
        <ele>490.41</ele>
        <time>2019-03-17T11:13:32Z</time>
      </trkpt>
      <trkpt lat="43.40781" lon="5.45">
        <ele>490.41</ele>
        <time>2019-03-17T11:13:33Z</time>
      </trkpt>
      <trkpt lat="43.40772" lon="5.45014">
        <ele>491.85</ele>
        <time>2019-03-17T11:13:49Z</time>
      </trkpt>
      <trkpt lat="43.40769" lon="5.4502">
        <ele>491.85</ele>
        <time>2019-03-17T11:14:03Z</time>
      </trkpt>
      <trkpt lat="43.40761" lon="5.45028">
        <ele>495.22</ele>
        <time>2019-03-17T11:14:17Z</time>
      </trkpt>
      <trkpt lat="43.40755" lon="5.45036">
        <ele>497.62</ele>
        <time>2019-03-17T11:14:29Z</time>
      </trkpt>
      <trkpt lat="43.40748" lon="5.45045">
        <ele>498.58</ele>
        <time>2019-03-17T11:14:43Z</time>
      </trkpt>
      <trkpt lat="43.4074" lon="5.45058">
        <ele>500.5</ele>
        <time>2019-03-17T11:15:00Z</time>
      </trkpt>
      <trkpt lat="43.40729" lon="5.4507">
        <ele>503.87</ele>
        <time>2019-03-17T11:15:17Z</time>
      </trkpt>
      <trkpt lat="43.40728" lon="5.45072">
        <ele>503.87</ele>
        <time>2019-03-17T11:15:37Z</time>
      </trkpt>
      <trkpt lat="43.4073" lon="5.45074">
        <ele>502.43</ele>
        <time>2019-03-17T11:16:06Z</time>
      </trkpt>
      <trkpt lat="43.40718" lon="5.45084">
        <ele>501.95</ele>
        <time>2019-03-17T11:16:24Z</time>
      </trkpt>
      <trkpt lat="43.40706" lon="5.45094">
        <ele>501.95</ele>
        <time>2019-03-17T11:16:42Z</time>
      </trkpt>
      <trkpt lat="43.40693" lon="5.45103">
        <ele>503.87</ele>
        <time>2019-03-17T11:16:57Z</time>
      </trkpt>
      <trkpt lat="43.4068" lon="5.45112">
        <ele>504.35</ele>
        <time>2019-03-17T11:17:14Z</time>
      </trkpt>
      <trkpt lat="43.40669" lon="5.4512">
        <ele>505.79</ele>
        <time>2019-03-17T11:17:29Z</time>
      </trkpt>
      <trkpt lat="43.40667" lon="5.45117">
        <ele>505.79</ele>
        <time>2019-03-17T11:17:50Z</time>
      </trkpt>
      <trkpt lat="43.40652" lon="5.45121">
        <ele>507.71</ele>
        <time>2019-03-17T11:18:05Z</time>
      </trkpt>
      <trkpt lat="43.4064" lon="5.45127">
        <ele>510.12</ele>
        <time>2019-03-17T11:18:19Z</time>
      </trkpt>
      <trkpt lat="43.40633" lon="5.45141">
        <ele>512.52</ele>
        <time>2019-03-17T11:18:34Z</time>
      </trkpt>
      <trkpt lat="43.40631" lon="5.45158">
        <ele>513.96</ele>
        <time>2019-03-17T11:18:48Z</time>
      </trkpt>
      <trkpt lat="43.40631" lon="5.45166">
        <ele>513.48</ele>
        <time>2019-03-17T11:19:03Z</time>
      </trkpt>
      <trkpt lat="43.40632" lon="5.45172">
        <ele>514.92</ele>
        <time>2019-03-17T11:19:22Z</time>
      </trkpt>
      <trkpt lat="43.40633" lon="5.45189">
        <ele>517.81</ele>
        <time>2019-03-17T11:19:36Z</time>
      </trkpt>
      <trkpt lat="43.4063" lon="5.45203">
        <ele>519.73</ele>
        <time>2019-03-17T11:19:49Z</time>
      </trkpt>
      <trkpt lat="43.40624" lon="5.4522">
        <ele>521.65</ele>
        <time>2019-03-17T11:20:05Z</time>
      </trkpt>
      <trkpt lat="43.40621" lon="5.45228">
        <ele>521.65</ele>
        <time>2019-03-17T11:20:12Z</time>
      </trkpt>
      <trkpt lat="43.40613" lon="5.45247">
        <ele>520.21</ele>
        <time>2019-03-17T11:20:29Z</time>
      </trkpt>
      <trkpt lat="43.40606" lon="5.45265">
        <ele>520.21</ele>
        <time>2019-03-17T11:20:44Z</time>
      </trkpt>
      <trkpt lat="43.40603" lon="5.45284">
        <ele>519.73</ele>
        <time>2019-03-17T11:20:59Z</time>
      </trkpt>
      <trkpt lat="43.40603" lon="5.45297">
        <ele>520.69</ele>
        <time>2019-03-17T11:21:12Z</time>
      </trkpt>
      <trkpt lat="43.40605" lon="5.45301">
        <ele>521.65</ele>
        <time>2019-03-17T11:21:17Z</time>
      </trkpt>
      <trkpt lat="43.40605" lon="5.45309">
        <ele>523.58</ele>
        <time>2019-03-17T11:21:32Z</time>
      </trkpt>
      <trkpt lat="43.40614" lon="5.45319">
        <ele>522.61</ele>
        <time>2019-03-17T11:21:47Z</time>
      </trkpt>
      <trkpt lat="43.40622" lon="5.45329">
        <ele>523.09</ele>
        <time>2019-03-17T11:22:03Z</time>
      </trkpt>
      <trkpt lat="43.40628" lon="5.45338">
        <ele>522.13</ele>
        <time>2019-03-17T11:22:18Z</time>
      </trkpt>
      <trkpt lat="43.40628" lon="5.4534">
        <ele>522.13</ele>
        <time>2019-03-17T11:22:19Z</time>
      </trkpt>
      <trkpt lat="43.4063" lon="5.45342">
        <ele>521.65</ele>
        <time>2019-03-17T11:22:21Z</time>
      </trkpt>
      <trkpt lat="43.40635" lon="5.45352">
        <ele>521.65</ele>
        <time>2019-03-17T11:22:35Z</time>
      </trkpt>
      <trkpt lat="43.40635" lon="5.45349">
        <ele>523.09</ele>
        <time>2019-03-17T11:22:48Z</time>
      </trkpt>
      <trkpt lat="43.40635" lon="5.45352">
        <ele>525.02</ele>
        <time>2019-03-17T11:23:16Z</time>
      </trkpt>
      <trkpt lat="43.40631" lon="5.4535">
        <ele>525.02</ele>
        <time>2019-03-17T11:23:38Z</time>
      </trkpt>
      <trkpt lat="43.40632" lon="5.45353">
        <ele>524.06</ele>
        <time>2019-03-17T11:24:06Z</time>
      </trkpt>
      <trkpt lat="43.40631" lon="5.45355">
        <ele>527.42</ele>
        <time>2019-03-17T11:24:34Z</time>
      </trkpt>
      <trkpt lat="43.40631" lon="5.4535">
        <ele>529.34</ele>
        <time>2019-03-17T11:25:03Z</time>
      </trkpt>
      <trkpt lat="43.40634" lon="5.45348">
        <ele>528.86</ele>
        <time>2019-03-17T11:25:15Z</time>
      </trkpt>
      <trkpt lat="43.40634" lon="5.4535">
        <ele>529.82</ele>
        <time>2019-03-17T11:25:37Z</time>
      </trkpt>
      <trkpt lat="43.40635" lon="5.45351">
        <ele>527.9</ele>
        <time>2019-03-17T11:25:56Z</time>
      </trkpt>
      <trkpt lat="43.40633" lon="5.45351">
        <ele>526.94</ele>
        <time>2019-03-17T11:26:22Z</time>
      </trkpt>
      <trkpt lat="43.40632" lon="5.45351">
        <ele>527.9</ele>
        <time>2019-03-17T11:26:49Z</time>
      </trkpt>
      <trkpt lat="43.40633" lon="5.45352">
        <ele>527.9</ele>
        <time>2019-03-17T11:27:11Z</time>
      </trkpt>
      <trkpt lat="43.40636" lon="5.45357">
        <ele>528.38</ele>
        <time>2019-03-17T11:27:15Z</time>
      </trkpt>
      <trkpt lat="43.40641" lon="5.45363">
        <ele>529.82</ele>
        <time>2019-03-17T11:27:30Z</time>
      </trkpt>
      <trkpt lat="43.40639" lon="5.45362">
        <ele>531.75</ele>
        <time>2019-03-17T11:27:50Z</time>
      </trkpt>
      <trkpt lat="43.40642" lon="5.45366">
        <ele>529.82</ele>
        <time>2019-03-17T11:28:12Z</time>
      </trkpt>
      <trkpt lat="43.40644" lon="5.45371">
        <ele>528.86</ele>
        <time>2019-03-17T11:28:26Z</time>
      </trkpt>
      <trkpt lat="43.40649" lon="5.45382">
        <ele>531.27</ele>
        <time>2019-03-17T11:28:39Z</time>
      </trkpt>
      <trkpt lat="43.40654" lon="5.45396">
        <ele>532.71</ele>
        <time>2019-03-17T11:28:55Z</time>
      </trkpt>
      <trkpt lat="43.40655" lon="5.45395">
        <ele>529.34</ele>
        <time>2019-03-17T11:29:18Z</time>
      </trkpt>
      <trkpt lat="43.40658" lon="5.45405">
        <ele>529.34</ele>
        <time>2019-03-17T11:29:32Z</time>
      </trkpt>
      <trkpt lat="43.40663" lon="5.45421">
        <ele>530.3</ele>
        <time>2019-03-17T11:29:47Z</time>
      </trkpt>
      <trkpt lat="43.40666" lon="5.45436">
        <ele>531.27</ele>
        <time>2019-03-17T11:30:01Z</time>
      </trkpt>
      <trkpt lat="43.40666" lon="5.45437">
        <ele>531.75</ele>
        <time>2019-03-17T11:30:02Z</time>
      </trkpt>
      <trkpt lat="43.40667" lon="5.4545">
        <ele>530.79</ele>
        <time>2019-03-17T11:30:14Z</time>
      </trkpt>
      <trkpt lat="43.40668" lon="5.45457">
        <ele>529.82</ele>
        <time>2019-03-17T11:30:21Z</time>
      </trkpt>
      <trkpt lat="43.40671" lon="5.45472">
        <ele>528.86</ele>
        <time>2019-03-17T11:30:34Z</time>
      </trkpt>
      <trkpt lat="43.40676" lon="5.4549">
        <ele>528.86</ele>
        <time>2019-03-17T11:30:49Z</time>
      </trkpt>
      <trkpt lat="43.40678" lon="5.45511">
        <ele>531.27</ele>
        <time>2019-03-17T11:31:05Z</time>
      </trkpt>
      <trkpt lat="43.40678" lon="5.45518">
        <ele>531.75</ele>
        <time>2019-03-17T11:31:10Z</time>
      </trkpt>
      <trkpt lat="43.40677" lon="5.45521">
        <ele>532.23</ele>
        <time>2019-03-17T11:31:13Z</time>
      </trkpt>
      <trkpt lat="43.40677" lon="5.45534">
        <ele>535.59</ele>
        <time>2019-03-17T11:31:25Z</time>
      </trkpt>
      <trkpt lat="43.40676" lon="5.45537">
        <ele>535.59</ele>
        <time>2019-03-17T11:31:28Z</time>
      </trkpt>
      <trkpt lat="43.40675" lon="5.4554">
        <ele>535.11</ele>
        <time>2019-03-17T11:31:30Z</time>
      </trkpt>
      <trkpt lat="43.40674" lon="5.45549">
        <ele>535.11</ele>
        <time>2019-03-17T11:31:37Z</time>
      </trkpt>
      <trkpt lat="43.40669" lon="5.45558">
        <ele>535.11</ele>
        <time>2019-03-17T11:31:52Z</time>
      </trkpt>
      <trkpt lat="43.40668" lon="5.45564">
        <ele>535.59</ele>
        <time>2019-03-17T11:32:05Z</time>
      </trkpt>
      <trkpt lat="43.40671" lon="5.45559">
        <ele>534.63</ele>
        <time>2019-03-17T11:32:28Z</time>
      </trkpt>
      <trkpt lat="43.4067" lon="5.4556">
        <ele>535.59</ele>
        <time>2019-03-17T11:32:57Z</time>
      </trkpt>
      <trkpt lat="43.40671" lon="5.4556">
        <ele>536.07</ele>
        <time>2019-03-17T11:33:17Z</time>
      </trkpt>
      <trkpt lat="43.40671" lon="5.45561">
        <ele>534.63</ele>
        <time>2019-03-17T11:33:35Z</time>
      </trkpt>
      <trkpt lat="43.40668" lon="5.45567">
        <ele>534.63</ele>
        <time>2019-03-17T11:33:40Z</time>
      </trkpt>
      <trkpt lat="43.40666" lon="5.45572">
        <ele>536.55</ele>
        <time>2019-03-17T11:33:44Z</time>
      </trkpt>
      <trkpt lat="43.40657" lon="5.45584">
        <ele>539.44</ele>
        <time>2019-03-17T11:33:56Z</time>
      </trkpt>
      <trkpt lat="43.40652" lon="5.4559">
        <ele>540.4</ele>
        <time>2019-03-17T11:34:07Z</time>
      </trkpt>
      <trkpt lat="43.40646" lon="5.45593">
        <ele>540.88</ele>
        <time>2019-03-17T11:34:17Z</time>
      </trkpt>
      <trkpt lat="43.40644" lon="5.45596">
        <ele>540.88</ele>
        <time>2019-03-17T11:34:34Z</time>
      </trkpt>
      <trkpt lat="43.40634" lon="5.456">
        <ele>539.44</ele>
        <time>2019-03-17T11:34:44Z</time>
      </trkpt>
      <trkpt lat="43.40621" lon="5.45604">
        <ele>539.44</ele>
        <time>2019-03-17T11:34:58Z</time>
      </trkpt>
      <trkpt lat="43.40612" lon="5.45606">
        <ele>540.4</ele>
        <time>2019-03-17T11:35:10Z</time>
      </trkpt>
      <trkpt lat="43.40606" lon="5.45611">
        <ele>540.88</ele>
        <time>2019-03-17T11:35:22Z</time>
      </trkpt>
      <trkpt lat="43.40606" lon="5.45612">
        <ele>540.88</ele>
        <time>2019-03-17T11:35:23Z</time>
      </trkpt>
      <trkpt lat="43.406" lon="5.45616">
        <ele>540.88</ele>
        <time>2019-03-17T11:35:35Z</time>
      </trkpt>
      <trkpt lat="43.40599" lon="5.45616">
        <ele>540.4</ele>
        <time>2019-03-17T11:35:39Z</time>
      </trkpt>
      <trkpt lat="43.40597" lon="5.45622">
        <ele>538.48</ele>
        <time>2019-03-17T11:35:54Z</time>
      </trkpt>
      <trkpt lat="43.40599" lon="5.45627">
        <ele>538.96</ele>
        <time>2019-03-17T11:36:11Z</time>
      </trkpt>
      <trkpt lat="43.40599" lon="5.45636">
        <ele>538.48</ele>
        <time>2019-03-17T11:36:18Z</time>
      </trkpt>
      <trkpt lat="43.40599" lon="5.45641">
        <ele>538.48</ele>
        <time>2019-03-17T11:36:22Z</time>
      </trkpt>
      <trkpt lat="43.40598" lon="5.45658">
        <ele>539.92</ele>
        <time>2019-03-17T11:36:36Z</time>
      </trkpt>
      <trkpt lat="43.40599" lon="5.45673">
        <ele>542.32</ele>
        <time>2019-03-17T11:36:49Z</time>
      </trkpt>
      <trkpt lat="43.40599" lon="5.45691">
        <ele>543.76</ele>
        <time>2019-03-17T11:37:03Z</time>
      </trkpt>
      <trkpt lat="43.40599" lon="5.45707">
        <ele>544.72</ele>
        <time>2019-03-17T11:37:16Z</time>
      </trkpt>
      <trkpt lat="43.40597" lon="5.45716">
        <ele>545.69</ele>
        <time>2019-03-17T11:37:25Z</time>
      </trkpt>
      <trkpt lat="43.40596" lon="5.45723">
        <ele>544.24</ele>
        <time>2019-03-17T11:37:31Z</time>
      </trkpt>
      <trkpt lat="43.40595" lon="5.4573">
        <ele>544.24</ele>
        <time>2019-03-17T11:37:37Z</time>
      </trkpt>
      <trkpt lat="43.40591" lon="5.45746">
        <ele>546.17</ele>
        <time>2019-03-17T11:37:51Z</time>
      </trkpt>
      <trkpt lat="43.40591" lon="5.45753">
        <ele>546.17</ele>
        <time>2019-03-17T11:37:57Z</time>
      </trkpt>
      <trkpt lat="43.4059" lon="5.45759">
        <ele>546.17</ele>
        <time>2019-03-17T11:38:02Z</time>
      </trkpt>
      <trkpt lat="43.4059" lon="5.45763">
        <ele>546.65</ele>
        <time>2019-03-17T11:38:05Z</time>
      </trkpt>
      <trkpt lat="43.40581" lon="5.45777">
        <ele>549.05</ele>
        <time>2019-03-17T11:38:20Z</time>
      </trkpt>
      <trkpt lat="43.40573" lon="5.45787">
        <ele>549.05</ele>
        <time>2019-03-17T11:38:33Z</time>
      </trkpt>
      <trkpt lat="43.40572" lon="5.4579">
        <ele>549.53</ele>
        <time>2019-03-17T11:38:35Z</time>
      </trkpt>
      <trkpt lat="43.4057" lon="5.45793">
        <ele>550.01</ele>
        <time>2019-03-17T11:38:38Z</time>
      </trkpt>
      <trkpt lat="43.40567" lon="5.45807">
        <ele>551.93</ele>
        <time>2019-03-17T11:38:50Z</time>
      </trkpt>
      <trkpt lat="43.40569" lon="5.45814">
        <ele>552.41</ele>
        <time>2019-03-17T11:38:56Z</time>
      </trkpt>
      <trkpt lat="43.40575" lon="5.45831">
        <ele>552.41</ele>
        <time>2019-03-17T11:39:12Z</time>
      </trkpt>
      <trkpt lat="43.40579" lon="5.45832">
        <ele>549.05</ele>
        <time>2019-03-17T11:39:35Z</time>
      </trkpt>
      <trkpt lat="43.40574" lon="5.45844">
        <ele>551.45</ele>
        <time>2019-03-17T11:39:47Z</time>
      </trkpt>
      <trkpt lat="43.40571" lon="5.45851">
        <ele>549.53</ele>
        <time>2019-03-17T11:40:01Z</time>
      </trkpt>
      <trkpt lat="43.40569" lon="5.45854">
        <ele>550.01</ele>
        <time>2019-03-17T11:40:04Z</time>
      </trkpt>
      <trkpt lat="43.40567" lon="5.45857">
        <ele>550.97</ele>
        <time>2019-03-17T11:40:07Z</time>
      </trkpt>
      <trkpt lat="43.40557" lon="5.45866">
        <ele>553.38</ele>
        <time>2019-03-17T11:40:21Z</time>
      </trkpt>
      <trkpt lat="43.40548" lon="5.45876">
        <ele>556.74</ele>
        <time>2019-03-17T11:40:35Z</time>
      </trkpt>
      <trkpt lat="43.4054" lon="5.45884">
        <ele>560.11</ele>
        <time>2019-03-17T11:40:48Z</time>
      </trkpt>
      <trkpt lat="43.40538" lon="5.45887">
        <ele>560.59</ele>
        <time>2019-03-17T11:40:51Z</time>
      </trkpt>
      <trkpt lat="43.40537" lon="5.45905">
        <ele>563.47</ele>
        <time>2019-03-17T11:41:04Z</time>
      </trkpt>
      <trkpt lat="43.40539" lon="5.45921">
        <ele>563.47</ele>
        <time>2019-03-17T11:41:19Z</time>
      </trkpt>
      <trkpt lat="43.40539" lon="5.45933">
        <ele>565.87</ele>
        <time>2019-03-17T11:41:31Z</time>
      </trkpt>
      <trkpt lat="43.40537" lon="5.45947">
        <ele>565.39</ele>
        <time>2019-03-17T11:41:44Z</time>
      </trkpt>
      <trkpt lat="43.40537" lon="5.45951">
        <ele>564.91</ele>
        <time>2019-03-17T11:41:47Z</time>
      </trkpt>
      <trkpt lat="43.40542" lon="5.45956">
        <ele>564.91</ele>
        <time>2019-03-17T11:41:53Z</time>
      </trkpt>
      <trkpt lat="43.40549" lon="5.45953">
        <ele>564.43</ele>
        <time>2019-03-17T11:42:00Z</time>
      </trkpt>
      <trkpt lat="43.40551" lon="5.45942">
        <ele>564.43</ele>
        <time>2019-03-17T11:42:08Z</time>
      </trkpt>
      <trkpt lat="43.40552" lon="5.45928">
        <ele>562.51</ele>
        <time>2019-03-17T11:42:21Z</time>
      </trkpt>
      <trkpt lat="43.40552" lon="5.45912">
        <ele>562.03</ele>
        <time>2019-03-17T11:42:33Z</time>
      </trkpt>
      <trkpt lat="43.40559" lon="5.459">
        <ele>562.99</ele>
        <time>2019-03-17T11:42:45Z</time>
      </trkpt>
      <trkpt lat="43.40566" lon="5.45896">
        <ele>563.95</ele>
        <time>2019-03-17T11:42:55Z</time>
      </trkpt>
      <trkpt lat="43.40578" lon="5.45885">
        <ele>566.35</ele>
        <time>2019-03-17T11:43:10Z</time>
      </trkpt>
      <trkpt lat="43.40587" lon="5.45872">
        <ele>564.91</ele>
        <time>2019-03-17T11:43:22Z</time>
      </trkpt>
      <trkpt lat="43.4059" lon="5.45868">
        <ele>564.91</ele>
        <time>2019-03-17T11:43:35Z</time>
      </trkpt>
      <trkpt lat="43.40596" lon="5.45861">
        <ele>566.83</ele>
        <time>2019-03-17T11:43:51Z</time>
      </trkpt>
      <trkpt lat="43.40601" lon="5.45848">
        <ele>567.8</ele>
        <time>2019-03-17T11:44:04Z</time>
      </trkpt>
      <trkpt lat="43.40602" lon="5.45845">
        <ele>567.8</ele>
        <time>2019-03-17T11:44:06Z</time>
      </trkpt>
      <trkpt lat="43.40604" lon="5.45828">
        <ele>569.24</ele>
        <time>2019-03-17T11:44:20Z</time>
      </trkpt>
      <trkpt lat="43.40611" lon="5.45814">
        <ele>569.72</ele>
        <time>2019-03-17T11:44:35Z</time>
      </trkpt>
      <trkpt lat="43.4062" lon="5.45803">
        <ele>570.2</ele>
        <time>2019-03-17T11:44:48Z</time>
      </trkpt>
      <trkpt lat="43.40625" lon="5.45797">
        <ele>571.16</ele>
        <time>2019-03-17T11:44:57Z</time>
      </trkpt>
      <trkpt lat="43.40633" lon="5.45783">
        <ele>573.56</ele>
        <time>2019-03-17T11:45:09Z</time>
      </trkpt>
      <trkpt lat="43.40634" lon="5.45777">
        <ele>574.53</ele>
        <time>2019-03-17T11:45:14Z</time>
      </trkpt>
      <trkpt lat="43.40639" lon="5.45761">
        <ele>575.01</ele>
        <time>2019-03-17T11:45:29Z</time>
      </trkpt>
      <trkpt lat="43.40641" lon="5.45743">
        <ele>574.04</ele>
        <time>2019-03-17T11:45:44Z</time>
      </trkpt>
      <trkpt lat="43.40642" lon="5.45741">
        <ele>574.04</ele>
        <time>2019-03-17T11:45:45Z</time>
      </trkpt>
      <trkpt lat="43.40647" lon="5.4573">
        <ele>574.53</ele>
        <time>2019-03-17T11:45:56Z</time>
      </trkpt>
      <trkpt lat="43.40654" lon="5.45707">
        <ele>577.41</ele>
        <time>2019-03-17T11:46:14Z</time>
      </trkpt>
      <trkpt lat="43.40662" lon="5.45692">
        <ele>578.37</ele>
        <time>2019-03-17T11:46:27Z</time>
      </trkpt>
      <trkpt lat="43.4067" lon="5.45684">
        <ele>578.85</ele>
        <time>2019-03-17T11:46:37Z</time>
      </trkpt>
      <trkpt lat="43.40671" lon="5.45683">
        <ele>579.33</ele>
        <time>2019-03-17T11:46:39Z</time>
      </trkpt>
      <trkpt lat="43.4068" lon="5.45675">
        <ele>579.33</ele>
        <time>2019-03-17T11:46:52Z</time>
      </trkpt>
      <trkpt lat="43.40691" lon="5.45665">
        <ele>581.73</ele>
        <time>2019-03-17T11:47:05Z</time>
      </trkpt>
      <trkpt lat="43.40697" lon="5.45659">
        <ele>582.7</ele>
        <time>2019-03-17T11:47:12Z</time>
      </trkpt>
      <trkpt lat="43.40706" lon="5.45651">
        <ele>582.22</ele>
        <time>2019-03-17T11:47:23Z</time>
      </trkpt>
      <trkpt lat="43.40717" lon="5.45642">
        <ele>582.22</ele>
        <time>2019-03-17T11:47:37Z</time>
      </trkpt>
      <trkpt lat="43.4072" lon="5.45637">
        <ele>582.22</ele>
        <time>2019-03-17T11:47:54Z</time>
      </trkpt>
      <trkpt lat="43.4073" lon="5.45626">
        <ele>581.25</ele>
        <time>2019-03-17T11:48:07Z</time>
      </trkpt>
      <trkpt lat="43.40737" lon="5.45614">
        <ele>582.22</ele>
        <time>2019-03-17T11:48:18Z</time>
      </trkpt>
      <trkpt lat="43.40743" lon="5.45604">
        <ele>583.18</ele>
        <time>2019-03-17T11:48:27Z</time>
      </trkpt>
      <trkpt lat="43.40745" lon="5.45599">
        <ele>583.18</ele>
        <time>2019-03-17T11:48:32Z</time>
      </trkpt>
      <trkpt lat="43.40747" lon="5.45598">
        <ele>582.7</ele>
        <time>2019-03-17T11:48:34Z</time>
      </trkpt>
      <trkpt lat="43.40755" lon="5.45585">
        <ele>583.18</ele>
        <time>2019-03-17T11:48:48Z</time>
      </trkpt>
      <trkpt lat="43.40762" lon="5.45578">
        <ele>583.66</ele>
        <time>2019-03-17T11:48:56Z</time>
      </trkpt>
      <trkpt lat="43.40769" lon="5.45573">
        <ele>582.7</ele>
        <time>2019-03-17T11:49:05Z</time>
      </trkpt>
      <trkpt lat="43.40774" lon="5.45572">
        <ele>582.22</ele>
        <time>2019-03-17T11:49:22Z</time>
      </trkpt>
      <trkpt lat="43.40775" lon="5.45571">
        <ele>583.18</ele>
        <time>2019-03-17T11:49:42Z</time>
      </trkpt>
      <trkpt lat="43.40776" lon="5.45568">
        <ele>581.25</ele>
        <time>2019-03-17T11:50:14Z</time>
      </trkpt>
      <trkpt lat="43.40774" lon="5.45568">
        <ele>580.77</ele>
        <time>2019-03-17T11:50:47Z</time>
      </trkpt>
      <trkpt lat="43.40773" lon="5.45568">
        <ele>583.66</ele>
        <time>2019-03-17T11:51:01Z</time>
      </trkpt>
      <trkpt lat="43.40776" lon="5.45571">
        <ele>583.66</ele>
        <time>2019-03-17T11:51:18Z</time>
      </trkpt>
      <trkpt lat="43.40778" lon="5.45573">
        <ele>583.66</ele>
        <time>2019-03-17T11:51:20Z</time>
      </trkpt>
      <trkpt lat="43.40788" lon="5.45584">
        <ele>584.14</ele>
        <time>2019-03-17T11:51:33Z</time>
      </trkpt>
      <trkpt lat="43.40798" lon="5.45591">
        <ele>583.18</ele>
        <time>2019-03-17T11:51:44Z</time>
      </trkpt>
      <trkpt lat="43.40804" lon="5.45595">
        <ele>582.7</ele>
        <time>2019-03-17T11:51:51Z</time>
      </trkpt>
      <trkpt lat="43.40806" lon="5.45596">
        <ele>582.7</ele>
        <time>2019-03-17T11:51:53Z</time>
      </trkpt>
      <trkpt lat="43.4082" lon="5.45603">
        <ele>582.22</ele>
        <time>2019-03-17T11:52:09Z</time>
      </trkpt>
      <trkpt lat="43.40831" lon="5.45612">
        <ele>582.7</ele>
        <time>2019-03-17T11:52:24Z</time>
      </trkpt>
      <trkpt lat="43.40841" lon="5.45623">
        <ele>583.18</ele>
        <time>2019-03-17T11:52:39Z</time>
      </trkpt>
      <trkpt lat="43.40848" lon="5.45634">
        <ele>582.22</ele>
        <time>2019-03-17T11:52:52Z</time>
      </trkpt>
      <trkpt lat="43.40847" lon="5.45635">
        <ele>582.22</ele>
        <time>2019-03-17T11:52:53Z</time>
      </trkpt>
      <trkpt lat="43.40859" lon="5.45639">
        <ele>583.66</ele>
        <time>2019-03-17T11:53:06Z</time>
      </trkpt>
      <trkpt lat="43.40862" lon="5.45644">
        <ele>585.1</ele>
        <time>2019-03-17T11:53:23Z</time>
      </trkpt>
      <trkpt lat="43.40862" lon="5.45646">
        <ele>585.1</ele>
        <time>2019-03-17T11:53:24Z</time>
      </trkpt>
      <trkpt lat="43.40864" lon="5.45649">
        <ele>584.14</ele>
        <time>2019-03-17T11:53:37Z</time>
      </trkpt>
      <trkpt lat="43.40863" lon="5.4565">
        <ele>584.14</ele>
        <time>2019-03-17T11:53:57Z</time>
      </trkpt>
      <trkpt lat="43.40862" lon="5.45659">
        <ele>585.1</ele>
        <time>2019-03-17T11:54:05Z</time>
      </trkpt>
      <trkpt lat="43.40861" lon="5.45681">
        <ele>585.1</ele>
        <time>2019-03-17T11:54:22Z</time>
      </trkpt>
      <trkpt lat="43.40858" lon="5.45703">
        <ele>583.66</ele>
        <time>2019-03-17T11:54:37Z</time>
      </trkpt>
      <trkpt lat="43.40854" lon="5.45722">
        <ele>580.77</ele>
        <time>2019-03-17T11:54:52Z</time>
      </trkpt>
      <trkpt lat="43.40853" lon="5.45723">
        <ele>580.77</ele>
        <time>2019-03-17T11:54:53Z</time>
      </trkpt>
      <trkpt lat="43.40849" lon="5.45729">
        <ele>580.77</ele>
        <time>2019-03-17T11:55:08Z</time>
      </trkpt>
      <trkpt lat="43.40847" lon="5.45734">
        <ele>582.22</ele>
        <time>2019-03-17T11:55:29Z</time>
      </trkpt>
      <trkpt lat="43.40844" lon="5.45738">
        <ele>582.22</ele>
        <time>2019-03-17T11:55:34Z</time>
      </trkpt>
      <trkpt lat="43.40834" lon="5.45752">
        <ele>582.22</ele>
        <time>2019-03-17T11:55:50Z</time>
      </trkpt>
      <trkpt lat="43.40825" lon="5.45765">
        <ele>584.62</ele>
        <time>2019-03-17T11:56:03Z</time>
      </trkpt>
      <trkpt lat="43.40822" lon="5.4577">
        <ele>585.58</ele>
        <time>2019-03-17T11:56:07Z</time>
      </trkpt>
      <trkpt lat="43.40821" lon="5.45772">
        <ele>586.06</ele>
        <time>2019-03-17T11:56:09Z</time>
      </trkpt>
      <trkpt lat="43.40812" lon="5.45786">
        <ele>586.54</ele>
        <time>2019-03-17T11:56:23Z</time>
      </trkpt>
      <trkpt lat="43.40804" lon="5.45797">
        <ele>586.06</ele>
        <time>2019-03-17T11:56:35Z</time>
      </trkpt>
      <trkpt lat="43.40797" lon="5.4581">
        <ele>584.14</ele>
        <time>2019-03-17T11:56:48Z</time>
      </trkpt>
      <trkpt lat="43.40794" lon="5.45819">
        <ele>584.62</ele>
        <time>2019-03-17T11:57:03Z</time>
      </trkpt>
      <trkpt lat="43.40792" lon="5.45823">
        <ele>586.06</ele>
        <time>2019-03-17T11:57:16Z</time>
      </trkpt>
      <trkpt lat="43.40791" lon="5.45825">
        <ele>586.06</ele>
        <time>2019-03-17T11:57:18Z</time>
      </trkpt>
      <trkpt lat="43.40787" lon="5.45842">
        <ele>588.46</ele>
        <time>2019-03-17T11:57:31Z</time>
      </trkpt>
      <trkpt lat="43.40784" lon="5.45858">
        <ele>591.35</ele>
        <time>2019-03-17T11:57:43Z</time>
      </trkpt>
      <trkpt lat="43.40784" lon="5.45876">
        <ele>591.35</ele>
        <time>2019-03-17T11:57:56Z</time>
      </trkpt>
      <trkpt lat="43.40783" lon="5.45882">
        <ele>592.31</ele>
        <time>2019-03-17T11:58:00Z</time>
      </trkpt>
      <trkpt lat="43.40784" lon="5.45893">
        <ele>593.27</ele>
        <time>2019-03-17T11:58:09Z</time>
      </trkpt>
      <trkpt lat="43.40781" lon="5.45907">
        <ele>594.23</ele>
        <time>2019-03-17T11:58:21Z</time>
      </trkpt>
      <trkpt lat="43.40775" lon="5.4592">
        <ele>593.27</ele>
        <time>2019-03-17T11:58:35Z</time>
      </trkpt>
      <trkpt lat="43.40771" lon="5.45924">
        <ele>592.79</ele>
        <time>2019-03-17T11:58:41Z</time>
      </trkpt>
      <trkpt lat="43.40763" lon="5.45931">
        <ele>593.75</ele>
        <time>2019-03-17T11:58:52Z</time>
      </trkpt>
      <trkpt lat="43.40751" lon="5.4594">
        <ele>595.19</ele>
        <time>2019-03-17T11:59:06Z</time>
      </trkpt>
      <trkpt lat="43.40741" lon="5.45946">
        <ele>596.64</ele>
        <time>2019-03-17T11:59:17Z</time>
      </trkpt>
      <trkpt lat="43.40731" lon="5.45954">
        <ele>597.12</ele>
        <time>2019-03-17T11:59:29Z</time>
      </trkpt>
      <trkpt lat="43.40721" lon="5.45963">
        <ele>597.12</ele>
        <time>2019-03-17T11:59:42Z</time>
      </trkpt>
      <trkpt lat="43.40713" lon="5.45975">
        <ele>596.64</ele>
        <time>2019-03-17T11:59:54Z</time>
      </trkpt>
      <trkpt lat="43.40706" lon="5.45986">
        <ele>598.56</ele>
        <time>2019-03-17T12:00:07Z</time>
      </trkpt>
      <trkpt lat="43.40706" lon="5.45987">
        <ele>598.56</ele>
        <time>2019-03-17T12:00:08Z</time>
      </trkpt>
      <trkpt lat="43.40699" lon="5.45995">
        <ele>597.6</ele>
        <time>2019-03-17T12:00:18Z</time>
      </trkpt>
      <trkpt lat="43.4069" lon="5.46003">
        <ele>598.56</ele>
        <time>2019-03-17T12:00:30Z</time>
      </trkpt>
      <trkpt lat="43.40676" lon="5.46011">
        <ele>598.56</ele>
        <time>2019-03-17T12:00:46Z</time>
      </trkpt>
      <trkpt lat="43.40664" lon="5.46021">
        <ele>601.44</ele>
        <time>2019-03-17T12:01:01Z</time>
      </trkpt>
      <trkpt lat="43.40654" lon="5.46033">
        <ele>602.4</ele>
        <time>2019-03-17T12:01:15Z</time>
      </trkpt>
      <trkpt lat="43.40643" lon="5.46048">
        <ele>604.33</ele>
        <time>2019-03-17T12:01:30Z</time>
      </trkpt>
      <trkpt lat="43.40638" lon="5.46054">
        <ele>605.77</ele>
        <time>2019-03-17T12:01:37Z</time>
      </trkpt>
      <trkpt lat="43.40636" lon="5.46056">
        <ele>606.25</ele>
        <time>2019-03-17T12:01:39Z</time>
      </trkpt>
      <trkpt lat="43.40631" lon="5.46058">
        <ele>603.85</ele>
        <time>2019-03-17T12:01:53Z</time>
      </trkpt>
      <trkpt lat="43.4063" lon="5.4606">
        <ele>605.77</ele>
        <time>2019-03-17T12:02:12Z</time>
      </trkpt>
      <trkpt lat="43.40629" lon="5.46061">
        <ele>608.17</ele>
        <time>2019-03-17T12:02:42Z</time>
      </trkpt>
      <trkpt lat="43.40627" lon="5.46062">
        <ele>606.73</ele>
        <time>2019-03-17T12:03:05Z</time>
      </trkpt>
      <trkpt lat="43.40625" lon="5.46063">
        <ele>608.17</ele>
        <time>2019-03-17T12:03:22Z</time>
      </trkpt>
      <trkpt lat="43.40624" lon="5.4606">
        <ele>610.09</ele>
        <time>2019-03-17T12:03:40Z</time>
      </trkpt>
      <trkpt lat="43.40624" lon="5.46059">
        <ele>612.02</ele>
        <time>2019-03-17T12:03:50Z</time>
      </trkpt>
      <trkpt lat="43.40622" lon="5.46055">
        <ele>613.94</ele>
        <time>2019-03-17T12:04:02Z</time>
      </trkpt>
      <trkpt lat="43.40619" lon="5.46053">
        <ele>613.94</ele>
        <time>2019-03-17T12:04:16Z</time>
      </trkpt>
      <trkpt lat="43.40613" lon="5.46056">
        <ele>616.34</ele>
        <time>2019-03-17T12:04:30Z</time>
      </trkpt>
      <trkpt lat="43.40606" lon="5.4606">
        <ele>618.75</ele>
        <time>2019-03-17T12:04:44Z</time>
      </trkpt>
      <trkpt lat="43.406" lon="5.4606">
        <ele>620.19</ele>
        <time>2019-03-17T12:04:58Z</time>
      </trkpt>
      <trkpt lat="43.40598" lon="5.46061">
        <ele>622.11</ele>
        <time>2019-03-17T12:05:20Z</time>
      </trkpt>
      <trkpt lat="43.40594" lon="5.46067">
        <ele>624.51</ele>
        <time>2019-03-17T12:05:36Z</time>
      </trkpt>
      <trkpt lat="43.40595" lon="5.46068">
        <ele>623.07</ele>
        <time>2019-03-17T12:05:57Z</time>
      </trkpt>
      <trkpt lat="43.4059" lon="5.46075">
        <ele>626.44</ele>
        <time>2019-03-17T12:06:09Z</time>
      </trkpt>
      <trkpt lat="43.40589" lon="5.46077">
        <ele>626.92</ele>
        <time>2019-03-17T12:06:11Z</time>
      </trkpt>
      <trkpt lat="43.40585" lon="5.46085">
        <ele>628.36</ele>
        <time>2019-03-17T12:06:22Z</time>
      </trkpt>
      <trkpt lat="43.40582" lon="5.46093">
        <ele>629.8</ele>
        <time>2019-03-17T12:06:36Z</time>
      </trkpt>
      <trkpt lat="43.40578" lon="5.46095">
        <ele>631.24</ele>
        <time>2019-03-17T12:06:48Z</time>
      </trkpt>
      <trkpt lat="43.40578" lon="5.46094">
        <ele>632.68</ele>
        <time>2019-03-17T12:07:12Z</time>
      </trkpt>
      <trkpt lat="43.40576" lon="5.46101">
        <ele>634.13</ele>
        <time>2019-03-17T12:07:29Z</time>
      </trkpt>
      <trkpt lat="43.40574" lon="5.46107">
        <ele>636.05</ele>
        <time>2019-03-17T12:07:41Z</time>
      </trkpt>
      <trkpt lat="43.40574" lon="5.46113">
        <ele>637.49</ele>
        <time>2019-03-17T12:07:57Z</time>
      </trkpt>
      <trkpt lat="43.40574" lon="5.46114">
        <ele>637.01</ele>
        <time>2019-03-17T12:08:11Z</time>
      </trkpt>
      <trkpt lat="43.40575" lon="5.46114">
        <ele>637.49</ele>
        <time>2019-03-17T12:08:33Z</time>
      </trkpt>
      <trkpt lat="43.40575" lon="5.46115">
        <ele>635.09</ele>
        <time>2019-03-17T12:09:08Z</time>
      </trkpt>
      <trkpt lat="43.40572" lon="5.46119">
        <ele>634.61</ele>
        <time>2019-03-17T12:09:40Z</time>
      </trkpt>
      <trkpt lat="43.40568" lon="5.46128">
        <ele>637.49</ele>
        <time>2019-03-17T12:09:53Z</time>
      </trkpt>
      <trkpt lat="43.40567" lon="5.46137">
        <ele>638.93</ele>
        <time>2019-03-17T12:10:08Z</time>
      </trkpt>
      <trkpt lat="43.40565" lon="5.4614">
        <ele>640.38</ele>
        <time>2019-03-17T12:10:13Z</time>
      </trkpt>
      <trkpt lat="43.40562" lon="5.46146">
        <ele>643.26</ele>
        <time>2019-03-17T12:10:26Z</time>
      </trkpt>
      <trkpt lat="43.40559" lon="5.46158">
        <ele>644.7</ele>
        <time>2019-03-17T12:10:41Z</time>
      </trkpt>
      <trkpt lat="43.40558" lon="5.46166">
        <ele>645.66</ele>
        <time>2019-03-17T12:10:54Z</time>
      </trkpt>
      <trkpt lat="43.40557" lon="5.46163">
        <ele>647.1</ele>
        <time>2019-03-17T12:11:18Z</time>
      </trkpt>
      <trkpt lat="43.40555" lon="5.46163">
        <ele>649.51</ele>
        <time>2019-03-17T12:11:38Z</time>
      </trkpt>
      <trkpt lat="43.40558" lon="5.46164">
        <ele>649.03</ele>
        <time>2019-03-17T12:12:07Z</time>
      </trkpt>
      <trkpt lat="43.40558" lon="5.4617">
        <ele>648.07</ele>
        <time>2019-03-17T12:12:24Z</time>
      </trkpt>
      <trkpt lat="43.40556" lon="5.46178">
        <ele>647.1</ele>
        <time>2019-03-17T12:12:36Z</time>
      </trkpt>
      <trkpt lat="43.40556" lon="5.46185">
        <ele>648.55</ele>
        <time>2019-03-17T12:12:52Z</time>
      </trkpt>
      <trkpt lat="43.40556" lon="5.46192">
        <ele>646.62</ele>
        <time>2019-03-17T12:13:07Z</time>
      </trkpt>
      <trkpt lat="43.40556" lon="5.46204">
        <ele>648.07</ele>
        <time>2019-03-17T12:13:22Z</time>
      </trkpt>
      <trkpt lat="43.40555" lon="5.46206">
        <ele>646.62</ele>
        <time>2019-03-17T12:13:46Z</time>
      </trkpt>
      <trkpt lat="43.40554" lon="5.46216">
        <ele>649.99</ele>
        <time>2019-03-17T12:14:01Z</time>
      </trkpt>
      <trkpt lat="43.40556" lon="5.46214">
        <ele>650.95</ele>
        <time>2019-03-17T12:14:19Z</time>
      </trkpt>
      <trkpt lat="43.40557" lon="5.46215">
        <ele>653.83</ele>
        <time>2019-03-17T12:14:39Z</time>
      </trkpt>
      <trkpt lat="43.40559" lon="5.46215">
        <ele>654.31</ele>
        <time>2019-03-17T12:15:07Z</time>
      </trkpt>
      <trkpt lat="43.40557" lon="5.46224">
        <ele>655.28</ele>
        <time>2019-03-17T12:15:29Z</time>
      </trkpt>
      <trkpt lat="43.40555" lon="5.46229">
        <ele>656.24</ele>
        <time>2019-03-17T12:15:43Z</time>
      </trkpt>
      <trkpt lat="43.40549" lon="5.46238">
        <ele>656.72</ele>
        <time>2019-03-17T12:15:54Z</time>
      </trkpt>
      <trkpt lat="43.40547" lon="5.46243">
        <ele>658.64</ele>
        <time>2019-03-17T12:16:06Z</time>
      </trkpt>
      <trkpt lat="43.40545" lon="5.46243">
        <ele>659.12</ele>
        <time>2019-03-17T12:16:28Z</time>
      </trkpt>
      <trkpt lat="43.40542" lon="5.46248">
        <ele>662.01</ele>
        <time>2019-03-17T12:16:43Z</time>
      </trkpt>
      <trkpt lat="43.4054" lon="5.46252">
        <ele>661.04</ele>
        <time>2019-03-17T12:16:54Z</time>
      </trkpt>
      <trkpt lat="43.40545" lon="5.4625">
        <ele>658.16</ele>
        <time>2019-03-17T12:17:24Z</time>
      </trkpt>
      <trkpt lat="43.40539" lon="5.46258">
        <ele>662.49</ele>
        <time>2019-03-17T12:17:39Z</time>
      </trkpt>
      <trkpt lat="43.40534" lon="5.4626">
        <ele>663.93</ele>
        <time>2019-03-17T12:17:50Z</time>
      </trkpt>
      <trkpt lat="43.40531" lon="5.46265">
        <ele>666.81</ele>
        <time>2019-03-17T12:18:07Z</time>
      </trkpt>
      <trkpt lat="43.4053" lon="5.46269">
        <ele>666.33</ele>
        <time>2019-03-17T12:18:22Z</time>
      </trkpt>
      <trkpt lat="43.40526" lon="5.46271">
        <ele>667.29</ele>
        <time>2019-03-17T12:18:34Z</time>
      </trkpt>
      <trkpt lat="43.40526" lon="5.46274">
        <ele>668.73</ele>
        <time>2019-03-17T12:19:00Z</time>
      </trkpt>
      <trkpt lat="43.40518" lon="5.46287">
        <ele>678.83</ele>
        <time>2019-03-17T12:19:30Z</time>
      </trkpt>
      <trkpt lat="43.40525" lon="5.46288">
        <ele>676.42</ele>
        <time>2019-03-17T12:19:43Z</time>
      </trkpt>
      <trkpt lat="43.40525" lon="5.46291">
        <ele>674.98</ele>
        <time>2019-03-17T12:19:58Z</time>
      </trkpt>
      <trkpt lat="43.40525" lon="5.46292">
        <ele>678.35</ele>
        <time>2019-03-17T12:20:22Z</time>
      </trkpt>
      <trkpt lat="43.40525" lon="5.46292">
        <ele>677.87</ele>
        <time>2019-03-17T12:20:40Z</time>
      </trkpt>
      <trkpt lat="43.40527" lon="5.463">
        <ele>677.87</ele>
        <time>2019-03-17T12:21:14Z</time>
      </trkpt>
      <trkpt lat="43.40526" lon="5.46298">
        <ele>676.91</ele>
        <time>2019-03-17T12:21:52Z</time>
      </trkpt>
      <trkpt lat="43.40523" lon="5.46289">
        <ele>673.06</ele>
        <time>2019-03-17T12:22:23Z</time>
      </trkpt>
      <trkpt lat="43.40524" lon="5.46293">
        <ele>673.06</ele>
        <time>2019-03-17T12:22:33Z</time>
      </trkpt>
      <trkpt lat="43.40524" lon="5.46296">
        <ele>674.5</ele>
        <time>2019-03-17T12:22:46Z</time>
      </trkpt>
      <trkpt lat="43.40524" lon="5.46294">
        <ele>673.54</ele>
        <time>2019-03-17T12:22:59Z</time>
      </trkpt>
      <trkpt lat="43.40525" lon="5.46295">
        <ele>671.62</ele>
        <time>2019-03-17T12:23:25Z</time>
      </trkpt>
      <trkpt lat="43.40526" lon="5.46295">
        <ele>672.1</ele>
        <time>2019-03-17T12:23:51Z</time>
      </trkpt>
      <trkpt lat="43.40525" lon="5.46298">
        <ele>669.7</ele>
        <time>2019-03-17T12:24:03Z</time>
      </trkpt>
      <trkpt lat="43.40526" lon="5.46299">
        <ele>668.73</ele>
        <time>2019-03-17T12:24:09Z</time>
      </trkpt>
      <trkpt lat="43.40527" lon="5.46295">
        <ele>663.45</ele>
        <time>2019-03-17T12:59:41Z</time>
      </trkpt>
      <trkpt lat="43.40525" lon="5.46285">
        <ele>666.33</ele>
        <time>2019-03-17T13:00:20Z</time>
      </trkpt>
      <trkpt lat="43.40525" lon="5.4628">
        <ele>666.33</ele>
        <time>2019-03-17T13:00:25Z</time>
      </trkpt>
      <trkpt lat="43.40523" lon="5.46277">
        <ele>667.77</ele>
        <time>2019-03-17T13:00:41Z</time>
      </trkpt>
      <trkpt lat="43.40524" lon="5.46271">
        <ele>668.25</ele>
        <time>2019-03-17T13:00:55Z</time>
      </trkpt>
      <trkpt lat="43.40527" lon="5.46271">
        <ele>669.22</ele>
        <time>2019-03-17T13:01:18Z</time>
      </trkpt>
      <trkpt lat="43.40526" lon="5.46266">
        <ele>669.7</ele>
        <time>2019-03-17T13:01:30Z</time>
      </trkpt>
      <trkpt lat="43.40522" lon="5.46252">
        <ele>669.7</ele>
        <time>2019-03-17T13:01:43Z</time>
      </trkpt>
      <trkpt lat="43.40518" lon="5.46245">
        <ele>667.29</ele>
        <time>2019-03-17T13:01:56Z</time>
      </trkpt>
      <trkpt lat="43.40514" lon="5.46241">
        <ele>665.85</ele>
        <time>2019-03-17T13:02:06Z</time>
      </trkpt>
      <trkpt lat="43.40508" lon="5.46241">
        <ele>664.41</ele>
        <time>2019-03-17T13:02:19Z</time>
      </trkpt>
      <trkpt lat="43.40502" lon="5.46238">
        <ele>662.01</ele>
        <time>2019-03-17T13:02:32Z</time>
      </trkpt>
      <trkpt lat="43.405" lon="5.46237">
        <ele>661.52</ele>
        <time>2019-03-17T13:02:37Z</time>
      </trkpt>
      <trkpt lat="43.40496" lon="5.46234">
        <ele>660.56</ele>
        <time>2019-03-17T13:02:51Z</time>
      </trkpt>
      <trkpt lat="43.40497" lon="5.46236">
        <ele>660.08</ele>
        <time>2019-03-17T13:03:10Z</time>
      </trkpt>
      <trkpt lat="43.40498" lon="5.46237">
        <ele>658.64</ele>
        <time>2019-03-17T13:03:36Z</time>
      </trkpt>
      <trkpt lat="43.40496" lon="5.46234">
        <ele>658.16</ele>
        <time>2019-03-17T13:03:55Z</time>
      </trkpt>
      <trkpt lat="43.4049" lon="5.46227">
        <ele>656.24</ele>
        <time>2019-03-17T13:04:11Z</time>
      </trkpt>
      <trkpt lat="43.40482" lon="5.46215">
        <ele>655.28</ele>
        <time>2019-03-17T13:04:25Z</time>
      </trkpt>
      <trkpt lat="43.40477" lon="5.46209">
        <ele>652.39</ele>
        <time>2019-03-17T13:04:37Z</time>
      </trkpt>
      <trkpt lat="43.40475" lon="5.46207">
        <ele>650.47</ele>
        <time>2019-03-17T13:04:52Z</time>
      </trkpt>
      <trkpt lat="43.40472" lon="5.46201">
        <ele>649.03</ele>
        <time>2019-03-17T13:05:03Z</time>
      </trkpt>
      <trkpt lat="43.40465" lon="5.46198">
        <ele>649.03</ele>
        <time>2019-03-17T13:05:15Z</time>
      </trkpt>
      <trkpt lat="43.40458" lon="5.46193">
        <ele>649.03</ele>
        <time>2019-03-17T13:05:28Z</time>
      </trkpt>
      <trkpt lat="43.40454" lon="5.46188">
        <ele>646.14</ele>
        <time>2019-03-17T13:05:39Z</time>
      </trkpt>
      <trkpt lat="43.4045" lon="5.46186">
        <ele>644.7</ele>
        <time>2019-03-17T13:05:50Z</time>
      </trkpt>
      <trkpt lat="43.40452" lon="5.46187">
        <ele>645.18</ele>
        <time>2019-03-17T13:06:07Z</time>
      </trkpt>
      <trkpt lat="43.40447" lon="5.46185">
        <ele>647.1</ele>
        <time>2019-03-17T13:06:25Z</time>
      </trkpt>
      <trkpt lat="43.40442" lon="5.46183">
        <ele>648.07</ele>
        <time>2019-03-17T13:06:37Z</time>
      </trkpt>
      <trkpt lat="43.40434" lon="5.46175">
        <ele>646.62</ele>
        <time>2019-03-17T13:06:52Z</time>
      </trkpt>
      <trkpt lat="43.40432" lon="5.46169">
        <ele>647.1</ele>
        <time>2019-03-17T13:07:09Z</time>
      </trkpt>
      <trkpt lat="43.40431" lon="5.4617">
        <ele>646.14</ele>
        <time>2019-03-17T13:07:30Z</time>
      </trkpt>
      <trkpt lat="43.40431" lon="5.46171">
        <ele>644.22</ele>
        <time>2019-03-17T13:08:02Z</time>
      </trkpt>
      <trkpt lat="43.40432" lon="5.4617">
        <ele>643.26</ele>
        <time>2019-03-17T13:08:34Z</time>
      </trkpt>
      <trkpt lat="43.40433" lon="5.4617">
        <ele>643.74</ele>
        <time>2019-03-17T13:08:58Z</time>
      </trkpt>
      <trkpt lat="43.4043" lon="5.46171">
        <ele>642.78</ele>
        <time>2019-03-17T13:09:21Z</time>
      </trkpt>
      <trkpt lat="43.40432" lon="5.4617">
        <ele>641.82</ele>
        <time>2019-03-17T13:09:53Z</time>
      </trkpt>
      <trkpt lat="43.40431" lon="5.46168">
        <ele>642.3</ele>
        <time>2019-03-17T13:10:18Z</time>
      </trkpt>
      <trkpt lat="43.40432" lon="5.46168">
        <ele>644.22</ele>
        <time>2019-03-17T13:10:47Z</time>
      </trkpt>
      <trkpt lat="43.40431" lon="5.46169">
        <ele>645.18</ele>
        <time>2019-03-17T13:11:20Z</time>
      </trkpt>
      <trkpt lat="43.40431" lon="5.46167">
        <ele>644.7</ele>
        <time>2019-03-17T13:11:53Z</time>
      </trkpt>
      <trkpt lat="43.40429" lon="5.46164">
        <ele>643.74</ele>
        <time>2019-03-17T13:12:05Z</time>
      </trkpt>
      <trkpt lat="43.40424" lon="5.46156">
        <ele>642.78</ele>
        <time>2019-03-17T13:12:15Z</time>
      </trkpt>
      <trkpt lat="43.40424" lon="5.46154">
        <ele>641.34</ele>
        <time>2019-03-17T13:12:29Z</time>
      </trkpt>
      <trkpt lat="43.40419" lon="5.46139">
        <ele>640.86</ele>
        <time>2019-03-17T13:12:44Z</time>
      </trkpt>
      <trkpt lat="43.40412" lon="5.4613">
        <ele>642.3</ele>
        <time>2019-03-17T13:12:59Z</time>
      </trkpt>
      <trkpt lat="43.40405" lon="5.46122">
        <ele>640.38</ele>
        <time>2019-03-17T13:13:11Z</time>
      </trkpt>
      <trkpt lat="43.40398" lon="5.46119">
        <ele>639.41</ele>
        <time>2019-03-17T13:13:22Z</time>
      </trkpt>
      <trkpt lat="43.40396" lon="5.46113">
        <ele>638.93</ele>
        <time>2019-03-17T13:13:35Z</time>
      </trkpt>
      <trkpt lat="43.40393" lon="5.46113">
        <ele>638.93</ele>
        <time>2019-03-17T13:13:42Z</time>
      </trkpt>
      <trkpt lat="43.40387" lon="5.46111">
        <ele>637.97</ele>
        <time>2019-03-17T13:13:57Z</time>
      </trkpt>
      <trkpt lat="43.40385" lon="5.4611">
        <ele>640.38</ele>
        <time>2019-03-17T13:14:25Z</time>
      </trkpt>
      <trkpt lat="43.40382" lon="5.46109">
        <ele>642.3</ele>
        <time>2019-03-17T13:14:57Z</time>
      </trkpt>
      <trkpt lat="43.40373" lon="5.46108">
        <ele>639.41</ele>
        <time>2019-03-17T13:15:10Z</time>
      </trkpt>
      <trkpt lat="43.40366" lon="5.46106">
        <ele>637.97</ele>
        <time>2019-03-17T13:15:22Z</time>
      </trkpt>
      <trkpt lat="43.40364" lon="5.46104">
        <ele>637.49</ele>
        <time>2019-03-17T13:15:35Z</time>
      </trkpt>
      <trkpt lat="43.40364" lon="5.46103">
        <ele>634.61</ele>
        <time>2019-03-17T13:15:49Z</time>
      </trkpt>
      <trkpt lat="43.40362" lon="5.46103">
        <ele>633.65</ele>
        <time>2019-03-17T13:16:04Z</time>
      </trkpt>
      <trkpt lat="43.40358" lon="5.46103">
        <ele>632.2</ele>
        <time>2019-03-17T13:16:25Z</time>
      </trkpt>
      <trkpt lat="43.40352" lon="5.46102">
        <ele>632.2</ele>
        <time>2019-03-17T13:16:37Z</time>
      </trkpt>
      <trkpt lat="43.40351" lon="5.46102">
        <ele>631.72</ele>
        <time>2019-03-17T13:16:38Z</time>
      </trkpt>
      <trkpt lat="43.40348" lon="5.46105">
        <ele>629.32</ele>
        <time>2019-03-17T13:16:53Z</time>
      </trkpt>
      <trkpt lat="43.40341" lon="5.46098">
        <ele>628.36</ele>
        <time>2019-03-17T13:17:07Z</time>
      </trkpt>
      <trkpt lat="43.40334" lon="5.46088">
        <ele>624.99</ele>
        <time>2019-03-17T13:17:20Z</time>
      </trkpt>
      <trkpt lat="43.40322" lon="5.46076">
        <ele>626.44</ele>
        <time>2019-03-17T13:17:37Z</time>
      </trkpt>
      <trkpt lat="43.4032" lon="5.4607">
        <ele>626.44</ele>
        <time>2019-03-17T13:17:57Z</time>
      </trkpt>
      <trkpt lat="43.40316" lon="5.4606">
        <ele>624.03</ele>
        <time>2019-03-17T13:18:12Z</time>
      </trkpt>
      <trkpt lat="43.40312" lon="5.4605">
        <ele>622.11</ele>
        <time>2019-03-17T13:18:25Z</time>
      </trkpt>
      <trkpt lat="43.40311" lon="5.46046">
        <ele>622.59</ele>
        <time>2019-03-17T13:18:44Z</time>
      </trkpt>
      <trkpt lat="43.40309" lon="5.4604">
        <ele>623.55</ele>
        <time>2019-03-17T13:19:01Z</time>
      </trkpt>
      <trkpt lat="43.40308" lon="5.46035">
        <ele>622.11</ele>
        <time>2019-03-17T13:19:15Z</time>
      </trkpt>
      <trkpt lat="43.40308" lon="5.46031">
        <ele>619.71</ele>
        <time>2019-03-17T13:19:30Z</time>
      </trkpt>
      <trkpt lat="43.40307" lon="5.46026">
        <ele>616.34</ele>
        <time>2019-03-17T13:19:46Z</time>
      </trkpt>
      <trkpt lat="43.40305" lon="5.4602">
        <ele>616.34</ele>
        <time>2019-03-17T13:20:12Z</time>
      </trkpt>
      <trkpt lat="43.40305" lon="5.4602">
        <ele>618.26</ele>
        <time>2019-03-17T13:20:31Z</time>
      </trkpt>
      <trkpt lat="43.40302" lon="5.46016">
        <ele>618.26</ele>
        <time>2019-03-17T13:20:57Z</time>
      </trkpt>
      <trkpt lat="43.40298" lon="5.46014">
        <ele>619.23</ele>
        <time>2019-03-17T13:21:14Z</time>
      </trkpt>
      <trkpt lat="43.40295" lon="5.46013">
        <ele>619.23</ele>
        <time>2019-03-17T13:21:32Z</time>
      </trkpt>
      <trkpt lat="43.40292" lon="5.46012">
        <ele>619.23</ele>
        <time>2019-03-17T13:21:44Z</time>
      </trkpt>
      <trkpt lat="43.40289" lon="5.46009">
        <ele>619.71</ele>
        <time>2019-03-17T13:21:59Z</time>
      </trkpt>
      <trkpt lat="43.40285" lon="5.46009">
        <ele>619.23</ele>
        <time>2019-03-17T13:22:14Z</time>
      </trkpt>
      <trkpt lat="43.40283" lon="5.46006">
        <ele>617.78</ele>
        <time>2019-03-17T13:22:34Z</time>
      </trkpt>
      <trkpt lat="43.4028" lon="5.46008">
        <ele>610.09</ele>
        <time>2019-03-17T13:22:50Z</time>
      </trkpt>
      <trkpt lat="43.40277" lon="5.46007">
        <ele>606.25</ele>
        <time>2019-03-17T13:23:05Z</time>
      </trkpt>
      <trkpt lat="43.40271" lon="5.46003">
        <ele>604.81</ele>
        <time>2019-03-17T13:23:17Z</time>
      </trkpt>
      <trkpt lat="43.40266" lon="5.46003">
        <ele>605.29</ele>
        <time>2019-03-17T13:23:33Z</time>
      </trkpt>
      <trkpt lat="43.40262" lon="5.46002">
        <ele>605.29</ele>
        <time>2019-03-17T13:23:51Z</time>
      </trkpt>
      <trkpt lat="43.40262" lon="5.46001">
        <ele>603.36</ele>
        <time>2019-03-17T13:24:12Z</time>
      </trkpt>
      <trkpt lat="43.4026" lon="5.45998">
        <ele>601.44</ele>
        <time>2019-03-17T13:24:25Z</time>
      </trkpt>
      <trkpt lat="43.40259" lon="5.45998">
        <ele>600</ele>
        <time>2019-03-17T13:24:56Z</time>
      </trkpt>
      <trkpt lat="43.40254" lon="5.45998">
        <ele>604.81</ele>
        <time>2019-03-17T13:25:13Z</time>
      </trkpt>
      <trkpt lat="43.40251" lon="5.45998">
        <ele>603.36</ele>
        <time>2019-03-17T13:25:28Z</time>
      </trkpt>
      <trkpt lat="43.40248" lon="5.45998">
        <ele>600</ele>
        <time>2019-03-17T13:25:50Z</time>
      </trkpt>
      <trkpt lat="43.40249" lon="5.45997">
        <ele>601.44</ele>
        <time>2019-03-17T13:26:22Z</time>
      </trkpt>
      <trkpt lat="43.40247" lon="5.46001">
        <ele>599.04</ele>
        <time>2019-03-17T13:26:34Z</time>
      </trkpt>
      <trkpt lat="43.40248" lon="5.46007">
        <ele>596.15</ele>
        <time>2019-03-17T13:26:47Z</time>
      </trkpt>
      <trkpt lat="43.40242" lon="5.46009">
        <ele>592.79</ele>
        <time>2019-03-17T13:27:13Z</time>
      </trkpt>
      <trkpt lat="43.40239" lon="5.46012">
        <ele>596.15</ele>
        <time>2019-03-17T13:27:28Z</time>
      </trkpt>
      <trkpt lat="43.40236" lon="5.46013">
        <ele>596.15</ele>
        <time>2019-03-17T13:27:40Z</time>
      </trkpt>
      <trkpt lat="43.40233" lon="5.46013">
        <ele>596.15</ele>
        <time>2019-03-17T13:27:50Z</time>
      </trkpt>
      <trkpt lat="43.40226" lon="5.46019">
        <ele>596.15</ele>
        <time>2019-03-17T13:28:05Z</time>
      </trkpt>
      <trkpt lat="43.40221" lon="5.46023">
        <ele>596.64</ele>
        <time>2019-03-17T13:28:19Z</time>
      </trkpt>
      <trkpt lat="43.40219" lon="5.46024">
        <ele>596.15</ele>
        <time>2019-03-17T13:28:22Z</time>
      </trkpt>
      <trkpt lat="43.40211" lon="5.46027">
        <ele>593.75</ele>
        <time>2019-03-17T13:28:36Z</time>
      </trkpt>
      <trkpt lat="43.40209" lon="5.46029">
        <ele>592.79</ele>
        <time>2019-03-17T13:28:39Z</time>
      </trkpt>
      <trkpt lat="43.40199" lon="5.46028">
        <ele>588.95</ele>
        <time>2019-03-17T13:28:54Z</time>
      </trkpt>
      <trkpt lat="43.40196" lon="5.46025">
        <ele>587.02</ele>
        <time>2019-03-17T13:29:06Z</time>
      </trkpt>
      <trkpt lat="43.40195" lon="5.46021">
        <ele>583.66</ele>
        <time>2019-03-17T13:29:22Z</time>
      </trkpt>
      <trkpt lat="43.40191" lon="5.46019">
        <ele>582.7</ele>
        <time>2019-03-17T13:29:35Z</time>
      </trkpt>
      <trkpt lat="43.40188" lon="5.46019">
        <ele>581.73</ele>
        <time>2019-03-17T13:29:55Z</time>
      </trkpt>
      <trkpt lat="43.40184" lon="5.4602">
        <ele>581.73</ele>
        <time>2019-03-17T13:30:11Z</time>
      </trkpt>
      <trkpt lat="43.4018" lon="5.46018">
        <ele>583.18</ele>
        <time>2019-03-17T13:30:23Z</time>
      </trkpt>
      <trkpt lat="43.40176" lon="5.46018">
        <ele>582.7</ele>
        <time>2019-03-17T13:30:36Z</time>
      </trkpt>
      <trkpt lat="43.4017" lon="5.46016">
        <ele>583.18</ele>
        <time>2019-03-17T13:30:50Z</time>
      </trkpt>
      <trkpt lat="43.40166" lon="5.46015">
        <ele>581.73</ele>
        <time>2019-03-17T13:31:03Z</time>
      </trkpt>
      <trkpt lat="43.40157" lon="5.4601">
        <ele>576.93</ele>
        <time>2019-03-17T13:31:18Z</time>
      </trkpt>
      <trkpt lat="43.40147" lon="5.46005">
        <ele>576.45</ele>
        <time>2019-03-17T13:31:34Z</time>
      </trkpt>
      <trkpt lat="43.40136" lon="5.45999">
        <ele>572.12</ele>
        <time>2019-03-17T13:31:49Z</time>
      </trkpt>
      <trkpt lat="43.40129" lon="5.46009">
        <ele>564.91</ele>
        <time>2019-03-17T13:32:04Z</time>
      </trkpt>
      <trkpt lat="43.40127" lon="5.46011">
        <ele>563.47</ele>
        <time>2019-03-17T13:32:20Z</time>
      </trkpt>
      <trkpt lat="43.4013" lon="5.46009">
        <ele>563.47</ele>
        <time>2019-03-17T13:32:54Z</time>
      </trkpt>
      <trkpt lat="43.40131" lon="5.4601">
        <ele>563.95</ele>
        <time>2019-03-17T13:32:59Z</time>
      </trkpt>
      <trkpt lat="43.40133" lon="5.46005">
        <ele>564.91</ele>
        <time>2019-03-17T13:33:03Z</time>
      </trkpt>
      <trkpt lat="43.40131" lon="5.46001">
        <ele>564.91</ele>
        <time>2019-03-17T13:33:06Z</time>
      </trkpt>
      <trkpt lat="43.40116" lon="5.45997">
        <ele>562.99</ele>
        <time>2019-03-17T13:33:17Z</time>
      </trkpt>
      <trkpt lat="43.401" lon="5.45993">
        <ele>562.51</ele>
        <time>2019-03-17T13:33:29Z</time>
      </trkpt>
      <trkpt lat="43.40081" lon="5.45996">
        <ele>558.66</ele>
        <time>2019-03-17T13:33:42Z</time>
      </trkpt>
      <trkpt lat="43.40077" lon="5.45997">
        <ele>557.22</ele>
        <time>2019-03-17T13:33:45Z</time>
      </trkpt>
      <trkpt lat="43.40062" lon="5.46002">
        <ele>553.86</ele>
        <time>2019-03-17T13:33:58Z</time>
      </trkpt>
      <trkpt lat="43.40054" lon="5.46005">
        <ele>552.9</ele>
        <time>2019-03-17T13:34:06Z</time>
      </trkpt>
      <trkpt lat="43.40043" lon="5.46005">
        <ele>551.45</ele>
        <time>2019-03-17T13:34:19Z</time>
      </trkpt>
      <trkpt lat="43.40033" lon="5.45999">
        <ele>553.38</ele>
        <time>2019-03-17T13:34:34Z</time>
      </trkpt>
      <trkpt lat="43.40033" lon="5.45999">
        <ele>554.34</ele>
        <time>2019-03-17T13:34:41Z</time>
      </trkpt>
      <trkpt lat="43.4003" lon="5.46003">
        <ele>553.86</ele>
        <time>2019-03-17T13:34:53Z</time>
      </trkpt>
      <trkpt lat="43.40021" lon="5.46005">
        <ele>554.34</ele>
        <time>2019-03-17T13:35:06Z</time>
      </trkpt>
      <trkpt lat="43.40017" lon="5.46004">
        <ele>555.78</ele>
        <time>2019-03-17T13:35:12Z</time>
      </trkpt>
      <trkpt lat="43.40011" lon="5.46">
        <ele>557.7</ele>
        <time>2019-03-17T13:35:24Z</time>
      </trkpt>
      <trkpt lat="43.40005" lon="5.45991">
        <ele>559.14</ele>
        <time>2019-03-17T13:35:37Z</time>
      </trkpt>
      <trkpt lat="43.40005" lon="5.45988">
        <ele>559.62</ele>
        <time>2019-03-17T13:35:49Z</time>
      </trkpt>
      <trkpt lat="43.40003" lon="5.45982">
        <ele>560.59</ele>
        <time>2019-03-17T13:36:00Z</time>
      </trkpt>
      <trkpt lat="43.4" lon="5.45975">
        <ele>562.03</ele>
        <time>2019-03-17T13:36:14Z</time>
      </trkpt>
      <trkpt lat="43.39995" lon="5.45965">
        <ele>564.43</ele>
        <time>2019-03-17T13:36:26Z</time>
      </trkpt>
      <trkpt lat="43.39997" lon="5.45963">
        <ele>567.32</ele>
        <time>2019-03-17T13:36:37Z</time>
      </trkpt>
      <trkpt lat="43.39995" lon="5.45959">
        <ele>569.24</ele>
        <time>2019-03-17T13:36:59Z</time>
      </trkpt>
      <trkpt lat="43.39993" lon="5.45958">
        <ele>570.2</ele>
        <time>2019-03-17T13:37:12Z</time>
      </trkpt>
      <trkpt lat="43.3999" lon="5.45962">
        <ele>568.28</ele>
        <time>2019-03-17T13:37:29Z</time>
      </trkpt>
      <trkpt lat="43.39985" lon="5.45966">
        <ele>569.24</ele>
        <time>2019-03-17T13:37:46Z</time>
      </trkpt>
      <trkpt lat="43.39984" lon="5.45965">
        <ele>568.76</ele>
        <time>2019-03-17T13:37:49Z</time>
      </trkpt>
      <trkpt lat="43.3998" lon="5.45958">
        <ele>569.24</ele>
        <time>2019-03-17T13:38:01Z</time>
      </trkpt>
      <trkpt lat="43.39972" lon="5.45952">
        <ele>566.35</ele>
        <time>2019-03-17T13:38:15Z</time>
      </trkpt>
      <trkpt lat="43.39965" lon="5.45947">
        <ele>563.47</ele>
        <time>2019-03-17T13:38:28Z</time>
      </trkpt>
      <trkpt lat="43.39954" lon="5.45937">
        <ele>562.03</ele>
        <time>2019-03-17T13:38:43Z</time>
      </trkpt>
      <trkpt lat="43.39951" lon="5.45936">
        <ele>562.51</ele>
        <time>2019-03-17T13:38:48Z</time>
      </trkpt>
      <trkpt lat="43.39946" lon="5.45927">
        <ele>563.47</ele>
        <time>2019-03-17T13:39:00Z</time>
      </trkpt>
      <trkpt lat="43.39942" lon="5.45923">
        <ele>565.39</ele>
        <time>2019-03-17T13:39:14Z</time>
      </trkpt>
      <trkpt lat="43.39938" lon="5.45916">
        <ele>569.24</ele>
        <time>2019-03-17T13:39:26Z</time>
      </trkpt>
      <trkpt lat="43.39933" lon="5.45913">
        <ele>570.2</ele>
        <time>2019-03-17T13:39:41Z</time>
      </trkpt>
      <trkpt lat="43.39928" lon="5.4591">
        <ele>571.16</ele>
        <time>2019-03-17T13:39:55Z</time>
      </trkpt>
      <trkpt lat="43.39922" lon="5.45909">
        <ele>572.12</ele>
        <time>2019-03-17T13:40:08Z</time>
      </trkpt>
      <trkpt lat="43.39914" lon="5.45918">
        <ele>574.04</ele>
        <time>2019-03-17T13:40:23Z</time>
      </trkpt>
      <trkpt lat="43.39914" lon="5.45914">
        <ele>575.49</ele>
        <time>2019-03-17T13:40:46Z</time>
      </trkpt>
      <trkpt lat="43.3991" lon="5.45908">
        <ele>575.01</ele>
        <time>2019-03-17T13:41:09Z</time>
      </trkpt>
      <trkpt lat="43.3991" lon="5.4591">
        <ele>573.08</ele>
        <time>2019-03-17T13:41:27Z</time>
      </trkpt>
      <trkpt lat="43.39912" lon="5.45915">
        <ele>573.56</ele>
        <time>2019-03-17T13:41:51Z</time>
      </trkpt>
      <trkpt lat="43.39912" lon="5.45914">
        <ele>572.6</ele>
        <time>2019-03-17T13:42:10Z</time>
      </trkpt>
      <trkpt lat="43.39911" lon="5.45916">
        <ele>575.01</ele>
        <time>2019-03-17T13:42:25Z</time>
      </trkpt>
      <trkpt lat="43.39912" lon="5.45915">
        <ele>576.45</ele>
        <time>2019-03-17T13:42:39Z</time>
      </trkpt>
      <trkpt lat="43.39912" lon="5.45914">
        <ele>576.45</ele>
        <time>2019-03-17T13:42:53Z</time>
      </trkpt>
      <trkpt lat="43.39911" lon="5.45918">
        <ele>575.97</ele>
        <time>2019-03-17T13:43:08Z</time>
      </trkpt>
      <trkpt lat="43.39907" lon="5.45918">
        <ele>575.49</ele>
        <time>2019-03-17T13:43:22Z</time>
      </trkpt>
      <trkpt lat="43.39899" lon="5.45914">
        <ele>571.64</ele>
        <time>2019-03-17T13:43:36Z</time>
      </trkpt>
      <trkpt lat="43.39893" lon="5.45907">
        <ele>573.08</ele>
        <time>2019-03-17T13:43:47Z</time>
      </trkpt>
      <trkpt lat="43.3988" lon="5.45896">
        <ele>573.08</ele>
        <time>2019-03-17T13:44:01Z</time>
      </trkpt>
      <trkpt lat="43.3987" lon="5.45889">
        <ele>574.04</ele>
        <time>2019-03-17T13:44:12Z</time>
      </trkpt>
      <trkpt lat="43.39862" lon="5.45885">
        <ele>572.6</ele>
        <time>2019-03-17T13:44:24Z</time>
      </trkpt>
      <trkpt lat="43.39854" lon="5.45875">
        <ele>575.49</ele>
        <time>2019-03-17T13:44:37Z</time>
      </trkpt>
      <trkpt lat="43.39849" lon="5.45867">
        <ele>576.93</ele>
        <time>2019-03-17T13:44:48Z</time>
      </trkpt>
      <trkpt lat="43.39846" lon="5.45868">
        <ele>580.29</ele>
        <time>2019-03-17T13:45:01Z</time>
      </trkpt>
      <trkpt lat="43.39842" lon="5.45861">
        <ele>584.14</ele>
        <time>2019-03-17T13:45:13Z</time>
      </trkpt>
      <trkpt lat="43.3984" lon="5.45855">
        <ele>585.58</ele>
        <time>2019-03-17T13:45:26Z</time>
      </trkpt>
      <trkpt lat="43.39838" lon="5.45852">
        <ele>587.02</ele>
        <time>2019-03-17T13:45:36Z</time>
      </trkpt>
      <trkpt lat="43.39838" lon="5.4584">
        <ele>587.5</ele>
        <time>2019-03-17T13:45:48Z</time>
      </trkpt>
      <trkpt lat="43.39833" lon="5.45835">
        <ele>587.98</ele>
        <time>2019-03-17T13:45:58Z</time>
      </trkpt>
      <trkpt lat="43.39831" lon="5.45826">
        <ele>587.02</ele>
        <time>2019-03-17T13:46:12Z</time>
      </trkpt>
      <trkpt lat="43.39826" lon="5.45816">
        <ele>584.62</ele>
        <time>2019-03-17T13:46:25Z</time>
      </trkpt>
      <trkpt lat="43.39822" lon="5.45809">
        <ele>581.73</ele>
        <time>2019-03-17T13:46:39Z</time>
      </trkpt>
      <trkpt lat="43.39818" lon="5.45799">
        <ele>581.25</ele>
        <time>2019-03-17T13:46:50Z</time>
      </trkpt>
      <trkpt lat="43.39815" lon="5.45796">
        <ele>580.77</ele>
        <time>2019-03-17T13:46:54Z</time>
      </trkpt>
      <trkpt lat="43.39812" lon="5.4579">
        <ele>581.25</ele>
        <time>2019-03-17T13:47:08Z</time>
      </trkpt>
      <trkpt lat="43.39807" lon="5.45782">
        <ele>582.22</ele>
        <time>2019-03-17T13:47:21Z</time>
      </trkpt>
      <trkpt lat="43.39803" lon="5.45773">
        <ele>583.66</ele>
        <time>2019-03-17T13:47:36Z</time>
      </trkpt>
      <trkpt lat="43.39803" lon="5.45764">
        <ele>583.66</ele>
        <time>2019-03-17T13:47:48Z</time>
      </trkpt>
      <trkpt lat="43.39806" lon="5.4575">
        <ele>581.73</ele>
        <time>2019-03-17T13:48:02Z</time>
      </trkpt>
      <trkpt lat="43.39805" lon="5.45737">
        <ele>584.14</ele>
        <time>2019-03-17T13:48:17Z</time>
      </trkpt>
      <trkpt lat="43.398" lon="5.45726">
        <ele>584.62</ele>
        <time>2019-03-17T13:48:31Z</time>
      </trkpt>
      <trkpt lat="43.39798" lon="5.45726">
        <ele>585.1</ele>
        <time>2019-03-17T13:48:54Z</time>
      </trkpt>
      <trkpt lat="43.39791" lon="5.45719">
        <ele>586.06</ele>
        <time>2019-03-17T13:49:08Z</time>
      </trkpt>
      <trkpt lat="43.39791" lon="5.45714">
        <ele>585.58</ele>
        <time>2019-03-17T13:49:16Z</time>
      </trkpt>
      <trkpt lat="43.39788" lon="5.45706">
        <ele>585.1</ele>
        <time>2019-03-17T13:49:33Z</time>
      </trkpt>
      <trkpt lat="43.39781" lon="5.45695">
        <ele>583.18</ele>
        <time>2019-03-17T13:49:47Z</time>
      </trkpt>
      <trkpt lat="43.3978" lon="5.45693">
        <ele>583.66</ele>
        <time>2019-03-17T13:50:05Z</time>
      </trkpt>
      <trkpt lat="43.39782" lon="5.45698">
        <ele>582.7</ele>
        <time>2019-03-17T13:50:27Z</time>
      </trkpt>
      <trkpt lat="43.39784" lon="5.45686">
        <ele>582.7</ele>
        <time>2019-03-17T13:50:42Z</time>
      </trkpt>
      <trkpt lat="43.39787" lon="5.45679">
        <ele>582.7</ele>
        <time>2019-03-17T13:50:54Z</time>
      </trkpt>
      <trkpt lat="43.39788" lon="5.45677">
        <ele>582.7</ele>
        <time>2019-03-17T13:50:56Z</time>
      </trkpt>
      <trkpt lat="43.3979" lon="5.4567">
        <ele>582.22</ele>
        <time>2019-03-17T13:51:01Z</time>
      </trkpt>
      <trkpt lat="43.3979" lon="5.45658">
        <ele>582.7</ele>
        <time>2019-03-17T13:51:09Z</time>
      </trkpt>
      <trkpt lat="43.39787" lon="5.45644">
        <ele>585.1</ele>
        <time>2019-03-17T13:51:20Z</time>
      </trkpt>
      <trkpt lat="43.39786" lon="5.45644">
        <ele>585.1</ele>
        <time>2019-03-17T13:51:21Z</time>
      </trkpt>
      <trkpt lat="43.39779" lon="5.45646">
        <ele>587.5</ele>
        <time>2019-03-17T13:51:32Z</time>
      </trkpt>
      <trkpt lat="43.39779" lon="5.45643">
        <ele>587.02</ele>
        <time>2019-03-17T13:51:51Z</time>
      </trkpt>
      <trkpt lat="43.39778" lon="5.45643">
        <ele>588.95</ele>
        <time>2019-03-17T13:52:17Z</time>
      </trkpt>
      <trkpt lat="43.39778" lon="5.45642">
        <ele>588.95</ele>
        <time>2019-03-17T13:52:43Z</time>
      </trkpt>
      <trkpt lat="43.39776" lon="5.45635">
        <ele>586.06</ele>
        <time>2019-03-17T13:53:13Z</time>
      </trkpt>
      <trkpt lat="43.39778" lon="5.45632">
        <ele>586.54</ele>
        <time>2019-03-17T13:53:17Z</time>
      </trkpt>
      <trkpt lat="43.39779" lon="5.45623">
        <ele>587.5</ele>
        <time>2019-03-17T13:53:30Z</time>
      </trkpt>
      <trkpt lat="43.39781" lon="5.45616">
        <ele>590.39</ele>
        <time>2019-03-17T13:53:44Z</time>
      </trkpt>
      <trkpt lat="43.3978" lon="5.45613">
        <ele>590.87</ele>
        <time>2019-03-17T13:53:59Z</time>
      </trkpt>
      <trkpt lat="43.39779" lon="5.45613">
        <ele>592.31</ele>
        <time>2019-03-17T13:54:24Z</time>
      </trkpt>
      <trkpt lat="43.39777" lon="5.45606">
        <ele>593.75</ele>
        <time>2019-03-17T13:54:35Z</time>
      </trkpt>
      <trkpt lat="43.39776" lon="5.45596">
        <ele>595.67</ele>
        <time>2019-03-17T13:54:47Z</time>
      </trkpt>
      <trkpt lat="43.39776" lon="5.45595">
        <ele>595.67</ele>
        <time>2019-03-17T13:54:48Z</time>
      </trkpt>
      <trkpt lat="43.39772" lon="5.45582">
        <ele>595.67</ele>
        <time>2019-03-17T13:55:01Z</time>
      </trkpt>
      <trkpt lat="43.39769" lon="5.4557">
        <ele>596.15</ele>
        <time>2019-03-17T13:55:16Z</time>
      </trkpt>
      <trkpt lat="43.39764" lon="5.45561">
        <ele>595.67</ele>
        <time>2019-03-17T13:55:29Z</time>
      </trkpt>
      <trkpt lat="43.39753" lon="5.45547">
        <ele>596.15</ele>
        <time>2019-03-17T13:55:46Z</time>
      </trkpt>
      <trkpt lat="43.39749" lon="5.45538">
        <ele>596.15</ele>
        <time>2019-03-17T13:55:57Z</time>
      </trkpt>
      <trkpt lat="43.39746" lon="5.45526">
        <ele>597.6</ele>
        <time>2019-03-17T13:56:11Z</time>
      </trkpt>
      <trkpt lat="43.39744" lon="5.45513">
        <ele>598.56</ele>
        <time>2019-03-17T13:56:25Z</time>
      </trkpt>
      <trkpt lat="43.3974" lon="5.45508">
        <ele>598.08</ele>
        <time>2019-03-17T13:56:40Z</time>
      </trkpt>
      <trkpt lat="43.39741" lon="5.45501">
        <ele>599.52</ele>
        <time>2019-03-17T13:56:53Z</time>
      </trkpt>
      <trkpt lat="43.39741" lon="5.45498">
        <ele>600</ele>
        <time>2019-03-17T13:57:11Z</time>
      </trkpt>
      <trkpt lat="43.39741" lon="5.45491">
        <ele>599.52</ele>
        <time>2019-03-17T13:57:27Z</time>
      </trkpt>
      <trkpt lat="43.3974" lon="5.45474">
        <ele>600</ele>
        <time>2019-03-17T13:57:44Z</time>
      </trkpt>
      <trkpt lat="43.39741" lon="5.4546">
        <ele>602.88</ele>
        <time>2019-03-17T13:57:58Z</time>
      </trkpt>
      <trkpt lat="43.39742" lon="5.45444">
        <ele>604.33</ele>
        <time>2019-03-17T13:58:16Z</time>
      </trkpt>
      <trkpt lat="43.39743" lon="5.45441">
        <ele>605.29</ele>
        <time>2019-03-17T13:58:38Z</time>
      </trkpt>
      <trkpt lat="43.39744" lon="5.4544">
        <ele>604.33</ele>
        <time>2019-03-17T13:59:01Z</time>
      </trkpt>
      <trkpt lat="43.39743" lon="5.45429">
        <ele>604.81</ele>
        <time>2019-03-17T13:59:19Z</time>
      </trkpt>
      <trkpt lat="43.39741" lon="5.45413">
        <ele>605.77</ele>
        <time>2019-03-17T13:59:37Z</time>
      </trkpt>
      <trkpt lat="43.39743" lon="5.45391">
        <ele>607.69</ele>
        <time>2019-03-17T13:59:56Z</time>
      </trkpt>
      <trkpt lat="43.39748" lon="5.45374">
        <ele>607.21</ele>
        <time>2019-03-17T14:00:13Z</time>
      </trkpt>
      <trkpt lat="43.39753" lon="5.45366">
        <ele>606.73</ele>
        <time>2019-03-17T14:00:27Z</time>
      </trkpt>
      <trkpt lat="43.39754" lon="5.45359">
        <ele>606.25</ele>
        <time>2019-03-17T14:00:41Z</time>
      </trkpt>
      <trkpt lat="43.39754" lon="5.45354">
        <ele>606.25</ele>
        <time>2019-03-17T14:01:01Z</time>
      </trkpt>
      <trkpt lat="43.39758" lon="5.45336">
        <ele>605.29</ele>
        <time>2019-03-17T14:01:16Z</time>
      </trkpt>
      <trkpt lat="43.39756" lon="5.45315">
        <ele>604.81</ele>
        <time>2019-03-17T14:01:33Z</time>
      </trkpt>
      <trkpt lat="43.39752" lon="5.45305">
        <ele>604.81</ele>
        <time>2019-03-17T14:01:47Z</time>
      </trkpt>
      <trkpt lat="43.39752" lon="5.45297">
        <ele>604.33</ele>
        <time>2019-03-17T14:01:59Z</time>
      </trkpt>
      <trkpt lat="43.39747" lon="5.45283">
        <ele>603.36</ele>
        <time>2019-03-17T14:02:14Z</time>
      </trkpt>
      <trkpt lat="43.39745" lon="5.45269">
        <ele>602.88</ele>
        <time>2019-03-17T14:02:29Z</time>
      </trkpt>
      <trkpt lat="43.39743" lon="5.45254">
        <ele>602.88</ele>
        <time>2019-03-17T14:02:47Z</time>
      </trkpt>
      <trkpt lat="43.39743" lon="5.4525">
        <ele>601.92</ele>
        <time>2019-03-17T14:03:03Z</time>
      </trkpt>
      <trkpt lat="43.39742" lon="5.45249">
        <ele>600.96</ele>
        <time>2019-03-17T14:03:21Z</time>
      </trkpt>
      <trkpt lat="43.39742" lon="5.45248">
        <ele>601.44</ele>
        <time>2019-03-17T14:03:36Z</time>
      </trkpt>
      <trkpt lat="43.39744" lon="5.45242">
        <ele>600</ele>
        <time>2019-03-17T14:03:52Z</time>
      </trkpt>
      <trkpt lat="43.39746" lon="5.45242">
        <ele>599.04</ele>
        <time>2019-03-17T14:04:05Z</time>
      </trkpt>
      <trkpt lat="43.3975" lon="5.45236">
        <ele>596.64</ele>
        <time>2019-03-17T14:04:18Z</time>
      </trkpt>
      <trkpt lat="43.39752" lon="5.45235">
        <ele>594.23</ele>
        <time>2019-03-17T14:04:34Z</time>
      </trkpt>
      <trkpt lat="43.39754" lon="5.45231">
        <ele>593.27</ele>
        <time>2019-03-17T14:04:50Z</time>
      </trkpt>
      <trkpt lat="43.39758" lon="5.45229">
        <ele>591.83</ele>
        <time>2019-03-17T14:05:05Z</time>
      </trkpt>
      <trkpt lat="43.3976" lon="5.45221">
        <ele>590.87</ele>
        <time>2019-03-17T14:05:19Z</time>
      </trkpt>
      <trkpt lat="43.39761" lon="5.45219">
        <ele>590.39</ele>
        <time>2019-03-17T14:05:20Z</time>
      </trkpt>
      <trkpt lat="43.39761" lon="5.45208">
        <ele>587.98</ele>
        <time>2019-03-17T14:05:28Z</time>
      </trkpt>
      <trkpt lat="43.39762" lon="5.45193">
        <ele>585.1</ele>
        <time>2019-03-17T14:05:38Z</time>
      </trkpt>
      <trkpt lat="43.39763" lon="5.45187">
        <ele>584.14</ele>
        <time>2019-03-17T14:05:42Z</time>
      </trkpt>
      <trkpt lat="43.39767" lon="5.45175">
        <ele>582.7</ele>
        <time>2019-03-17T14:05:50Z</time>
      </trkpt>
      <trkpt lat="43.39767" lon="5.45168">
        <ele>581.25</ele>
        <time>2019-03-17T14:05:54Z</time>
      </trkpt>
      <trkpt lat="43.39771" lon="5.45153">
        <ele>577.89</ele>
        <time>2019-03-17T14:06:08Z</time>
      </trkpt>
      <trkpt lat="43.39771" lon="5.45154">
        <ele>577.89</ele>
        <time>2019-03-17T14:06:28Z</time>
      </trkpt>
      <trkpt lat="43.39772" lon="5.45153">
        <ele>579.81</ele>
        <time>2019-03-17T14:06:59Z</time>
      </trkpt>
      <trkpt lat="43.39771" lon="5.45157">
        <ele>580.77</ele>
        <time>2019-03-17T14:07:28Z</time>
      </trkpt>
      <trkpt lat="43.39776" lon="5.45147">
        <ele>581.73</ele>
        <time>2019-03-17T14:07:42Z</time>
      </trkpt>
      <trkpt lat="43.39777" lon="5.45127">
        <ele>578.37</ele>
        <time>2019-03-17T14:08:03Z</time>
      </trkpt>
      <trkpt lat="43.39775" lon="5.45105">
        <ele>575.01</ele>
        <time>2019-03-17T14:08:24Z</time>
      </trkpt>
      <trkpt lat="43.39773" lon="5.45084">
        <ele>572.6</ele>
        <time>2019-03-17T14:08:43Z</time>
      </trkpt>
      <trkpt lat="43.39775" lon="5.45075">
        <ele>571.64</ele>
        <time>2019-03-17T14:09:00Z</time>
      </trkpt>
      <trkpt lat="43.39775" lon="5.45073">
        <ele>571.64</ele>
        <time>2019-03-17T14:09:02Z</time>
      </trkpt>
      <trkpt lat="43.39773" lon="5.45047">
        <ele>571.16</ele>
        <time>2019-03-17T14:09:21Z</time>
      </trkpt>
      <trkpt lat="43.39767" lon="5.45029">
        <ele>570.68</ele>
        <time>2019-03-17T14:09:37Z</time>
      </trkpt>
      <trkpt lat="43.39764" lon="5.45004">
        <ele>572.12</ele>
        <time>2019-03-17T14:09:58Z</time>
      </trkpt>
      <trkpt lat="43.39758" lon="5.44984">
        <ele>575.49</ele>
        <time>2019-03-17T14:10:18Z</time>
      </trkpt>
      <trkpt lat="43.39757" lon="5.44969">
        <ele>578.37</ele>
        <time>2019-03-17T14:10:35Z</time>
      </trkpt>
      <trkpt lat="43.39758" lon="5.44958">
        <ele>580.29</ele>
        <time>2019-03-17T14:10:54Z</time>
      </trkpt>
      <trkpt lat="43.39755" lon="5.44958">
        <ele>580.77</ele>
        <time>2019-03-17T14:11:23Z</time>
      </trkpt>
      <trkpt lat="43.39755" lon="5.44945">
        <ele>581.25</ele>
        <time>2019-03-17T14:11:37Z</time>
      </trkpt>
      <trkpt lat="43.39755" lon="5.44935">
        <ele>581.73</ele>
        <time>2019-03-17T14:11:50Z</time>
      </trkpt>
      <trkpt lat="43.39755" lon="5.44927">
        <ele>582.7</ele>
        <time>2019-03-17T14:12:10Z</time>
      </trkpt>
      <trkpt lat="43.39755" lon="5.44925">
        <ele>582.7</ele>
        <time>2019-03-17T14:12:12Z</time>
      </trkpt>
      <trkpt lat="43.39757" lon="5.44902">
        <ele>583.18</ele>
        <time>2019-03-17T14:12:30Z</time>
      </trkpt>
      <trkpt lat="43.39762" lon="5.44885">
        <ele>582.7</ele>
        <time>2019-03-17T14:12:48Z</time>
      </trkpt>
      <trkpt lat="43.3976" lon="5.44882">
        <ele>581.73</ele>
        <time>2019-03-17T14:13:08Z</time>
      </trkpt>
      <trkpt lat="43.39762" lon="5.44876">
        <ele>581.25</ele>
        <time>2019-03-17T14:13:21Z</time>
      </trkpt>
      <trkpt lat="43.39764" lon="5.4487">
        <ele>581.25</ele>
        <time>2019-03-17T14:13:37Z</time>
      </trkpt>
      <trkpt lat="43.39773" lon="5.4485">
        <ele>581.73</ele>
        <time>2019-03-17T14:13:56Z</time>
      </trkpt>
      <trkpt lat="43.39776" lon="5.44832">
        <ele>580.77</ele>
        <time>2019-03-17T14:14:13Z</time>
      </trkpt>
      <trkpt lat="43.39783" lon="5.44811">
        <ele>580.29</ele>
        <time>2019-03-17T14:14:32Z</time>
      </trkpt>
      <trkpt lat="43.39794" lon="5.4479">
        <ele>581.25</ele>
        <time>2019-03-17T14:14:52Z</time>
      </trkpt>
      <trkpt lat="43.39796" lon="5.44781">
        <ele>581.25</ele>
        <time>2019-03-17T14:14:59Z</time>
      </trkpt>
      <trkpt lat="43.398" lon="5.44757">
        <ele>578.37</ele>
        <time>2019-03-17T14:15:18Z</time>
      </trkpt>
      <trkpt lat="43.398" lon="5.44749">
        <ele>576.93</ele>
        <time>2019-03-17T14:15:24Z</time>
      </trkpt>
      <trkpt lat="43.398" lon="5.4473">
        <ele>576.93</ele>
        <time>2019-03-17T14:15:39Z</time>
      </trkpt>
      <trkpt lat="43.398" lon="5.44727">
        <ele>576.93</ele>
        <time>2019-03-17T14:15:41Z</time>
      </trkpt>
      <trkpt lat="43.398" lon="5.44723">
        <ele>577.41</ele>
        <time>2019-03-17T14:15:43Z</time>
      </trkpt>
      <trkpt lat="43.398" lon="5.44721">
        <ele>576.93</ele>
        <time>2019-03-17T14:15:45Z</time>
      </trkpt>
      <trkpt lat="43.39799" lon="5.4471">
        <ele>576.93</ele>
        <time>2019-03-17T14:15:57Z</time>
      </trkpt>
      <trkpt lat="43.39797" lon="5.44701">
        <ele>575.97</ele>
        <time>2019-03-17T14:16:06Z</time>
      </trkpt>
      <trkpt lat="43.39796" lon="5.44686">
        <ele>576.45</ele>
        <time>2019-03-17T14:16:17Z</time>
      </trkpt>
      <trkpt lat="43.39797" lon="5.44676">
        <ele>576.45</ele>
        <time>2019-03-17T14:16:28Z</time>
      </trkpt>
      <trkpt lat="43.39795" lon="5.44673">
        <ele>575.01</ele>
        <time>2019-03-17T14:16:42Z</time>
      </trkpt>
      <trkpt lat="43.39796" lon="5.44674">
        <ele>575.97</ele>
        <time>2019-03-17T14:17:00Z</time>
      </trkpt>
      <trkpt lat="43.39796" lon="5.44673">
        <ele>577.41</ele>
        <time>2019-03-17T14:17:16Z</time>
      </trkpt>
      <trkpt lat="43.39795" lon="5.44674">
        <ele>576.45</ele>
        <time>2019-03-17T14:17:40Z</time>
      </trkpt>
      <trkpt lat="43.39796" lon="5.44677">
        <ele>577.89</ele>
        <time>2019-03-17T14:18:13Z</time>
      </trkpt>
      <trkpt lat="43.39794" lon="5.44672">
        <ele>575.97</ele>
        <time>2019-03-17T14:18:29Z</time>
      </trkpt>
      <trkpt lat="43.39791" lon="5.44668">
        <ele>574.53</ele>
        <time>2019-03-17T14:18:33Z</time>
      </trkpt>
      <trkpt lat="43.39789" lon="5.44666">
        <ele>574.53</ele>
        <time>2019-03-17T14:18:35Z</time>
      </trkpt>
      <trkpt lat="43.39785" lon="5.44651">
        <ele>576.93</ele>
        <time>2019-03-17T14:18:47Z</time>
      </trkpt>
      <trkpt lat="43.39781" lon="5.44636">
        <ele>579.81</ele>
        <time>2019-03-17T14:19:01Z</time>
      </trkpt>
      <trkpt lat="43.3978" lon="5.44628">
        <ele>579.81</ele>
        <time>2019-03-17T14:19:09Z</time>
      </trkpt>
      <trkpt lat="43.39777" lon="5.4462">
        <ele>580.29</ele>
        <time>2019-03-17T14:19:20Z</time>
      </trkpt>
      <trkpt lat="43.39771" lon="5.44617">
        <ele>581.73</ele>
        <time>2019-03-17T14:19:34Z</time>
      </trkpt>
      <trkpt lat="43.39771" lon="5.4461">
        <ele>584.14</ele>
        <time>2019-03-17T14:19:46Z</time>
      </trkpt>
      <trkpt lat="43.39771" lon="5.44607">
        <ele>584.14</ele>
        <time>2019-03-17T14:20:02Z</time>
      </trkpt>
      <trkpt lat="43.39768" lon="5.44605">
        <ele>587.5</ele>
        <time>2019-03-17T14:20:12Z</time>
      </trkpt>
      <trkpt lat="43.39765" lon="5.44599">
        <ele>587.5</ele>
        <time>2019-03-17T14:20:24Z</time>
      </trkpt>
      <trkpt lat="43.39761" lon="5.44589">
        <ele>587.02</ele>
        <time>2019-03-17T14:20:40Z</time>
      </trkpt>
      <trkpt lat="43.3976" lon="5.44583">
        <ele>587.5</ele>
        <time>2019-03-17T14:20:54Z</time>
      </trkpt>
      <trkpt lat="43.39757" lon="5.4458">
        <ele>587.02</ele>
        <time>2019-03-17T14:21:18Z</time>
      </trkpt>
      <trkpt lat="43.39748" lon="5.44562">
        <ele>589.43</ele>
        <time>2019-03-17T14:21:36Z</time>
      </trkpt>
      <trkpt lat="43.39742" lon="5.44554">
        <ele>592.31</ele>
        <time>2019-03-17T14:21:51Z</time>
      </trkpt>
      <trkpt lat="43.39741" lon="5.4455">
        <ele>592.31</ele>
        <time>2019-03-17T14:22:07Z</time>
      </trkpt>
      <trkpt lat="43.3974" lon="5.44545">
        <ele>591.35</ele>
        <time>2019-03-17T14:22:21Z</time>
      </trkpt>
      <trkpt lat="43.39737" lon="5.44538">
        <ele>590.87</ele>
        <time>2019-03-17T14:22:40Z</time>
      </trkpt>
      <trkpt lat="43.39726" lon="5.44527">
        <ele>590.87</ele>
        <time>2019-03-17T14:22:55Z</time>
      </trkpt>
      <trkpt lat="43.39718" lon="5.4452">
        <ele>592.31</ele>
        <time>2019-03-17T14:23:11Z</time>
      </trkpt>
      <trkpt lat="43.39713" lon="5.44511">
        <ele>595.67</ele>
        <time>2019-03-17T14:23:26Z</time>
      </trkpt>
      <trkpt lat="43.39707" lon="5.44499">
        <ele>596.64</ele>
        <time>2019-03-17T14:23:43Z</time>
      </trkpt>
      <trkpt lat="43.39705" lon="5.44488">
        <ele>596.15</ele>
        <time>2019-03-17T14:23:57Z</time>
      </trkpt>
      <trkpt lat="43.39702" lon="5.44476">
        <ele>595.67</ele>
        <time>2019-03-17T14:24:14Z</time>
      </trkpt>
      <trkpt lat="43.39704" lon="5.44473">
        <ele>596.15</ele>
        <time>2019-03-17T14:24:34Z</time>
      </trkpt>
      <trkpt lat="43.397" lon="5.44469">
        <ele>596.15</ele>
        <time>2019-03-17T14:24:55Z</time>
      </trkpt>
      <trkpt lat="43.39695" lon="5.44456">
        <ele>595.19</ele>
        <time>2019-03-17T14:25:08Z</time>
      </trkpt>
      <trkpt lat="43.39695" lon="5.4445">
        <ele>594.23</ele>
        <time>2019-03-17T14:25:13Z</time>
      </trkpt>
      <trkpt lat="43.39689" lon="5.44434">
        <ele>591.35</ele>
        <time>2019-03-17T14:25:27Z</time>
      </trkpt>
      <trkpt lat="43.39685" lon="5.44418">
        <ele>590.39</ele>
        <time>2019-03-17T14:25:39Z</time>
      </trkpt>
      <trkpt lat="43.39684" lon="5.44412">
        <ele>589.91</ele>
        <time>2019-03-17T14:25:43Z</time>
      </trkpt>
      <trkpt lat="43.3968" lon="5.44401">
        <ele>588.95</ele>
        <time>2019-03-17T14:25:58Z</time>
      </trkpt>
      <trkpt lat="43.39681" lon="5.44392">
        <ele>588.46</ele>
        <time>2019-03-17T14:26:12Z</time>
      </trkpt>
      <trkpt lat="43.39679" lon="5.44384">
        <ele>586.54</ele>
        <time>2019-03-17T14:26:24Z</time>
      </trkpt>
      <trkpt lat="43.3968" lon="5.44383">
        <ele>586.54</ele>
        <time>2019-03-17T14:26:26Z</time>
      </trkpt>
      <trkpt lat="43.39676" lon="5.44373">
        <ele>585.1</ele>
        <time>2019-03-17T14:26:39Z</time>
      </trkpt>
      <trkpt lat="43.39677" lon="5.44372">
        <ele>584.62</ele>
        <time>2019-03-17T14:27:02Z</time>
      </trkpt>
      <trkpt lat="43.39676" lon="5.4437">
        <ele>584.14</ele>
        <time>2019-03-17T14:27:22Z</time>
      </trkpt>
      <trkpt lat="43.39677" lon="5.44358">
        <ele>583.18</ele>
        <time>2019-03-17T14:27:33Z</time>
      </trkpt>
      <trkpt lat="43.39676" lon="5.4435">
        <ele>581.73</ele>
        <time>2019-03-17T14:27:39Z</time>
      </trkpt>
      <trkpt lat="43.39674" lon="5.44347">
        <ele>581.73</ele>
        <time>2019-03-17T14:27:41Z</time>
      </trkpt>
      <trkpt lat="43.39671" lon="5.44334">
        <ele>581.25</ele>
        <time>2019-03-17T14:27:53Z</time>
      </trkpt>
      <trkpt lat="43.3967" lon="5.44332">
        <ele>581.25</ele>
        <time>2019-03-17T14:27:56Z</time>
      </trkpt>
      <trkpt lat="43.39665" lon="5.44322">
        <ele>581.73</ele>
        <time>2019-03-17T14:28:06Z</time>
      </trkpt>
      <trkpt lat="43.39664" lon="5.44317">
        <ele>581.73</ele>
        <time>2019-03-17T14:28:20Z</time>
      </trkpt>
      <trkpt lat="43.39662" lon="5.44314">
        <ele>583.18</ele>
        <time>2019-03-17T14:28:31Z</time>
      </trkpt>
      <trkpt lat="43.3966" lon="5.44306">
        <ele>585.58</ele>
        <time>2019-03-17T14:28:49Z</time>
      </trkpt>
      <trkpt lat="43.3966" lon="5.44295">
        <ele>584.62</ele>
        <time>2019-03-17T14:29:00Z</time>
      </trkpt>
      <trkpt lat="43.39659" lon="5.44286">
        <ele>583.66</ele>
        <time>2019-03-17T14:29:10Z</time>
      </trkpt>
      <trkpt lat="43.39658" lon="5.44276">
        <ele>582.7</ele>
        <time>2019-03-17T14:29:23Z</time>
      </trkpt>
      <trkpt lat="43.39652" lon="5.44263">
        <ele>580.77</ele>
        <time>2019-03-17T14:29:35Z</time>
      </trkpt>
      <trkpt lat="43.39652" lon="5.4426">
        <ele>580.77</ele>
        <time>2019-03-17T14:29:48Z</time>
      </trkpt>
      <trkpt lat="43.39652" lon="5.4426">
        <ele>580.77</ele>
        <time>2019-03-17T14:29:49Z</time>
      </trkpt>
      <trkpt lat="43.39651" lon="5.44252">
        <ele>580.77</ele>
        <time>2019-03-17T14:30:04Z</time>
      </trkpt>
      <trkpt lat="43.39648" lon="5.44242">
        <ele>579.81</ele>
        <time>2019-03-17T14:30:14Z</time>
      </trkpt>
      <trkpt lat="43.39648" lon="5.4423">
        <ele>579.33</ele>
        <time>2019-03-17T14:30:25Z</time>
      </trkpt>
      <trkpt lat="43.39647" lon="5.44225">
        <ele>578.37</ele>
        <time>2019-03-17T14:30:30Z</time>
      </trkpt>
      <trkpt lat="43.39647" lon="5.44212">
        <ele>577.89</ele>
        <time>2019-03-17T14:30:40Z</time>
      </trkpt>
      <trkpt lat="43.39647" lon="5.4421">
        <ele>577.89</ele>
        <time>2019-03-17T14:30:54Z</time>
      </trkpt>
      <trkpt lat="43.39643" lon="5.44203">
        <ele>578.85</ele>
        <time>2019-03-17T14:31:08Z</time>
      </trkpt>
      <trkpt lat="43.3964" lon="5.44187">
        <ele>578.37</ele>
        <time>2019-03-17T14:31:22Z</time>
      </trkpt>
      <trkpt lat="43.3964" lon="5.44183">
        <ele>578.85</ele>
        <time>2019-03-17T14:31:25Z</time>
      </trkpt>
      <trkpt lat="43.3964" lon="5.44182">
        <ele>578.85</ele>
        <time>2019-03-17T14:31:39Z</time>
      </trkpt>
      <trkpt lat="43.39637" lon="5.44173">
        <ele>578.37</ele>
        <time>2019-03-17T14:31:51Z</time>
      </trkpt>
      <trkpt lat="43.39636" lon="5.44165">
        <ele>577.89</ele>
        <time>2019-03-17T14:31:59Z</time>
      </trkpt>
      <trkpt lat="43.39637" lon="5.4415">
        <ele>580.29</ele>
        <time>2019-03-17T14:32:12Z</time>
      </trkpt>
      <trkpt lat="43.39634" lon="5.44136">
        <ele>581.73</ele>
        <time>2019-03-17T14:32:28Z</time>
      </trkpt>
      <trkpt lat="43.39629" lon="5.44126">
        <ele>582.7</ele>
        <time>2019-03-17T14:32:40Z</time>
      </trkpt>
      <trkpt lat="43.39624" lon="5.44116">
        <ele>583.18</ele>
        <time>2019-03-17T14:32:55Z</time>
      </trkpt>
      <trkpt lat="43.39625" lon="5.44112">
        <ele>584.14</ele>
        <time>2019-03-17T14:33:09Z</time>
      </trkpt>
      <trkpt lat="43.39622" lon="5.44108">
        <ele>583.66</ele>
        <time>2019-03-17T14:33:20Z</time>
      </trkpt>
      <trkpt lat="43.39622" lon="5.44106">
        <ele>586.54</ele>
        <time>2019-03-17T14:33:39Z</time>
      </trkpt>
      <trkpt lat="43.39621" lon="5.44101">
        <ele>587.98</ele>
        <time>2019-03-17T14:33:58Z</time>
      </trkpt>
      <trkpt lat="43.3962" lon="5.44101">
        <ele>589.43</ele>
        <time>2019-03-17T14:34:09Z</time>
      </trkpt>
      <trkpt lat="43.3962" lon="5.44093">
        <ele>590.39</ele>
        <time>2019-03-17T14:34:30Z</time>
      </trkpt>
      <trkpt lat="43.39619" lon="5.44086">
        <ele>590.39</ele>
        <time>2019-03-17T14:34:40Z</time>
      </trkpt>
      <trkpt lat="43.39617" lon="5.44079">
        <ele>591.83</ele>
        <time>2019-03-17T14:34:52Z</time>
      </trkpt>
      <trkpt lat="43.39615" lon="5.44077">
        <ele>593.75</ele>
        <time>2019-03-17T14:35:05Z</time>
      </trkpt>
      <trkpt lat="43.39613" lon="5.44075">
        <ele>594.71</ele>
        <time>2019-03-17T14:35:21Z</time>
      </trkpt>
      <trkpt lat="43.39612" lon="5.44073">
        <ele>595.19</ele>
        <time>2019-03-17T14:35:25Z</time>
      </trkpt>
      <trkpt lat="43.39611" lon="5.44066">
        <ele>595.67</ele>
        <time>2019-03-17T14:35:36Z</time>
      </trkpt>
      <trkpt lat="43.39612" lon="5.44057">
        <ele>596.64</ele>
        <time>2019-03-17T14:35:49Z</time>
      </trkpt>
      <trkpt lat="43.39611" lon="5.44049">
        <ele>597.6</ele>
        <time>2019-03-17T14:36:02Z</time>
      </trkpt>
      <trkpt lat="43.39613" lon="5.44043">
        <ele>599.04</ele>
        <time>2019-03-17T14:36:13Z</time>
      </trkpt>
      <trkpt lat="43.39609" lon="5.44037">
        <ele>601.44</ele>
        <time>2019-03-17T14:36:26Z</time>
      </trkpt>
      <trkpt lat="43.39605" lon="5.44031">
        <ele>602.88</ele>
        <time>2019-03-17T14:36:38Z</time>
      </trkpt>
      <trkpt lat="43.39604" lon="5.44022">
        <ele>605.77</ele>
        <time>2019-03-17T14:36:53Z</time>
      </trkpt>
      <trkpt lat="43.39601" lon="5.44011">
        <ele>607.21</ele>
        <time>2019-03-17T14:37:08Z</time>
      </trkpt>
      <trkpt lat="43.39598" lon="5.44001">
        <ele>607.69</ele>
        <time>2019-03-17T14:37:22Z</time>
      </trkpt>
      <trkpt lat="43.396" lon="5.43988">
        <ele>611.06</ele>
        <time>2019-03-17T14:37:39Z</time>
      </trkpt>
      <trkpt lat="43.39602" lon="5.43977">
        <ele>614.42</ele>
        <time>2019-03-17T14:37:54Z</time>
      </trkpt>
      <trkpt lat="43.39598" lon="5.43966">
        <ele>616.34</ele>
        <time>2019-03-17T14:38:12Z</time>
      </trkpt>
      <trkpt lat="43.39597" lon="5.43956">
        <ele>617.78</ele>
        <time>2019-03-17T14:38:27Z</time>
      </trkpt>
      <trkpt lat="43.39596" lon="5.43947">
        <ele>619.23</ele>
        <time>2019-03-17T14:38:41Z</time>
      </trkpt>
      <trkpt lat="43.39591" lon="5.43935">
        <ele>621.63</ele>
        <time>2019-03-17T14:38:54Z</time>
      </trkpt>
      <trkpt lat="43.39587" lon="5.43923">
        <ele>623.55</ele>
        <time>2019-03-17T14:39:08Z</time>
      </trkpt>
      <trkpt lat="43.39591" lon="5.43916">
        <ele>625.47</ele>
        <time>2019-03-17T14:39:21Z</time>
      </trkpt>
      <trkpt lat="43.3959" lon="5.43915">
        <ele>626.44</ele>
        <time>2019-03-17T14:39:45Z</time>
      </trkpt>
      <trkpt lat="43.3959" lon="5.43918">
        <ele>625.47</ele>
        <time>2019-03-17T14:40:01Z</time>
      </trkpt>
      <trkpt lat="43.3959" lon="5.43917">
        <ele>624.03</ele>
        <time>2019-03-17T14:40:28Z</time>
      </trkpt>
      <trkpt lat="43.3959" lon="5.43918">
        <ele>626.92</ele>
        <time>2019-03-17T14:40:57Z</time>
      </trkpt>
      <trkpt lat="43.39589" lon="5.43919">
        <ele>624.51</ele>
        <time>2019-03-17T14:41:33Z</time>
      </trkpt>
      <trkpt lat="43.39589" lon="5.43918">
        <ele>624.03</ele>
        <time>2019-03-17T14:41:53Z</time>
      </trkpt>
      <trkpt lat="43.39589" lon="5.4392">
        <ele>624.03</ele>
        <time>2019-03-17T14:42:11Z</time>
      </trkpt>
      <trkpt lat="43.3959" lon="5.43922">
        <ele>624.51</ele>
        <time>2019-03-17T14:42:41Z</time>
      </trkpt>
      <trkpt lat="43.39584" lon="5.43919">
        <ele>623.07</ele>
        <time>2019-03-17T14:42:56Z</time>
      </trkpt>
      <trkpt lat="43.39588" lon="5.43919">
        <ele>623.55</ele>
        <time>2019-03-17T14:43:11Z</time>
      </trkpt>
      <trkpt lat="43.3959" lon="5.43919">
        <ele>624.51</ele>
        <time>2019-03-17T14:43:30Z</time>
      </trkpt>
      <trkpt lat="43.3959" lon="5.43917">
        <ele>624.99</ele>
        <time>2019-03-17T14:43:46Z</time>
      </trkpt>
      <trkpt lat="43.39589" lon="5.43916">
        <ele>624.03</ele>
        <time>2019-03-17T14:44:01Z</time>
      </trkpt>
      <trkpt lat="43.39591" lon="5.43916">
        <ele>625.47</ele>
        <time>2019-03-17T14:44:24Z</time>
      </trkpt>
      <trkpt lat="43.3959" lon="5.43915">
        <ele>624.99</ele>
        <time>2019-03-17T14:44:36Z</time>
      </trkpt>
      <trkpt lat="43.3959" lon="5.43916">
        <ele>624.51</ele>
        <time>2019-03-17T14:44:54Z</time>
      </trkpt>
      <trkpt lat="43.39588" lon="5.43915">
        <ele>624.51</ele>
        <time>2019-03-17T14:45:27Z</time>
      </trkpt>
      <trkpt lat="43.39589" lon="5.43916">
        <ele>623.55</ele>
        <time>2019-03-17T14:46:15Z</time>
      </trkpt>
      <trkpt lat="43.39589" lon="5.43916">
        <ele>624.03</ele>
        <time>2019-03-17T14:46:55Z</time>
      </trkpt>
      <trkpt lat="43.39589" lon="5.43916">
        <ele>624.03</ele>
        <time>2019-03-17T14:47:34Z</time>
      </trkpt>
      <trkpt lat="43.39589" lon="5.43916">
        <ele>624.03</ele>
        <time>2019-03-17T14:48:14Z</time>
      </trkpt>
      <trkpt lat="43.39588" lon="5.43915">
        <ele>624.51</ele>
        <time>2019-03-17T14:49:05Z</time>
      </trkpt>
      <trkpt lat="43.39589" lon="5.43916">
        <ele>624.51</ele>
        <time>2019-03-17T14:49:44Z</time>
      </trkpt>
      <trkpt lat="43.39589" lon="5.43916">
        <ele>624.03</ele>
        <time>2019-03-17T14:50:23Z</time>
      </trkpt>
      <trkpt lat="43.39589" lon="5.43916">
        <ele>624.51</ele>
        <time>2019-03-17T14:50:59Z</time>
      </trkpt>
      <trkpt lat="43.39589" lon="5.43915">
        <ele>624.51</ele>
        <time>2019-03-17T14:51:32Z</time>
      </trkpt>
      <trkpt lat="43.39587" lon="5.43915">
        <ele>622.11</ele>
        <time>2019-03-17T14:52:10Z</time>
      </trkpt>
      <trkpt lat="43.39587" lon="5.43915">
        <ele>622.59</ele>
        <time>2019-03-17T14:52:46Z</time>
      </trkpt>
      <trkpt lat="43.39587" lon="5.43915">
        <ele>622.59</ele>
        <time>2019-03-17T14:53:20Z</time>
      </trkpt>
      <trkpt lat="43.39587" lon="5.43915">
        <ele>622.59</ele>
        <time>2019-03-17T14:54:03Z</time>
      </trkpt>
      <trkpt lat="43.39587" lon="5.43915">
        <ele>622.11</ele>
        <time>2019-03-17T14:54:34Z</time>
      </trkpt>
      <trkpt lat="43.39587" lon="5.43915">
        <ele>622.59</ele>
        <time>2019-03-17T14:55:09Z</time>
      </trkpt>
      <trkpt lat="43.39587" lon="5.43915">
        <ele>622.59</ele>
        <time>2019-03-17T14:55:41Z</time>
      </trkpt>
      <trkpt lat="43.39587" lon="5.43915">
        <ele>623.07</ele>
        <time>2019-03-17T14:56:11Z</time>
      </trkpt>
      <trkpt lat="43.39587" lon="5.43915">
        <ele>622.11</ele>
        <time>2019-03-17T14:56:47Z</time>
      </trkpt>
      <trkpt lat="43.39587" lon="5.43915">
        <ele>621.63</ele>
        <time>2019-03-17T14:57:20Z</time>
      </trkpt>
      <trkpt lat="43.39589" lon="5.43915">
        <ele>621.15</ele>
        <time>2019-03-17T14:57:54Z</time>
      </trkpt>
      <trkpt lat="43.39588" lon="5.43915">
        <ele>622.11</ele>
        <time>2019-03-17T14:58:29Z</time>
      </trkpt>
      <trkpt lat="43.39589" lon="5.43916">
        <ele>622.59</ele>
        <time>2019-03-17T14:58:52Z</time>
      </trkpt>
      <trkpt lat="43.39588" lon="5.43914">
        <ele>623.07</ele>
        <time>2019-03-17T14:59:23Z</time>
      </trkpt>
      <trkpt lat="43.39585" lon="5.43914">
        <ele>623.55</ele>
        <time>2019-03-17T14:59:43Z</time>
      </trkpt>
      <trkpt lat="43.39586" lon="5.43915">
        <ele>624.03</ele>
        <time>2019-03-17T14:59:59Z</time>
      </trkpt>
      <trkpt lat="43.39587" lon="5.43915">
        <ele>623.07</ele>
        <time>2019-03-17T15:00:16Z</time>
      </trkpt>
      <trkpt lat="43.39588" lon="5.43914">
        <ele>625.47</ele>
        <time>2019-03-17T15:00:36Z</time>
      </trkpt>
      <trkpt lat="43.39588" lon="5.43913">
        <ele>626.92</ele>
        <time>2019-03-17T15:00:55Z</time>
      </trkpt>
      <trkpt lat="43.39586" lon="5.43913">
        <ele>624.03</ele>
        <time>2019-03-17T15:01:12Z</time>
      </trkpt>
      <trkpt lat="43.39589" lon="5.43916">
        <ele>624.03</ele>
        <time>2019-03-17T15:01:36Z</time>
      </trkpt>
      <trkpt lat="43.39585" lon="5.43917">
        <ele>624.51</ele>
        <time>2019-03-17T15:01:55Z</time>
      </trkpt>
      <trkpt lat="43.39585" lon="5.43919">
        <ele>624.03</ele>
        <time>2019-03-17T15:02:19Z</time>
      </trkpt>
      <trkpt lat="43.39584" lon="5.4392">
        <ele>624.03</ele>
        <time>2019-03-17T15:02:32Z</time>
      </trkpt>
      <trkpt lat="43.39583" lon="5.43917">
        <ele>623.55</ele>
        <time>2019-03-17T15:02:49Z</time>
      </trkpt>
      <trkpt lat="43.3958" lon="5.43916">
        <ele>622.59</ele>
        <time>2019-03-17T15:03:07Z</time>
      </trkpt>
      <trkpt lat="43.39571" lon="5.43909">
        <ele>622.11</ele>
        <time>2019-03-17T15:03:20Z</time>
      </trkpt>
      <trkpt lat="43.39569" lon="5.43907">
        <ele>621.15</ele>
        <time>2019-03-17T15:03:28Z</time>
      </trkpt>
      <trkpt lat="43.39564" lon="5.43901">
        <ele>618.26</ele>
        <time>2019-03-17T15:03:37Z</time>
      </trkpt>
      <trkpt lat="43.39556" lon="5.43885">
        <ele>614.42</ele>
        <time>2019-03-17T15:03:53Z</time>
      </trkpt>
      <trkpt lat="43.3955" lon="5.43877">
        <ele>614.9</ele>
        <time>2019-03-17T15:04:07Z</time>
      </trkpt>
      <trkpt lat="43.39539" lon="5.43867">
        <ele>615.38</ele>
        <time>2019-03-17T15:04:22Z</time>
      </trkpt>
      <trkpt lat="43.39529" lon="5.43858">
        <ele>614.9</ele>
        <time>2019-03-17T15:04:33Z</time>
      </trkpt>
      <trkpt lat="43.3952" lon="5.43844">
        <ele>614.42</ele>
        <time>2019-03-17T15:04:47Z</time>
      </trkpt>
      <trkpt lat="43.3951" lon="5.43836">
        <ele>611.54</ele>
        <time>2019-03-17T15:05:00Z</time>
      </trkpt>
      <trkpt lat="43.39501" lon="5.4383">
        <ele>609.61</ele>
        <time>2019-03-17T15:05:13Z</time>
      </trkpt>
      <trkpt lat="43.39495" lon="5.43825">
        <ele>607.21</ele>
        <time>2019-03-17T15:05:21Z</time>
      </trkpt>
      <trkpt lat="43.39487" lon="5.43817">
        <ele>605.29</ele>
        <time>2019-03-17T15:05:35Z</time>
      </trkpt>
      <trkpt lat="43.39481" lon="5.43816">
        <ele>604.33</ele>
        <time>2019-03-17T15:05:47Z</time>
      </trkpt>
      <trkpt lat="43.39478" lon="5.43814">
        <ele>601.92</ele>
        <time>2019-03-17T15:05:59Z</time>
      </trkpt>
      <trkpt lat="43.39468" lon="5.4381">
        <ele>599.52</ele>
        <time>2019-03-17T15:06:15Z</time>
      </trkpt>
      <trkpt lat="43.39458" lon="5.43805">
        <ele>596.64</ele>
        <time>2019-03-17T15:06:29Z</time>
      </trkpt>
      <trkpt lat="43.39452" lon="5.438">
        <ele>595.67</ele>
        <time>2019-03-17T15:06:41Z</time>
      </trkpt>
      <trkpt lat="43.39442" lon="5.43795">
        <ele>594.23</ele>
        <time>2019-03-17T15:06:56Z</time>
      </trkpt>
      <trkpt lat="43.39434" lon="5.4379">
        <ele>591.83</ele>
        <time>2019-03-17T15:07:09Z</time>
      </trkpt>
      <trkpt lat="43.39427" lon="5.43789">
        <ele>587.5</ele>
        <time>2019-03-17T15:07:22Z</time>
      </trkpt>
      <trkpt lat="43.39418" lon="5.43786">
        <ele>584.62</ele>
        <time>2019-03-17T15:07:36Z</time>
      </trkpt>
      <trkpt lat="43.39409" lon="5.43788">
        <ele>582.7</ele>
        <time>2019-03-17T15:07:51Z</time>
      </trkpt>
      <trkpt lat="43.39405" lon="5.43786">
        <ele>582.7</ele>
        <time>2019-03-17T15:07:57Z</time>
      </trkpt>
      <trkpt lat="43.39398" lon="5.4378">
        <ele>581.25</ele>
        <time>2019-03-17T15:08:10Z</time>
      </trkpt>
      <trkpt lat="43.3939" lon="5.43778">
        <ele>579.81</ele>
        <time>2019-03-17T15:08:25Z</time>
      </trkpt>
      <trkpt lat="43.39385" lon="5.43783">
        <ele>578.85</ele>
        <time>2019-03-17T15:08:32Z</time>
      </trkpt>
      <trkpt lat="43.39371" lon="5.43781">
        <ele>577.41</ele>
        <time>2019-03-17T15:08:48Z</time>
      </trkpt>
      <trkpt lat="43.3937" lon="5.4378">
        <ele>577.41</ele>
        <time>2019-03-17T15:08:49Z</time>
      </trkpt>
      <trkpt lat="43.39357" lon="5.43775">
        <ele>574.04</ele>
        <time>2019-03-17T15:09:04Z</time>
      </trkpt>
      <trkpt lat="43.39348" lon="5.4377">
        <ele>575.49</ele>
        <time>2019-03-17T15:09:17Z</time>
      </trkpt>
      <trkpt lat="43.39348" lon="5.43775">
        <ele>576.93</ele>
        <time>2019-03-17T15:09:45Z</time>
      </trkpt>
      <trkpt lat="43.39349" lon="5.43771">
        <ele>576.93</ele>
        <time>2019-03-17T15:10:05Z</time>
      </trkpt>
      <trkpt lat="43.39346" lon="5.43769">
        <ele>577.41</ele>
        <time>2019-03-17T15:10:17Z</time>
      </trkpt>
      <trkpt lat="43.39346" lon="5.43767">
        <ele>578.37</ele>
        <time>2019-03-17T15:10:40Z</time>
      </trkpt>
      <trkpt lat="43.39345" lon="5.43766">
        <ele>577.89</ele>
        <time>2019-03-17T15:10:41Z</time>
      </trkpt>
      <trkpt lat="43.39342" lon="5.43756">
        <ele>575.01</ele>
        <time>2019-03-17T15:10:53Z</time>
      </trkpt>
      <trkpt lat="43.3934" lon="5.43748">
        <ele>572.6</ele>
        <time>2019-03-17T15:11:08Z</time>
      </trkpt>
      <trkpt lat="43.39341" lon="5.43741">
        <ele>574.04</ele>
        <time>2019-03-17T15:11:23Z</time>
      </trkpt>
      <trkpt lat="43.39344" lon="5.43738">
        <ele>573.56</ele>
        <time>2019-03-17T15:11:34Z</time>
      </trkpt>
      <trkpt lat="43.39345" lon="5.43735">
        <ele>572.12</ele>
        <time>2019-03-17T15:11:48Z</time>
      </trkpt>
      <trkpt lat="43.39347" lon="5.4373">
        <ele>568.28</ele>
        <time>2019-03-17T15:12:01Z</time>
      </trkpt>
      <trkpt lat="43.39348" lon="5.43724">
        <ele>566.83</ele>
        <time>2019-03-17T15:12:14Z</time>
      </trkpt>
      <trkpt lat="43.3935" lon="5.43717">
        <ele>565.87</ele>
        <time>2019-03-17T15:12:29Z</time>
      </trkpt>
      <trkpt lat="43.39349" lon="5.43709">
        <ele>562.03</ele>
        <time>2019-03-17T15:12:43Z</time>
      </trkpt>
      <trkpt lat="43.3935" lon="5.43701">
        <ele>550.97</ele>
        <time>2019-03-17T15:12:55Z</time>
      </trkpt>
      <trkpt lat="43.39349" lon="5.43698">
        <ele>550.01</ele>
        <time>2019-03-17T15:12:57Z</time>
      </trkpt>
      <trkpt lat="43.39352" lon="5.43687">
        <ele>553.86</ele>
        <time>2019-03-17T15:13:10Z</time>
      </trkpt>
      <trkpt lat="43.3935" lon="5.43689">
        <ele>554.82</ele>
        <time>2019-03-17T15:13:29Z</time>
      </trkpt>
      <trkpt lat="43.39348" lon="5.43695">
        <ele>556.26</ele>
        <time>2019-03-17T15:13:39Z</time>
      </trkpt>
      <trkpt lat="43.39347" lon="5.43698">
        <ele>556.74</ele>
        <time>2019-03-17T15:13:41Z</time>
      </trkpt>
      <trkpt lat="43.39347" lon="5.437">
        <ele>557.22</ele>
        <time>2019-03-17T15:13:43Z</time>
      </trkpt>
      <trkpt lat="43.39347" lon="5.43713">
        <ele>559.14</ele>
        <time>2019-03-17T15:13:57Z</time>
      </trkpt>
      <trkpt lat="43.39346" lon="5.43719">
        <ele>562.51</ele>
        <time>2019-03-17T15:14:10Z</time>
      </trkpt>
      <trkpt lat="43.39348" lon="5.4373">
        <ele>562.51</ele>
        <time>2019-03-17T15:14:22Z</time>
      </trkpt>
      <trkpt lat="43.39347" lon="5.43736">
        <ele>566.35</ele>
        <time>2019-03-17T15:14:34Z</time>
      </trkpt>
      <trkpt lat="43.39346" lon="5.43734">
        <ele>566.83</ele>
        <time>2019-03-17T15:14:44Z</time>
      </trkpt>
      <trkpt lat="43.39347" lon="5.43734">
        <ele>566.35</ele>
        <time>2019-03-17T15:14:45Z</time>
      </trkpt>
      <trkpt lat="43.39348" lon="5.43727">
        <ele>564.91</ele>
        <time>2019-03-17T15:14:53Z</time>
      </trkpt>
      <trkpt lat="43.39345" lon="5.43719">
        <ele>563.47</ele>
        <time>2019-03-17T15:15:01Z</time>
      </trkpt>
      <trkpt lat="43.39346" lon="5.43714">
        <ele>563.95</ele>
        <time>2019-03-17T15:15:07Z</time>
      </trkpt>
      <trkpt lat="43.39346" lon="5.43707">
        <ele>562.99</ele>
        <time>2019-03-17T15:15:18Z</time>
      </trkpt>
      <trkpt lat="43.39347" lon="5.43707">
        <ele>562.51</ele>
        <time>2019-03-17T15:15:40Z</time>
      </trkpt>
      <trkpt lat="43.3935" lon="5.43696">
        <ele>559.62</ele>
        <time>2019-03-17T15:15:54Z</time>
      </trkpt>
      <trkpt lat="43.39356" lon="5.43683">
        <ele>554.82</ele>
        <time>2019-03-17T15:16:07Z</time>
      </trkpt>
      <trkpt lat="43.39357" lon="5.43682">
        <ele>553.86</ele>
        <time>2019-03-17T15:16:09Z</time>
      </trkpt>
      <trkpt lat="43.39362" lon="5.43673">
        <ele>551.45</ele>
        <time>2019-03-17T15:16:18Z</time>
      </trkpt>
      <trkpt lat="43.39367" lon="5.43665">
        <ele>549.53</ele>
        <time>2019-03-17T15:16:27Z</time>
      </trkpt>
      <trkpt lat="43.39369" lon="5.43655">
        <ele>546.17</ele>
        <time>2019-03-17T15:16:39Z</time>
      </trkpt>
      <trkpt lat="43.39373" lon="5.43649">
        <ele>542.32</ele>
        <time>2019-03-17T15:16:49Z</time>
      </trkpt>
      <trkpt lat="43.39374" lon="5.43643">
        <ele>539.44</ele>
        <time>2019-03-17T15:16:56Z</time>
      </trkpt>
      <trkpt lat="43.39376" lon="5.43637">
        <ele>537.99</ele>
        <time>2019-03-17T15:17:01Z</time>
      </trkpt>
      <trkpt lat="43.39384" lon="5.43625">
        <ele>536.55</ele>
        <time>2019-03-17T15:17:16Z</time>
      </trkpt>
      <trkpt lat="43.39385" lon="5.43623">
        <ele>536.07</ele>
        <time>2019-03-17T15:17:18Z</time>
      </trkpt>
      <trkpt lat="43.39388" lon="5.43616">
        <ele>532.23</ele>
        <time>2019-03-17T15:17:33Z</time>
      </trkpt>
      <trkpt lat="43.39391" lon="5.43613">
        <ele>531.75</ele>
        <time>2019-03-17T15:17:47Z</time>
      </trkpt>
      <trkpt lat="43.39395" lon="5.43603">
        <ele>529.34</ele>
        <time>2019-03-17T15:17:58Z</time>
      </trkpt>
      <trkpt lat="43.394" lon="5.43592">
        <ele>521.65</ele>
        <time>2019-03-17T15:18:12Z</time>
      </trkpt>
      <trkpt lat="43.39402" lon="5.43585">
        <ele>518.77</ele>
        <time>2019-03-17T15:18:26Z</time>
      </trkpt>
      <trkpt lat="43.39407" lon="5.43572">
        <ele>515.4</ele>
        <time>2019-03-17T15:18:39Z</time>
      </trkpt>
      <trkpt lat="43.39411" lon="5.43567">
        <ele>510.6</ele>
        <time>2019-03-17T15:18:50Z</time>
      </trkpt>
      <trkpt lat="43.39415" lon="5.43559">
        <ele>508.67</ele>
        <time>2019-03-17T15:18:59Z</time>
      </trkpt>
      <trkpt lat="43.39417" lon="5.43556">
        <ele>508.19</ele>
        <time>2019-03-17T15:19:02Z</time>
      </trkpt>
      <trkpt lat="43.39416" lon="5.43551">
        <ele>506.27</ele>
        <time>2019-03-17T15:19:07Z</time>
      </trkpt>
      <trkpt lat="43.39416" lon="5.43545">
        <ele>503.39</ele>
        <time>2019-03-17T15:19:11Z</time>
      </trkpt>
      <trkpt lat="43.39414" lon="5.4354">
        <ele>498.58</ele>
        <time>2019-03-17T15:19:25Z</time>
      </trkpt>
      <trkpt lat="43.39415" lon="5.43543">
        <ele>498.1</ele>
        <time>2019-03-17T15:19:56Z</time>
      </trkpt>
      <trkpt lat="43.39418" lon="5.43543">
        <ele>501.95</ele>
        <time>2019-03-17T15:20:30Z</time>
      </trkpt>
      <trkpt lat="43.39419" lon="5.43545">
        <ele>504.35</ele>
        <time>2019-03-17T15:20:55Z</time>
      </trkpt>
      <trkpt lat="43.39414" lon="5.43546">
        <ele>507.71</ele>
        <time>2019-03-17T15:21:26Z</time>
      </trkpt>
      <trkpt lat="43.3942" lon="5.43549">
        <ele>512.52</ele>
        <time>2019-03-17T15:21:59Z</time>
      </trkpt>
      <trkpt lat="43.39423" lon="5.43545">
        <ele>513.48</ele>
        <time>2019-03-17T15:22:19Z</time>
      </trkpt>
      <trkpt lat="43.39423" lon="5.43543">
        <ele>514.92</ele>
        <time>2019-03-17T15:22:48Z</time>
      </trkpt>
      <trkpt lat="43.39422" lon="5.4355">
        <ele>516.37</ele>
        <time>2019-03-17T15:23:21Z</time>
      </trkpt>
      <trkpt lat="43.39425" lon="5.43544">
        <ele>520.21</ele>
        <time>2019-03-17T15:23:54Z</time>
      </trkpt>
      <trkpt lat="43.39423" lon="5.43547">
        <ele>519.25</ele>
        <time>2019-03-17T15:24:12Z</time>
      </trkpt>
      <trkpt lat="43.39419" lon="5.43548">
        <ele>521.17</ele>
        <time>2019-03-17T15:24:43Z</time>
      </trkpt>
      <trkpt lat="43.39426" lon="5.43539">
        <ele>512.52</ele>
        <time>2019-03-17T15:25:01Z</time>
      </trkpt>
      <trkpt lat="43.3943" lon="5.43531">
        <ele>508.67</ele>
        <time>2019-03-17T15:25:10Z</time>
      </trkpt>
      <trkpt lat="43.39439" lon="5.43517">
        <ele>503.39</ele>
        <time>2019-03-17T15:25:23Z</time>
      </trkpt>
      <trkpt lat="43.39445" lon="5.43508">
        <ele>499.06</ele>
        <time>2019-03-17T15:25:34Z</time>
      </trkpt>
      <trkpt lat="43.39451" lon="5.43502">
        <ele>496.18</ele>
        <time>2019-03-17T15:25:42Z</time>
      </trkpt>
      <trkpt lat="43.39455" lon="5.43496">
        <ele>496.18</ele>
        <time>2019-03-17T15:25:48Z</time>
      </trkpt>
      <trkpt lat="43.39458" lon="5.43492">
        <ele>496.18</ele>
        <time>2019-03-17T15:25:52Z</time>
      </trkpt>
      <trkpt lat="43.39467" lon="5.43479">
        <ele>494.26</ele>
        <time>2019-03-17T15:26:03Z</time>
      </trkpt>
      <trkpt lat="43.3947" lon="5.43476">
        <ele>492.81</ele>
        <time>2019-03-17T15:26:06Z</time>
      </trkpt>
      <trkpt lat="43.39472" lon="5.43471">
        <ele>488.49</ele>
        <time>2019-03-17T15:26:16Z</time>
      </trkpt>
      <trkpt lat="43.39474" lon="5.43467">
        <ele>486.08</ele>
        <time>2019-03-17T15:26:25Z</time>
      </trkpt>
      <trkpt lat="43.39479" lon="5.43461">
        <ele>485.6</ele>
        <time>2019-03-17T15:26:31Z</time>
      </trkpt>
      <trkpt lat="43.39486" lon="5.4345">
        <ele>483.68</ele>
        <time>2019-03-17T15:26:41Z</time>
      </trkpt>
      <trkpt lat="43.3949" lon="5.43447">
        <ele>483.2</ele>
        <time>2019-03-17T15:26:46Z</time>
      </trkpt>
      <trkpt lat="43.39498" lon="5.43431">
        <ele>481.76</ele>
        <time>2019-03-17T15:26:57Z</time>
      </trkpt>
      <trkpt lat="43.39502" lon="5.43419">
        <ele>480.8</ele>
        <time>2019-03-17T15:27:03Z</time>
      </trkpt>
      <trkpt lat="43.39504" lon="5.43419">
        <ele>479.35</ele>
        <time>2019-03-17T15:27:15Z</time>
      </trkpt>
      <trkpt lat="43.3951" lon="5.43403">
        <ele>479.35</ele>
        <time>2019-03-17T15:27:26Z</time>
      </trkpt>
      <trkpt lat="43.39509" lon="5.43399">
        <ele>475.99</ele>
        <time>2019-03-17T15:27:42Z</time>
      </trkpt>
      <trkpt lat="43.3951" lon="5.43401">
        <ele>476.47</ele>
        <time>2019-03-17T15:27:56Z</time>
      </trkpt>
      <trkpt lat="43.39512" lon="5.43393">
        <ele>476.47</ele>
        <time>2019-03-17T15:28:14Z</time>
      </trkpt>
      <trkpt lat="43.39511" lon="5.43395">
        <ele>477.43</ele>
        <time>2019-03-17T15:28:36Z</time>
      </trkpt>
      <trkpt lat="43.39507" lon="5.43395">
        <ele>476.47</ele>
        <time>2019-03-17T15:28:53Z</time>
      </trkpt>
      <trkpt lat="43.39512" lon="5.43383">
        <ele>472.63</ele>
        <time>2019-03-17T15:29:07Z</time>
      </trkpt>
      <trkpt lat="43.39513" lon="5.43373">
        <ele>468.78</ele>
        <time>2019-03-17T15:29:22Z</time>
      </trkpt>
      <trkpt lat="43.39514" lon="5.43358">
        <ele>464.45</ele>
        <time>2019-03-17T15:29:35Z</time>
      </trkpt>
      <trkpt lat="43.39515" lon="5.43355">
        <ele>463.49</ele>
        <time>2019-03-17T15:29:38Z</time>
      </trkpt>
      <trkpt lat="43.39516" lon="5.43333">
        <ele>461.09</ele>
        <time>2019-03-17T15:29:54Z</time>
      </trkpt>
      <trkpt lat="43.39515" lon="5.43322">
        <ele>462.05</ele>
        <time>2019-03-17T15:30:08Z</time>
      </trkpt>
      <trkpt lat="43.39514" lon="5.43301">
        <ele>457.72</ele>
        <time>2019-03-17T15:30:25Z</time>
      </trkpt>
      <trkpt lat="43.39514" lon="5.43274">
        <ele>455.8</ele>
        <time>2019-03-17T15:30:43Z</time>
      </trkpt>
      <trkpt lat="43.39515" lon="5.43254">
        <ele>453.88</ele>
        <time>2019-03-17T15:30:58Z</time>
      </trkpt>
      <trkpt lat="43.39519" lon="5.43242">
        <ele>451.96</ele>
        <time>2019-03-17T15:31:11Z</time>
      </trkpt>
      <trkpt lat="43.39519" lon="5.4324">
        <ele>451.48</ele>
        <time>2019-03-17T15:31:15Z</time>
      </trkpt>
      <trkpt lat="43.39526" lon="5.43226">
        <ele>450.03</ele>
        <time>2019-03-17T15:31:31Z</time>
      </trkpt>
      <trkpt lat="43.39535" lon="5.4321">
        <ele>449.55</ele>
        <time>2019-03-17T15:31:47Z</time>
      </trkpt>
      <trkpt lat="43.39539" lon="5.43203">
        <ele>449.55</ele>
        <time>2019-03-17T15:31:53Z</time>
      </trkpt>
      <trkpt lat="43.39539" lon="5.432">
        <ele>449.07</ele>
        <time>2019-03-17T15:31:55Z</time>
      </trkpt>
      <trkpt lat="43.39547" lon="5.43184">
        <ele>447.15</ele>
        <time>2019-03-17T15:32:10Z</time>
      </trkpt>
      <trkpt lat="43.39555" lon="5.43166">
        <ele>447.15</ele>
        <time>2019-03-17T15:32:27Z</time>
      </trkpt>
      <trkpt lat="43.39556" lon="5.43165">
        <ele>447.15</ele>
        <time>2019-03-17T15:32:28Z</time>
      </trkpt>
      <trkpt lat="43.39564" lon="5.4315">
        <ele>443.31</ele>
        <time>2019-03-17T15:32:42Z</time>
      </trkpt>
      <trkpt lat="43.39569" lon="5.43136">
        <ele>443.79</ele>
        <time>2019-03-17T15:32:54Z</time>
      </trkpt>
      <trkpt lat="43.39576" lon="5.43115">
        <ele>442.34</ele>
        <time>2019-03-17T15:33:10Z</time>
      </trkpt>
      <trkpt lat="43.39576" lon="5.43114">
        <ele>442.34</ele>
        <time>2019-03-17T15:33:11Z</time>
      </trkpt>
      <trkpt lat="43.39581" lon="5.43096">
        <ele>440.9</ele>
        <time>2019-03-17T15:33:26Z</time>
      </trkpt>
      <trkpt lat="43.39581" lon="5.43095">
        <ele>440.42</ele>
        <time>2019-03-17T15:33:27Z</time>
      </trkpt>
      <trkpt lat="43.39585" lon="5.43082">
        <ele>438.5</ele>
        <time>2019-03-17T15:33:38Z</time>
      </trkpt>
      <trkpt lat="43.39583" lon="5.43078">
        <ele>435.61</ele>
        <time>2019-03-17T15:33:47Z</time>
      </trkpt>
      <trkpt lat="43.39585" lon="5.43078">
        <ele>436.1</ele>
        <time>2019-03-17T15:33:50Z</time>
      </trkpt>
      <trkpt lat="43.39584" lon="5.43065">
        <ele>433.69</ele>
        <time>2019-03-17T15:34:03Z</time>
      </trkpt>
      <trkpt lat="43.39584" lon="5.43061">
        <ele>433.21</ele>
        <time>2019-03-17T15:34:20Z</time>
      </trkpt>
      <trkpt lat="43.39588" lon="5.43057">
        <ele>437.54</ele>
        <time>2019-03-17T15:34:35Z</time>
      </trkpt>
      <trkpt lat="43.39594" lon="5.4305">
        <ele>438.5</ele>
        <time>2019-03-17T15:34:47Z</time>
      </trkpt>
      <trkpt lat="43.39599" lon="5.43048">
        <ele>436.58</ele>
        <time>2019-03-17T15:35:01Z</time>
      </trkpt>
      <trkpt lat="43.39606" lon="5.4305">
        <ele>436.1</ele>
        <time>2019-03-17T15:35:13Z</time>
      </trkpt>
      <trkpt lat="43.39614" lon="5.43049">
        <ele>435.61</ele>
        <time>2019-03-17T15:35:23Z</time>
      </trkpt>
      <trkpt lat="43.39626" lon="5.43045">
        <ele>433.21</ele>
        <time>2019-03-17T15:35:37Z</time>
      </trkpt>
      <trkpt lat="43.39628" lon="5.43045">
        <ele>432.73</ele>
        <time>2019-03-17T15:35:40Z</time>
      </trkpt>
      <trkpt lat="43.39634" lon="5.43045">
        <ele>431.77</ele>
        <time>2019-03-17T15:35:44Z</time>
      </trkpt>
      <trkpt lat="43.39638" lon="5.43047">
        <ele>430.81</ele>
        <time>2019-03-17T15:35:49Z</time>
      </trkpt>
      <trkpt lat="43.39646" lon="5.43054">
        <ele>428.89</ele>
        <time>2019-03-17T15:36:00Z</time>
      </trkpt>
      <trkpt lat="43.39657" lon="5.43062">
        <ele>427.92</ele>
        <time>2019-03-17T15:36:14Z</time>
      </trkpt>
      <trkpt lat="43.39669" lon="5.43063">
        <ele>426</ele>
        <time>2019-03-17T15:36:28Z</time>
      </trkpt>
      <trkpt lat="43.39679" lon="5.43063">
        <ele>423.12</ele>
        <time>2019-03-17T15:36:41Z</time>
      </trkpt>
      <trkpt lat="43.39688" lon="5.43064">
        <ele>423.6</ele>
        <time>2019-03-17T15:36:52Z</time>
      </trkpt>
      <trkpt lat="43.39692" lon="5.43065">
        <ele>423.12</ele>
        <time>2019-03-17T15:36:56Z</time>
      </trkpt>
      <trkpt lat="43.39702" lon="5.43066">
        <ele>419.75</ele>
        <time>2019-03-17T15:37:07Z</time>
      </trkpt>
      <trkpt lat="43.39704" lon="5.43066">
        <ele>419.27</ele>
        <time>2019-03-17T15:37:10Z</time>
      </trkpt>
      <trkpt lat="43.39706" lon="5.43066">
        <ele>419.27</ele>
        <time>2019-03-17T15:37:12Z</time>
      </trkpt>
      <trkpt lat="43.3971" lon="5.43068">
        <ele>419.75</ele>
        <time>2019-03-17T15:37:17Z</time>
      </trkpt>
      <trkpt lat="43.39713" lon="5.43067">
        <ele>419.75</ele>
        <time>2019-03-17T15:37:20Z</time>
      </trkpt>
      <trkpt lat="43.39724" lon="5.43069">
        <ele>417.35</ele>
        <time>2019-03-17T15:37:34Z</time>
      </trkpt>
      <trkpt lat="43.39737" lon="5.43066">
        <ele>414.47</ele>
        <time>2019-03-17T15:37:47Z</time>
      </trkpt>
      <trkpt lat="43.39751" lon="5.43066">
        <ele>414.47</ele>
        <time>2019-03-17T15:38:03Z</time>
      </trkpt>
      <trkpt lat="43.3976" lon="5.43067">
        <ele>416.39</ele>
        <time>2019-03-17T15:38:12Z</time>
      </trkpt>
      <trkpt lat="43.39763" lon="5.43068">
        <ele>416.39</ele>
        <time>2019-03-17T15:38:14Z</time>
      </trkpt>
      <trkpt lat="43.3978" lon="5.43071">
        <ele>415.43</ele>
        <time>2019-03-17T15:38:31Z</time>
      </trkpt>
      <trkpt lat="43.39783" lon="5.43072">
        <ele>414.47</ele>
        <time>2019-03-17T15:38:34Z</time>
      </trkpt>
      <trkpt lat="43.39795" lon="5.43073">
        <ele>413.02</ele>
        <time>2019-03-17T15:38:48Z</time>
      </trkpt>
      <trkpt lat="43.39798" lon="5.43073">
        <ele>413.5</ele>
        <time>2019-03-17T15:38:51Z</time>
      </trkpt>
      <trkpt lat="43.39801" lon="5.43073">
        <ele>413.02</ele>
        <time>2019-03-17T15:38:53Z</time>
      </trkpt>
      <trkpt lat="43.39814" lon="5.43071">
        <ele>411.58</ele>
        <time>2019-03-17T15:39:07Z</time>
      </trkpt>
      <trkpt lat="43.39817" lon="5.4307">
        <ele>411.1</ele>
        <time>2019-03-17T15:39:10Z</time>
      </trkpt>
      <trkpt lat="43.39822" lon="5.43069">
        <ele>409.66</ele>
        <time>2019-03-17T15:39:16Z</time>
      </trkpt>
      <trkpt lat="43.39833" lon="5.43066">
        <ele>407.74</ele>
        <time>2019-03-17T15:39:27Z</time>
      </trkpt>
      <trkpt lat="43.39836" lon="5.43064">
        <ele>406.77</ele>
        <time>2019-03-17T15:39:30Z</time>
      </trkpt>
      <trkpt lat="43.39838" lon="5.43063">
        <ele>406.29</ele>
        <time>2019-03-17T15:39:32Z</time>
      </trkpt>
      <trkpt lat="43.3984" lon="5.43061">
        <ele>406.29</ele>
        <time>2019-03-17T15:39:35Z</time>
      </trkpt>
      <trkpt lat="43.39851" lon="5.43054">
        <ele>404.37</ele>
        <time>2019-03-17T15:39:47Z</time>
      </trkpt>
      <trkpt lat="43.39863" lon="5.43048">
        <ele>402.93</ele>
        <time>2019-03-17T15:40:01Z</time>
      </trkpt>
      <trkpt lat="43.39878" lon="5.43038">
        <ele>401.01</ele>
        <time>2019-03-17T15:40:17Z</time>
      </trkpt>
      <trkpt lat="43.39884" lon="5.43031">
        <ele>398.12</ele>
        <time>2019-03-17T15:40:29Z</time>
      </trkpt>
      <trkpt lat="43.39893" lon="5.43027">
        <ele>398.12</ele>
        <time>2019-03-17T15:40:38Z</time>
      </trkpt>
      <trkpt lat="43.39898" lon="5.43025">
        <ele>397.64</ele>
        <time>2019-03-17T15:40:43Z</time>
      </trkpt>
      <trkpt lat="43.3991" lon="5.43018">
        <ele>396.68</ele>
        <time>2019-03-17T15:40:58Z</time>
      </trkpt>
      <trkpt lat="43.39927" lon="5.43008">
        <ele>396.2</ele>
        <time>2019-03-17T15:41:15Z</time>
      </trkpt>
      <trkpt lat="43.39948" lon="5.42996">
        <ele>395.24</ele>
        <time>2019-03-17T15:41:34Z</time>
      </trkpt>
      <trkpt lat="43.39963" lon="5.4299">
        <ele>394.28</ele>
        <time>2019-03-17T15:41:49Z</time>
      </trkpt>
      <trkpt lat="43.39968" lon="5.42987">
        <ele>392.36</ele>
        <time>2019-03-17T15:42:08Z</time>
      </trkpt>
      <trkpt lat="43.39982" lon="5.42977">
        <ele>389.95</ele>
        <time>2019-03-17T15:42:25Z</time>
      </trkpt>
      <trkpt lat="43.39993" lon="5.42972">
        <ele>388.03</ele>
        <time>2019-03-17T15:42:40Z</time>
      </trkpt>
      <trkpt lat="43.39994" lon="5.42971">
        <ele>387.55</ele>
        <time>2019-03-17T15:42:41Z</time>
      </trkpt>
      <trkpt lat="43.4001" lon="5.42965">
        <ele>385.63</ele>
        <time>2019-03-17T15:42:58Z</time>
      </trkpt>
      <trkpt lat="43.40011" lon="5.42965">
        <ele>385.63</ele>
        <time>2019-03-17T15:42:59Z</time>
      </trkpt>
      <trkpt lat="43.40027" lon="5.42957">
        <ele>382.26</ele>
        <time>2019-03-17T15:43:16Z</time>
      </trkpt>
      <trkpt lat="43.40041" lon="5.42947">
        <ele>382.26</ele>
        <time>2019-03-17T15:43:32Z</time>
      </trkpt>
      <trkpt lat="43.40054" lon="5.42943">
        <ele>385.15</ele>
        <time>2019-03-17T15:43:44Z</time>
      </trkpt>
      <trkpt lat="43.4007" lon="5.42938">
        <ele>383.7</ele>
        <time>2019-03-17T15:43:59Z</time>
      </trkpt>
      <trkpt lat="43.40087" lon="5.42934">
        <ele>380.34</ele>
        <time>2019-03-17T15:44:18Z</time>
      </trkpt>
      <trkpt lat="43.4011" lon="5.42928">
        <ele>379.86</ele>
        <time>2019-03-17T15:44:38Z</time>
      </trkpt>
      <trkpt lat="43.4012" lon="5.42918">
        <ele>378.42</ele>
        <time>2019-03-17T15:44:53Z</time>
      </trkpt>
      <trkpt lat="43.40118" lon="5.42917">
        <ele>374.57</ele>
        <time>2019-03-17T15:45:20Z</time>
      </trkpt>
      <trkpt lat="43.4012" lon="5.42916">
        <ele>375.05</ele>
        <time>2019-03-17T15:45:31Z</time>
      </trkpt>
      <trkpt lat="43.40131" lon="5.42897">
        <ele>376.01</ele>
        <time>2019-03-17T15:45:47Z</time>
      </trkpt>
      <trkpt lat="43.40135" lon="5.42891">
        <ele>376.49</ele>
        <time>2019-03-17T15:45:53Z</time>
      </trkpt>
      <trkpt lat="43.40148" lon="5.42876">
        <ele>375.05</ele>
        <time>2019-03-17T15:46:09Z</time>
      </trkpt>
      <trkpt lat="43.40156" lon="5.42859">
        <ele>374.57</ele>
        <time>2019-03-17T15:46:24Z</time>
      </trkpt>
      <trkpt lat="43.40162" lon="5.42849">
        <ele>373.61</ele>
        <time>2019-03-17T15:46:33Z</time>
      </trkpt>
      <trkpt lat="43.40166" lon="5.42844">
        <ele>373.61</ele>
        <time>2019-03-17T15:46:38Z</time>
      </trkpt>
      <trkpt lat="43.40173" lon="5.42828">
        <ele>373.13</ele>
        <time>2019-03-17T15:46:51Z</time>
      </trkpt>
      <trkpt lat="43.40182" lon="5.42814">
        <ele>370.73</ele>
        <time>2019-03-17T15:47:05Z</time>
      </trkpt>
      <trkpt lat="43.40188" lon="5.42808">
        <ele>369.28</ele>
        <time>2019-03-17T15:47:14Z</time>
      </trkpt>
      <trkpt lat="43.40195" lon="5.42802">
        <ele>369.28</ele>
        <time>2019-03-17T15:47:22Z</time>
      </trkpt>
      <trkpt lat="43.40198" lon="5.42798">
        <ele>368.8</ele>
        <time>2019-03-17T15:47:26Z</time>
      </trkpt>
      <trkpt lat="43.40214" lon="5.42785">
        <ele>364</ele>
        <time>2019-03-17T15:47:42Z</time>
      </trkpt>
      <trkpt lat="43.40216" lon="5.42781">
        <ele>362.07</ele>
        <time>2019-03-17T15:47:47Z</time>
      </trkpt>
      <trkpt lat="43.40225" lon="5.42769">
        <ele>360.15</ele>
        <time>2019-03-17T15:48:00Z</time>
      </trkpt>
      <trkpt lat="43.40237" lon="5.4276">
        <ele>362.07</ele>
        <time>2019-03-17T15:48:12Z</time>
      </trkpt>
      <trkpt lat="43.40238" lon="5.42758">
        <ele>362.07</ele>
        <time>2019-03-17T15:48:14Z</time>
      </trkpt>
      <trkpt lat="43.40242" lon="5.42755">
        <ele>363.04</ele>
        <time>2019-03-17T15:48:18Z</time>
      </trkpt>
      <trkpt lat="43.4025" lon="5.42746">
        <ele>364.96</ele>
        <time>2019-03-17T15:48:28Z</time>
      </trkpt>
      <trkpt lat="43.4026" lon="5.42742">
        <ele>364</ele>
        <time>2019-03-17T15:48:41Z</time>
      </trkpt>
      <trkpt lat="43.40271" lon="5.42738">
        <ele>363.52</ele>
        <time>2019-03-17T15:48:56Z</time>
      </trkpt>
      <trkpt lat="43.40279" lon="5.42732">
        <ele>361.59</ele>
        <time>2019-03-17T15:49:12Z</time>
      </trkpt>
      <trkpt lat="43.40293" lon="5.42725">
        <ele>356.31</ele>
        <time>2019-03-17T15:49:29Z</time>
      </trkpt>
      <trkpt lat="43.40304" lon="5.42717">
        <ele>353.42</ele>
        <time>2019-03-17T15:49:41Z</time>
      </trkpt>
      <trkpt lat="43.40315" lon="5.42707">
        <ele>352.46</ele>
        <time>2019-03-17T15:49:55Z</time>
      </trkpt>
      <trkpt lat="43.40318" lon="5.42704">
        <ele>352.94</ele>
        <time>2019-03-17T15:49:58Z</time>
      </trkpt>
      <trkpt lat="43.40324" lon="5.4269">
        <ele>351.02</ele>
        <time>2019-03-17T15:50:13Z</time>
      </trkpt>
      <trkpt lat="43.40334" lon="5.4268">
        <ele>348.62</ele>
        <time>2019-03-17T15:50:27Z</time>
      </trkpt>
      <trkpt lat="43.40343" lon="5.4267">
        <ele>349.1</ele>
        <time>2019-03-17T15:50:40Z</time>
      </trkpt>
      <trkpt lat="43.4035" lon="5.42664">
        <ele>348.13</ele>
        <time>2019-03-17T15:50:51Z</time>
      </trkpt>
      <trkpt lat="43.40356" lon="5.42656">
        <ele>345.73</ele>
        <time>2019-03-17T15:51:05Z</time>
      </trkpt>
      <trkpt lat="43.40363" lon="5.42651">
        <ele>345.25</ele>
        <time>2019-03-17T15:51:16Z</time>
      </trkpt>
      <trkpt lat="43.40367" lon="5.42648">
        <ele>344.77</ele>
        <time>2019-03-17T15:51:21Z</time>
      </trkpt>
      <trkpt lat="43.40383" lon="5.42644">
        <ele>344.77</ele>
        <time>2019-03-17T15:51:36Z</time>
      </trkpt>
      <trkpt lat="43.40395" lon="5.42641">
        <ele>346.21</ele>
        <time>2019-03-17T15:51:47Z</time>
      </trkpt>
      <trkpt lat="43.40401" lon="5.4263">
        <ele>345.25</ele>
        <time>2019-03-17T15:51:55Z</time>
      </trkpt>
      <trkpt lat="43.40403" lon="5.42626">
        <ele>344.77</ele>
        <time>2019-03-17T15:51:58Z</time>
      </trkpt>
      <trkpt lat="43.40411" lon="5.42617">
        <ele>344.77</ele>
        <time>2019-03-17T15:52:07Z</time>
      </trkpt>
      <trkpt lat="43.40421" lon="5.42608">
        <ele>345.25</ele>
        <time>2019-03-17T15:52:19Z</time>
      </trkpt>
      <trkpt lat="43.40422" lon="5.42607">
        <ele>345.25</ele>
        <time>2019-03-17T15:52:20Z</time>
      </trkpt>
      <trkpt lat="43.40436" lon="5.42604">
        <ele>343.33</ele>
        <time>2019-03-17T15:52:37Z</time>
      </trkpt>
      <trkpt lat="43.40441" lon="5.42603">
        <ele>343.33</ele>
        <time>2019-03-17T15:52:42Z</time>
      </trkpt>
      <trkpt lat="43.40447" lon="5.42603">
        <ele>343.33</ele>
        <time>2019-03-17T15:52:48Z</time>
      </trkpt>
      <trkpt lat="43.4045" lon="5.42603">
        <ele>342.85</ele>
        <time>2019-03-17T15:52:51Z</time>
      </trkpt>
      <trkpt lat="43.40461" lon="5.42606">
        <ele>343.81</ele>
        <time>2019-03-17T15:53:04Z</time>
      </trkpt>
      <trkpt lat="43.40463" lon="5.42609">
        <ele>343.81</ele>
        <time>2019-03-17T15:53:07Z</time>
      </trkpt>
      <trkpt lat="43.40473" lon="5.42612">
        <ele>343.81</ele>
        <time>2019-03-17T15:53:20Z</time>
      </trkpt>
      <trkpt lat="43.40477" lon="5.42617">
        <ele>344.77</ele>
        <time>2019-03-17T15:53:25Z</time>
      </trkpt>
      <trkpt lat="43.40479" lon="5.42622">
        <ele>344.77</ele>
        <time>2019-03-17T15:53:28Z</time>
      </trkpt>
      <trkpt lat="43.40483" lon="5.42626">
        <ele>345.73</ele>
        <time>2019-03-17T15:53:33Z</time>
      </trkpt>
      <trkpt lat="43.40486" lon="5.42637">
        <ele>346.69</ele>
        <time>2019-03-17T15:53:40Z</time>
      </trkpt>
      <trkpt lat="43.40496" lon="5.42653">
        <ele>346.69</ele>
        <time>2019-03-17T15:53:55Z</time>
      </trkpt>
      <trkpt lat="43.40505" lon="5.42667">
        <ele>343.33</ele>
        <time>2019-03-17T15:54:08Z</time>
      </trkpt>
      <trkpt lat="43.40511" lon="5.42672">
        <ele>339.96</ele>
        <time>2019-03-17T15:54:18Z</time>
      </trkpt>
      <trkpt lat="43.40525" lon="5.42683">
        <ele>339</ele>
        <time>2019-03-17T15:54:31Z</time>
      </trkpt>
      <trkpt lat="43.40536" lon="5.42695">
        <ele>336.12</ele>
        <time>2019-03-17T15:54:47Z</time>
      </trkpt>
      <trkpt lat="43.40545" lon="5.42707">
        <ele>334.68</ele>
        <time>2019-03-17T15:55:01Z</time>
      </trkpt>
      <trkpt lat="43.40546" lon="5.42725">
        <ele>333.71</ele>
        <time>2019-03-17T15:55:15Z</time>
      </trkpt>
      <trkpt lat="43.40545" lon="5.42739">
        <ele>333.71</ele>
        <time>2019-03-17T15:55:27Z</time>
      </trkpt>
      <trkpt lat="43.40548" lon="5.42756">
        <ele>334.68</ele>
        <time>2019-03-17T15:55:40Z</time>
      </trkpt>
      <trkpt lat="43.40556" lon="5.42771">
        <ele>334.2</ele>
        <time>2019-03-17T15:55:55Z</time>
      </trkpt>
      <trkpt lat="43.40564" lon="5.42786">
        <ele>331.31</ele>
        <time>2019-03-17T15:56:09Z</time>
      </trkpt>
      <trkpt lat="43.4057" lon="5.42799">
        <ele>328.43</ele>
        <time>2019-03-17T15:56:25Z</time>
      </trkpt>
      <trkpt lat="43.40574" lon="5.42802">
        <ele>327.47</ele>
        <time>2019-03-17T15:56:36Z</time>
      </trkpt>
      <trkpt lat="43.40587" lon="5.42815">
        <ele>325.06</ele>
        <time>2019-03-17T15:56:52Z</time>
      </trkpt>
      <trkpt lat="43.40605" lon="5.42832">
        <ele>326.02</ele>
        <time>2019-03-17T15:57:12Z</time>
      </trkpt>
      <trkpt lat="43.40626" lon="5.4283">
        <ele>327.47</ele>
        <time>2019-03-17T15:57:29Z</time>
      </trkpt>
      <trkpt lat="43.40642" lon="5.42819">
        <ele>325.54</ele>
        <time>2019-03-17T15:57:49Z</time>
      </trkpt>
      <trkpt lat="43.40658" lon="5.4281">
        <ele>320.74</ele>
        <time>2019-03-17T15:58:09Z</time>
      </trkpt>
      <trkpt lat="43.40666" lon="5.428">
        <ele>318.81</ele>
        <time>2019-03-17T15:58:23Z</time>
      </trkpt>
      <trkpt lat="43.40688" lon="5.42787">
        <ele>323.14</ele>
        <time>2019-03-17T15:58:43Z</time>
      </trkpt>
      <trkpt lat="43.40711" lon="5.42769">
        <ele>323.14</ele>
        <time>2019-03-17T15:59:05Z</time>
      </trkpt>
      <trkpt lat="43.40732" lon="5.42756">
        <ele>320.74</ele>
        <time>2019-03-17T15:59:29Z</time>
      </trkpt>
      <trkpt lat="43.40734" lon="5.42754">
        <ele>320.74</ele>
        <time>2019-03-17T15:59:32Z</time>
      </trkpt>
      <trkpt lat="43.40761" lon="5.42747">
        <ele>322.18</ele>
        <time>2019-03-17T15:59:56Z</time>
      </trkpt>
      <trkpt lat="43.40809" lon="5.42742">
        <ele>318.81</ele>
        <time>2019-03-17T16:00:40Z</time>
      </trkpt>
      <trkpt lat="43.40832" lon="5.42744">
        <ele>322.66</ele>
        <time>2019-03-17T16:01:00Z</time>
      </trkpt>
      <trkpt lat="43.40851" lon="5.4275">
        <ele>323.62</ele>
        <time>2019-03-17T16:01:20Z</time>
      </trkpt>
      <trkpt lat="43.40872" lon="5.42751">
        <ele>323.62</ele>
        <time>2019-03-17T16:01:40Z</time>
      </trkpt>
      <trkpt lat="43.40894" lon="5.42749">
        <ele>324.1</ele>
        <time>2019-03-17T16:02:00Z</time>
      </trkpt>
      <trkpt lat="43.40912" lon="5.42747">
        <ele>324.1</ele>
        <time>2019-03-17T16:02:19Z</time>
      </trkpt>
      <trkpt lat="43.40935" lon="5.42746">
        <ele>325.06</ele>
        <time>2019-03-17T16:02:39Z</time>
      </trkpt>
      <trkpt lat="43.4096" lon="5.42743">
        <ele>324.1</ele>
        <time>2019-03-17T16:03:00Z</time>
      </trkpt>
      <trkpt lat="43.40983" lon="5.42741">
        <ele>322.66</ele>
        <time>2019-03-17T16:03:22Z</time>
      </trkpt>
      <trkpt lat="43.41002" lon="5.42736">
        <ele>320.74</ele>
        <time>2019-03-17T16:03:43Z</time>
      </trkpt>
      <trkpt lat="43.41015" lon="5.42733">
        <ele>315.45</ele>
        <time>2019-03-17T16:04:01Z</time>
      </trkpt>
      <trkpt lat="43.41035" lon="5.42727">
        <ele>312.57</ele>
        <time>2019-03-17T16:04:23Z</time>
      </trkpt>
      <trkpt lat="43.41051" lon="5.42718">
        <ele>308.24</ele>
        <time>2019-03-17T16:04:40Z</time>
      </trkpt>
      <trkpt lat="43.41054" lon="5.42715">
        <ele>306.8</ele>
        <time>2019-03-17T16:04:45Z</time>
      </trkpt>
      <trkpt lat="43.41071" lon="5.42704">
        <ele>302.47</ele>
        <time>2019-03-17T16:05:02Z</time>
      </trkpt>
      <trkpt lat="43.41082" lon="5.42694">
        <ele>300.07</ele>
        <time>2019-03-17T16:05:17Z</time>
      </trkpt>
      <trkpt lat="43.41094" lon="5.42678">
        <ele>297.67</ele>
        <time>2019-03-17T16:05:36Z</time>
      </trkpt>
      <trkpt lat="43.41105" lon="5.42665">
        <ele>296.7</ele>
        <time>2019-03-17T16:05:56Z</time>
      </trkpt>
      <trkpt lat="43.41114" lon="5.42651">
        <ele>297.18</ele>
        <time>2019-03-17T16:06:19Z</time>
      </trkpt>
      <trkpt lat="43.41129" lon="5.42638">
        <ele>297.18</ele>
        <time>2019-03-17T16:06:31Z</time>
      </trkpt>
      <trkpt lat="43.41126" lon="5.42635">
        <ele>298.15</ele>
        <time>2019-03-17T16:06:32Z</time>
      </trkpt>
      <trkpt lat="43.41118" lon="5.42622">
        <ele>301.03</ele>
        <time>2019-03-17T16:06:39Z</time>
      </trkpt>
      <trkpt lat="43.41119" lon="5.42621">
        <ele>301.03</ele>
        <time>2019-03-17T16:06:40Z</time>
      </trkpt>
      <trkpt lat="43.41124" lon="5.42616">
        <ele>301.51</ele>
        <time>2019-03-17T16:06:45Z</time>
      </trkpt>
      <trkpt lat="43.41127" lon="5.42612">
        <ele>301.99</ele>
        <time>2019-03-17T16:06:50Z</time>
      </trkpt>
      <trkpt lat="43.41147" lon="5.42609">
        <ele>302.47</ele>
        <time>2019-03-17T16:07:04Z</time>
      </trkpt>
      <trkpt lat="43.41163" lon="5.42604">
        <ele>300.55</ele>
        <time>2019-03-17T16:07:18Z</time>
      </trkpt>
      <trkpt lat="43.41176" lon="5.42601">
        <ele>298.63</ele>
        <time>2019-03-17T16:07:31Z</time>
      </trkpt>
      <trkpt lat="43.41196" lon="5.42596">
        <ele>297.67</ele>
        <time>2019-03-17T16:07:45Z</time>
      </trkpt>
      <trkpt lat="43.41221" lon="5.42588">
        <ele>301.51</ele>
        <time>2019-03-17T16:08:00Z</time>
      </trkpt>
      <trkpt lat="43.41229" lon="5.42582">
        <ele>302.95</ele>
        <time>2019-03-17T16:08:07Z</time>
      </trkpt>
      <trkpt lat="43.41233" lon="5.42581">
        <ele>303.91</ele>
        <time>2019-03-17T16:08:10Z</time>
      </trkpt>
      <trkpt lat="43.41234" lon="5.4258">
        <ele>303.91</ele>
        <time>2019-03-17T16:08:11Z</time>
      </trkpt>
      <trkpt lat="43.41236" lon="5.42575">
        <ele>304.39</ele>
        <time>2019-03-17T16:08:16Z</time>
      </trkpt>
      <trkpt lat="43.41233" lon="5.42555">
        <ele>307.28</ele>
        <time>2019-03-17T16:08:30Z</time>
      </trkpt>
      <trkpt lat="43.41232" lon="5.42554">
        <ele>307.28</ele>
        <time>2019-03-17T16:08:31Z</time>
      </trkpt>
      <trkpt lat="43.41234" lon="5.42539">
        <ele>307.28</ele>
        <time>2019-03-17T16:08:43Z</time>
      </trkpt>
      <trkpt lat="43.41242" lon="5.42528">
        <ele>305.84</ele>
        <time>2019-03-17T16:08:54Z</time>
      </trkpt>
      <trkpt lat="43.41243" lon="5.42527">
        <ele>305.84</ele>
        <time>2019-03-17T16:08:55Z</time>
      </trkpt>
      <trkpt lat="43.41243" lon="5.42526">
        <ele>305.36</ele>
        <time>2019-03-17T16:08:56Z</time>
      </trkpt>
      <trkpt lat="43.41244" lon="5.42524">
        <ele>304.88</ele>
        <time>2019-03-17T16:08:58Z</time>
      </trkpt>
      <trkpt lat="43.41245" lon="5.42522">
        <ele>304.88</ele>
        <time>2019-03-17T16:08:59Z</time>
      </trkpt>
      <trkpt lat="43.41246" lon="5.42521">
        <ele>304.39</ele>
        <time>2019-03-17T16:09:00Z</time>
      </trkpt>
      <trkpt lat="43.41245" lon="5.42519">
        <ele>304.39</ele>
        <time>2019-03-17T16:09:01Z</time>
      </trkpt>
      <trkpt lat="43.41245" lon="5.42518">
        <ele>304.39</ele>
        <time>2019-03-17T16:09:02Z</time>
      </trkpt>
      <trkpt lat="43.4125" lon="5.42509">
        <ele>307.28</ele>
        <time>2019-03-17T16:09:10Z</time>
      </trkpt>
      <trkpt lat="43.41251" lon="5.42508">
        <ele>306.8</ele>
        <time>2019-03-17T16:09:11Z</time>
      </trkpt>
      <trkpt lat="43.41253" lon="5.42496">
        <ele>305.36</ele>
        <time>2019-03-17T16:09:21Z</time>
      </trkpt>
      <trkpt lat="43.41254" lon="5.42495">
        <ele>305.84</ele>
        <time>2019-03-17T16:09:22Z</time>
      </trkpt>
      <trkpt lat="43.41256" lon="5.42494">
        <ele>306.32</ele>
        <time>2019-03-17T16:09:23Z</time>
      </trkpt>
      <trkpt lat="43.41257" lon="5.42494">
        <ele>306.32</ele>
        <time>2019-03-17T16:09:24Z</time>
      </trkpt>
      <trkpt lat="43.41258" lon="5.42493">
        <ele>306.8</ele>
        <time>2019-03-17T16:09:25Z</time>
      </trkpt>
      <trkpt lat="43.41268" lon="5.4249">
        <ele>302.47</ele>
        <time>2019-03-17T16:09:36Z</time>
      </trkpt>
      <trkpt lat="43.41269" lon="5.4249">
        <ele>301.99</ele>
        <time>2019-03-17T16:09:38Z</time>
      </trkpt>
      <trkpt lat="43.4128" lon="5.42486">
        <ele>298.63</ele>
        <time>2019-03-17T16:09:49Z</time>
      </trkpt>
      <trkpt lat="43.41285" lon="5.42485">
        <ele>298.15</ele>
        <time>2019-03-17T16:09:55Z</time>
      </trkpt>
      <trkpt lat="43.41286" lon="5.42486">
        <ele>298.15</ele>
        <time>2019-03-17T16:09:56Z</time>
      </trkpt>
      <trkpt lat="43.41288" lon="5.42486">
        <ele>298.63</ele>
        <time>2019-03-17T16:09:57Z</time>
      </trkpt>
      <trkpt lat="43.41298" lon="5.42493">
        <ele>297.67</ele>
        <time>2019-03-17T16:10:07Z</time>
      </trkpt>
      <trkpt lat="43.41299" lon="5.42494">
        <ele>297.67</ele>
        <time>2019-03-17T16:10:08Z</time>
      </trkpt>
      <trkpt lat="43.41308" lon="5.42504">
        <ele>296.22</ele>
        <time>2019-03-17T16:10:21Z</time>
      </trkpt>
      <trkpt lat="43.41309" lon="5.42506">
        <ele>296.22</ele>
        <time>2019-03-17T16:10:23Z</time>
      </trkpt>
      <trkpt lat="43.41319" lon="5.42514">
        <ele>295.26</ele>
        <time>2019-03-17T16:10:37Z</time>
      </trkpt>
      <trkpt lat="43.41331" lon="5.42522">
        <ele>296.22</ele>
        <time>2019-03-17T16:10:47Z</time>
      </trkpt>
      <trkpt lat="43.41343" lon="5.42532">
        <ele>295.74</ele>
        <time>2019-03-17T16:11:00Z</time>
      </trkpt>
      <trkpt lat="43.41352" lon="5.42546">
        <ele>293.34</ele>
        <time>2019-03-17T16:11:15Z</time>
      </trkpt>
      <trkpt lat="43.41352" lon="5.42548">
        <ele>293.34</ele>
        <time>2019-03-17T16:11:16Z</time>
      </trkpt>
      <trkpt lat="43.41356" lon="5.42561">
        <ele>292.38</ele>
        <time>2019-03-17T16:11:27Z</time>
      </trkpt>
      <trkpt lat="43.41364" lon="5.42572">
        <ele>291.9</ele>
        <time>2019-03-17T16:11:40Z</time>
      </trkpt>
      <trkpt lat="43.41372" lon="5.42577">
        <ele>289.49</ele>
        <time>2019-03-17T16:11:49Z</time>
      </trkpt>
      <trkpt lat="43.41382" lon="5.42581">
        <ele>290.94</ele>
        <time>2019-03-17T16:11:59Z</time>
      </trkpt>
      <trkpt lat="43.41393" lon="5.42586">
        <ele>289.97</ele>
        <time>2019-03-17T16:12:11Z</time>
      </trkpt>
      <trkpt lat="43.41408" lon="5.42591">
        <ele>290.94</ele>
        <time>2019-03-17T16:12:26Z</time>
      </trkpt>
      <trkpt lat="43.41414" lon="5.42591">
        <ele>292.86</ele>
        <time>2019-03-17T16:12:32Z</time>
      </trkpt>
      <trkpt lat="43.41419" lon="5.42589">
        <ele>293.34</ele>
        <time>2019-03-17T16:12:36Z</time>
      </trkpt>
      <trkpt lat="43.41427" lon="5.42589">
        <ele>293.82</ele>
        <time>2019-03-17T16:12:43Z</time>
      </trkpt>
      <trkpt lat="43.41438" lon="5.42585">
        <ele>292.38</ele>
        <time>2019-03-17T16:12:55Z</time>
      </trkpt>
      <trkpt lat="43.41448" lon="5.42583">
        <ele>291.9</ele>
        <time>2019-03-17T16:13:06Z</time>
      </trkpt>
      <trkpt lat="43.41449" lon="5.42584">
        <ele>291.9</ele>
        <time>2019-03-17T16:13:07Z</time>
      </trkpt>
      <trkpt lat="43.4145" lon="5.42584">
        <ele>292.38</ele>
        <time>2019-03-17T16:13:08Z</time>
      </trkpt>
      <trkpt lat="43.41455" lon="5.42586">
        <ele>292.38</ele>
        <time>2019-03-17T16:13:13Z</time>
      </trkpt>
      <trkpt lat="43.41461" lon="5.42593">
        <ele>291.9</ele>
        <time>2019-03-17T16:13:21Z</time>
      </trkpt>
      <trkpt lat="43.41462" lon="5.42601">
        <ele>291.9</ele>
        <time>2019-03-17T16:13:28Z</time>
      </trkpt>
      <trkpt lat="43.41461" lon="5.42615">
        <ele>295.74</ele>
        <time>2019-03-17T16:13:38Z</time>
      </trkpt>
      <trkpt lat="43.41455" lon="5.4263">
        <ele>296.22</ele>
        <time>2019-03-17T16:13:51Z</time>
      </trkpt>
      <trkpt lat="43.41457" lon="5.42646">
        <ele>292.38</ele>
        <time>2019-03-17T16:14:04Z</time>
      </trkpt>
      <trkpt lat="43.41457" lon="5.42662">
        <ele>290.94</ele>
        <time>2019-03-17T16:14:19Z</time>
      </trkpt>
      <trkpt lat="43.41457" lon="5.4268">
        <ele>291.42</ele>
        <time>2019-03-17T16:14:34Z</time>
      </trkpt>
      <trkpt lat="43.41454" lon="5.42698">
        <ele>291.42</ele>
        <time>2019-03-17T16:14:53Z</time>
      </trkpt>
      <trkpt lat="43.41453" lon="5.42716">
        <ele>289.97</ele>
        <time>2019-03-17T16:15:10Z</time>
      </trkpt>
      <trkpt lat="43.41451" lon="5.4274">
        <ele>292.38</ele>
        <time>2019-03-17T16:15:27Z</time>
      </trkpt>
      <trkpt lat="43.41456" lon="5.42766">
        <ele>296.7</ele>
        <time>2019-03-17T16:15:42Z</time>
      </trkpt>
      <trkpt lat="43.41456" lon="5.42769">
        <ele>297.18</ele>
        <time>2019-03-17T16:15:44Z</time>
      </trkpt>
      <trkpt lat="43.4146" lon="5.42792">
        <ele>301.51</ele>
        <time>2019-03-17T16:16:00Z</time>
      </trkpt>
      <trkpt lat="43.41458" lon="5.42805">
        <ele>300.55</ele>
        <time>2019-03-17T16:16:14Z</time>
      </trkpt>
      <trkpt lat="43.41459" lon="5.42821">
        <ele>300.55</ele>
        <time>2019-03-17T16:16:29Z</time>
      </trkpt>
      <trkpt lat="43.41463" lon="5.42843">
        <ele>305.36</ele>
        <time>2019-03-17T16:16:43Z</time>
      </trkpt>
      <trkpt lat="43.41466" lon="5.42861">
        <ele>309.2</ele>
        <time>2019-03-17T16:16:57Z</time>
      </trkpt>
      <trkpt lat="43.41471" lon="5.42876">
        <ele>311.6</ele>
        <time>2019-03-17T16:17:11Z</time>
      </trkpt>
      <trkpt lat="43.41472" lon="5.42895">
        <ele>309.68</ele>
        <time>2019-03-17T16:17:26Z</time>
      </trkpt>
      <trkpt lat="43.4147" lon="5.42915">
        <ele>309.68</ele>
        <time>2019-03-17T16:17:40Z</time>
      </trkpt>
      <trkpt lat="43.41466" lon="5.4293">
        <ele>307.76</ele>
        <time>2019-03-17T16:17:52Z</time>
      </trkpt>
      <trkpt lat="43.41462" lon="5.42945">
        <ele>308.72</ele>
        <time>2019-03-17T16:18:04Z</time>
      </trkpt>
      <trkpt lat="43.41454" lon="5.42962">
        <ele>309.2</ele>
        <time>2019-03-17T16:18:18Z</time>
      </trkpt>
      <trkpt lat="43.4145" lon="5.42973">
        <ele>309.68</ele>
        <time>2019-03-17T16:18:31Z</time>
      </trkpt>
    </trkseg>
  </trk>
</gpx>